<?xml version="1.0" encoding="UTF-8" standalone="no" ?>
<gpx xmlns="http://www.topografix.com/GPX/1/1" xmlns:xsi="http://www.w3.org/2001/XMLSchema-instance" xsi:schemaLocation="http://www.topografix.com/GPX/1/1 http://www.topografix.com/GPX/1/1/gpx.xsd" version="1.1" creator="VisuGPX - https://www.visugpx.com">
  <metadata>
    <name>2019-08-01 16:50</name>
    <desc><![CDATA[Barjac - St Ambroise - 01-08-2019
]]></desc>
  </metadata>
  <trk>
    <name><![CDATA[2019-08-01 16:50]]></name>
    <desc><![CDATA[<p>Heure de départ: 08/01/2019 16:50<br/>Heure d'arrivée: 08/01/2019 18:53<br/>Distance: 36,3 km (02:02)<br/>Temps déplacement: 01:41<br/>Vitesse moyenne: 17,77 km/h<br/>Vitesse moyenne mouv.: 21,38 km/h<br/>Vitesse Max.: 36,61 km/h<br/>Altitude minimale: 103 m<br/>Altitude maximale: 166 m<br/>Vitesse de montée: 253,6 m/h<br/>Vitesse de descente: -280,8 m/h<br/>Gain d'altitude: 255 m<br/>Perte d'altitude: -255 m<br/>Temps de montée: 01:00<br/>Temps de descente: 00:54<br/></p><hr align="center" width="480" style="height: 2px; width: 517px"/>]]></desc>
    <trkseg>
      <trkpt lat="44.30652" lon="4.34312">
        <ele>148.69</ele>
        <time>2019-08-01T14:50:40Z</time>
      </trkpt>
      <trkpt lat="44.30635" lon="4.34305">
        <ele>139.43</ele>
        <time>2019-08-01T14:50:58Z</time>
      </trkpt>
      <trkpt lat="44.30617" lon="4.343">
        <ele>139.53</ele>
        <time>2019-08-01T14:51:05Z</time>
      </trkpt>
      <trkpt lat="44.30599" lon="4.34295">
        <ele>143.09</ele>
        <time>2019-08-01T14:51:12Z</time>
      </trkpt>
      <trkpt lat="44.30574" lon="4.34296">
        <ele>144.3</ele>
        <time>2019-08-01T14:51:18Z</time>
      </trkpt>
      <trkpt lat="44.30556" lon="4.34288">
        <ele>142.57</ele>
        <time>2019-08-01T14:51:23Z</time>
      </trkpt>
      <trkpt lat="44.30541" lon="4.34272">
        <ele>141.7</ele>
        <time>2019-08-01T14:51:28Z</time>
      </trkpt>
      <trkpt lat="44.30502" lon="4.3426">
        <ele>141.26</ele>
        <time>2019-08-01T14:51:32Z</time>
      </trkpt>
      <trkpt lat="44.30484" lon="4.34249">
        <ele>142.24</ele>
        <time>2019-08-01T14:51:35Z</time>
      </trkpt>
      <trkpt lat="44.30465" lon="4.3424">
        <ele>142.35</ele>
        <time>2019-08-01T14:51:38Z</time>
      </trkpt>
      <trkpt lat="44.30447" lon="4.34231">
        <ele>141.97</ele>
        <time>2019-08-01T14:51:41Z</time>
      </trkpt>
      <trkpt lat="44.30428" lon="4.34223">
        <ele>140.66</ele>
        <time>2019-08-01T14:51:44Z</time>
      </trkpt>
      <trkpt lat="44.30408" lon="4.34216">
        <ele>140.93</ele>
        <time>2019-08-01T14:51:47Z</time>
      </trkpt>
      <trkpt lat="44.30387" lon="4.34205">
        <ele>140.81</ele>
        <time>2019-08-01T14:51:50Z</time>
      </trkpt>
      <trkpt lat="44.30367" lon="4.34195">
        <ele>139.25</ele>
        <time>2019-08-01T14:51:53Z</time>
      </trkpt>
      <trkpt lat="44.30349" lon="4.34192">
        <ele>136.05</ele>
        <time>2019-08-01T14:51:56Z</time>
      </trkpt>
      <trkpt lat="44.30326" lon="4.34187">
        <ele>134.75</ele>
        <time>2019-08-01T14:52:00Z</time>
      </trkpt>
      <trkpt lat="44.30306" lon="4.34186">
        <ele>134.51</ele>
        <time>2019-08-01T14:52:03Z</time>
      </trkpt>
      <trkpt lat="44.30285" lon="4.34184">
        <ele>134.71</ele>
        <time>2019-08-01T14:52:06Z</time>
      </trkpt>
      <trkpt lat="44.30267" lon="4.34183">
        <ele>132.18</ele>
        <time>2019-08-01T14:52:08Z</time>
      </trkpt>
      <trkpt lat="44.30242" lon="4.34183">
        <ele>127.48</ele>
        <time>2019-08-01T14:52:11Z</time>
      </trkpt>
      <trkpt lat="44.30217" lon="4.34181">
        <ele>128.22</ele>
        <time>2019-08-01T14:52:14Z</time>
      </trkpt>
      <trkpt lat="44.30195" lon="4.3418">
        <ele>128.65</ele>
        <time>2019-08-01T14:52:17Z</time>
      </trkpt>
      <trkpt lat="44.30173" lon="4.34183">
        <ele>128.05</ele>
        <time>2019-08-01T14:52:20Z</time>
      </trkpt>
      <trkpt lat="44.30151" lon="4.34184">
        <ele>126.51</ele>
        <time>2019-08-01T14:52:23Z</time>
      </trkpt>
      <trkpt lat="44.3013" lon="4.34187">
        <ele>127.33</ele>
        <time>2019-08-01T14:52:26Z</time>
      </trkpt>
      <trkpt lat="44.30109" lon="4.34188">
        <ele>128.63</ele>
        <time>2019-08-01T14:52:29Z</time>
      </trkpt>
      <trkpt lat="44.3009" lon="4.34181">
        <ele>130.4</ele>
        <time>2019-08-01T14:52:32Z</time>
      </trkpt>
      <trkpt lat="44.30071" lon="4.34181">
        <ele>130.98</ele>
        <time>2019-08-01T14:52:35Z</time>
      </trkpt>
      <trkpt lat="44.3005" lon="4.34179">
        <ele>131.38</ele>
        <time>2019-08-01T14:52:38Z</time>
      </trkpt>
      <trkpt lat="44.3003" lon="4.34178">
        <ele>131.39</ele>
        <time>2019-08-01T14:52:41Z</time>
      </trkpt>
      <trkpt lat="44.30011" lon="4.34172">
        <ele>130.72</ele>
        <time>2019-08-01T14:52:44Z</time>
      </trkpt>
      <trkpt lat="44.29991" lon="4.34165">
        <ele>130.58</ele>
        <time>2019-08-01T14:52:47Z</time>
      </trkpt>
      <trkpt lat="44.29972" lon="4.34155">
        <ele>129.44</ele>
        <time>2019-08-01T14:52:50Z</time>
      </trkpt>
      <trkpt lat="44.29953" lon="4.34147">
        <ele>128.76</ele>
        <time>2019-08-01T14:52:53Z</time>
      </trkpt>
      <trkpt lat="44.29931" lon="4.34137">
        <ele>130.84</ele>
        <time>2019-08-01T14:52:57Z</time>
      </trkpt>
      <trkpt lat="44.29915" lon="4.34121">
        <ele>128.82</ele>
        <time>2019-08-01T14:53:00Z</time>
      </trkpt>
      <trkpt lat="44.299" lon="4.34103">
        <ele>130.55</ele>
        <time>2019-08-01T14:53:03Z</time>
      </trkpt>
      <trkpt lat="44.29881" lon="4.34081">
        <ele>131.37</ele>
        <time>2019-08-01T14:53:07Z</time>
      </trkpt>
      <trkpt lat="44.29866" lon="4.34062">
        <ele>130.56</ele>
        <time>2019-08-01T14:53:10Z</time>
      </trkpt>
      <trkpt lat="44.29851" lon="4.34045">
        <ele>130.44</ele>
        <time>2019-08-01T14:53:13Z</time>
      </trkpt>
      <trkpt lat="44.29836" lon="4.34023">
        <ele>129.77</ele>
        <time>2019-08-01T14:53:16Z</time>
      </trkpt>
      <trkpt lat="44.2982" lon="4.34006">
        <ele>126.99</ele>
        <time>2019-08-01T14:53:19Z</time>
      </trkpt>
      <trkpt lat="44.29804" lon="4.33983">
        <ele>125.97</ele>
        <time>2019-08-01T14:53:22Z</time>
      </trkpt>
      <trkpt lat="44.29789" lon="4.33963">
        <ele>125.87</ele>
        <time>2019-08-01T14:53:25Z</time>
      </trkpt>
      <trkpt lat="44.29774" lon="4.33941">
        <ele>125.14</ele>
        <time>2019-08-01T14:53:28Z</time>
      </trkpt>
      <trkpt lat="44.29758" lon="4.33921">
        <ele>124.06</ele>
        <time>2019-08-01T14:53:31Z</time>
      </trkpt>
      <trkpt lat="44.29744" lon="4.33903">
        <ele>123.95</ele>
        <time>2019-08-01T14:53:34Z</time>
      </trkpt>
      <trkpt lat="44.29729" lon="4.33886">
        <ele>124.17</ele>
        <time>2019-08-01T14:53:37Z</time>
      </trkpt>
      <trkpt lat="44.29714" lon="4.33864">
        <ele>124.29</ele>
        <time>2019-08-01T14:53:40Z</time>
      </trkpt>
      <trkpt lat="44.29698" lon="4.33844">
        <ele>125.88</ele>
        <time>2019-08-01T14:53:43Z</time>
      </trkpt>
      <trkpt lat="44.29684" lon="4.33826">
        <ele>127.32</ele>
        <time>2019-08-01T14:53:46Z</time>
      </trkpt>
      <trkpt lat="44.29669" lon="4.33811">
        <ele>127.71</ele>
        <time>2019-08-01T14:53:49Z</time>
      </trkpt>
      <trkpt lat="44.29655" lon="4.33794">
        <ele>128.28</ele>
        <time>2019-08-01T14:53:52Z</time>
      </trkpt>
      <trkpt lat="44.29642" lon="4.33768">
        <ele>126.75</ele>
        <time>2019-08-01T14:53:55Z</time>
      </trkpt>
      <trkpt lat="44.2963" lon="4.33749">
        <ele>125.37</ele>
        <time>2019-08-01T14:53:58Z</time>
      </trkpt>
      <trkpt lat="44.29617" lon="4.33727">
        <ele>125.45</ele>
        <time>2019-08-01T14:54:01Z</time>
      </trkpt>
      <trkpt lat="44.29607" lon="4.33706">
        <ele>124.15</ele>
        <time>2019-08-01T14:54:04Z</time>
      </trkpt>
      <trkpt lat="44.29595" lon="4.33683">
        <ele>122.65</ele>
        <time>2019-08-01T14:54:07Z</time>
      </trkpt>
      <trkpt lat="44.29585" lon="4.33662">
        <ele>120.23</ele>
        <time>2019-08-01T14:54:10Z</time>
      </trkpt>
      <trkpt lat="44.29572" lon="4.33639">
        <ele>118.6</ele>
        <time>2019-08-01T14:54:13Z</time>
      </trkpt>
      <trkpt lat="44.29559" lon="4.33619">
        <ele>119.25</ele>
        <time>2019-08-01T14:54:16Z</time>
      </trkpt>
      <trkpt lat="44.29545" lon="4.33598">
        <ele>121.61</ele>
        <time>2019-08-01T14:54:19Z</time>
      </trkpt>
      <trkpt lat="44.29531" lon="4.33579">
        <ele>122.01</ele>
        <time>2019-08-01T14:54:22Z</time>
      </trkpt>
      <trkpt lat="44.29516" lon="4.33559">
        <ele>123.5</ele>
        <time>2019-08-01T14:54:25Z</time>
      </trkpt>
      <trkpt lat="44.29502" lon="4.33539">
        <ele>122.67</ele>
        <time>2019-08-01T14:54:28Z</time>
      </trkpt>
      <trkpt lat="44.29488" lon="4.33522">
        <ele>123.03</ele>
        <time>2019-08-01T14:54:31Z</time>
      </trkpt>
      <trkpt lat="44.29474" lon="4.33505">
        <ele>123.56</ele>
        <time>2019-08-01T14:54:34Z</time>
      </trkpt>
      <trkpt lat="44.29458" lon="4.33483">
        <ele>123.36</ele>
        <time>2019-08-01T14:54:38Z</time>
      </trkpt>
      <trkpt lat="44.29444" lon="4.33466">
        <ele>122.21</ele>
        <time>2019-08-01T14:54:41Z</time>
      </trkpt>
      <trkpt lat="44.2943" lon="4.33448">
        <ele>122.07</ele>
        <time>2019-08-01T14:54:44Z</time>
      </trkpt>
      <trkpt lat="44.29414" lon="4.33425">
        <ele>121.95</ele>
        <time>2019-08-01T14:54:48Z</time>
      </trkpt>
      <trkpt lat="44.29401" lon="4.33407">
        <ele>121.81</ele>
        <time>2019-08-01T14:54:51Z</time>
      </trkpt>
      <trkpt lat="44.29386" lon="4.3339">
        <ele>119.91</ele>
        <time>2019-08-01T14:54:54Z</time>
      </trkpt>
      <trkpt lat="44.29368" lon="4.33369">
        <ele>119.43</ele>
        <time>2019-08-01T14:54:58Z</time>
      </trkpt>
      <trkpt lat="44.29354" lon="4.3335">
        <ele>118.26</ele>
        <time>2019-08-01T14:55:01Z</time>
      </trkpt>
      <trkpt lat="44.29338" lon="4.33327">
        <ele>117.58</ele>
        <time>2019-08-01T14:55:05Z</time>
      </trkpt>
      <trkpt lat="44.29325" lon="4.33308">
        <ele>118.02</ele>
        <time>2019-08-01T14:55:08Z</time>
      </trkpt>
      <trkpt lat="44.29308" lon="4.33284">
        <ele>117.58</ele>
        <time>2019-08-01T14:55:12Z</time>
      </trkpt>
      <trkpt lat="44.29291" lon="4.33265">
        <ele>117.79</ele>
        <time>2019-08-01T14:55:16Z</time>
      </trkpt>
      <trkpt lat="44.29274" lon="4.33243">
        <ele>117.45</ele>
        <time>2019-08-01T14:55:20Z</time>
      </trkpt>
      <trkpt lat="44.29262" lon="4.33223">
        <ele>118.71</ele>
        <time>2019-08-01T14:55:23Z</time>
      </trkpt>
      <trkpt lat="44.29244" lon="4.332">
        <ele>117.79</ele>
        <time>2019-08-01T14:55:27Z</time>
      </trkpt>
      <trkpt lat="44.29226" lon="4.33181">
        <ele>116.92</ele>
        <time>2019-08-01T14:55:31Z</time>
      </trkpt>
      <trkpt lat="44.2921" lon="4.33159">
        <ele>115.08</ele>
        <time>2019-08-01T14:55:35Z</time>
      </trkpt>
      <trkpt lat="44.29196" lon="4.33139">
        <ele>114.13</ele>
        <time>2019-08-01T14:55:38Z</time>
      </trkpt>
      <trkpt lat="44.29184" lon="4.33117">
        <ele>113.36</ele>
        <time>2019-08-01T14:55:41Z</time>
      </trkpt>
      <trkpt lat="44.29169" lon="4.33093">
        <ele>113.81</ele>
        <time>2019-08-01T14:55:45Z</time>
      </trkpt>
      <trkpt lat="44.29154" lon="4.33069">
        <ele>113.39</ele>
        <time>2019-08-01T14:55:49Z</time>
      </trkpt>
      <trkpt lat="44.29145" lon="4.33045">
        <ele>114.25</ele>
        <time>2019-08-01T14:55:52Z</time>
      </trkpt>
      <trkpt lat="44.29134" lon="4.33023">
        <ele>114.33</ele>
        <time>2019-08-01T14:55:55Z</time>
      </trkpt>
      <trkpt lat="44.29123" lon="4.33002">
        <ele>112.6</ele>
        <time>2019-08-01T14:55:58Z</time>
      </trkpt>
      <trkpt lat="44.29108" lon="4.32976">
        <ele>112.07</ele>
        <time>2019-08-01T14:56:02Z</time>
      </trkpt>
      <trkpt lat="44.29093" lon="4.32954">
        <ele>114.14</ele>
        <time>2019-08-01T14:56:06Z</time>
      </trkpt>
      <trkpt lat="44.29075" lon="4.32932">
        <ele>113.23</ele>
        <time>2019-08-01T14:56:10Z</time>
      </trkpt>
      <trkpt lat="44.29057" lon="4.32907">
        <ele>112.3</ele>
        <time>2019-08-01T14:56:14Z</time>
      </trkpt>
      <trkpt lat="44.29042" lon="4.32893">
        <ele>113.19</ele>
        <time>2019-08-01T14:56:17Z</time>
      </trkpt>
      <trkpt lat="44.29026" lon="4.32879">
        <ele>112.64</ele>
        <time>2019-08-01T14:56:20Z</time>
      </trkpt>
      <trkpt lat="44.29004" lon="4.3286">
        <ele>113.46</ele>
        <time>2019-08-01T14:56:24Z</time>
      </trkpt>
      <trkpt lat="44.28986" lon="4.32851">
        <ele>116.28</ele>
        <time>2019-08-01T14:56:27Z</time>
      </trkpt>
      <trkpt lat="44.28968" lon="4.32839">
        <ele>115.7</ele>
        <time>2019-08-01T14:56:30Z</time>
      </trkpt>
      <trkpt lat="44.28948" lon="4.32828">
        <ele>113.84</ele>
        <time>2019-08-01T14:56:33Z</time>
      </trkpt>
      <trkpt lat="44.28932" lon="4.32811">
        <ele>112.51</ele>
        <time>2019-08-01T14:56:36Z</time>
      </trkpt>
      <trkpt lat="44.28917" lon="4.32796">
        <ele>111.11</ele>
        <time>2019-08-01T14:56:39Z</time>
      </trkpt>
      <trkpt lat="44.28898" lon="4.32779">
        <ele>110.87</ele>
        <time>2019-08-01T14:56:43Z</time>
      </trkpt>
      <trkpt lat="44.28879" lon="4.3276">
        <ele>113.22</ele>
        <time>2019-08-01T14:56:47Z</time>
      </trkpt>
      <trkpt lat="44.28861" lon="4.32738">
        <ele>113.4</ele>
        <time>2019-08-01T14:56:51Z</time>
      </trkpt>
      <trkpt lat="44.28849" lon="4.3272">
        <ele>113.05</ele>
        <time>2019-08-01T14:56:54Z</time>
      </trkpt>
      <trkpt lat="44.28834" lon="4.32699">
        <ele>111.26</ele>
        <time>2019-08-01T14:56:57Z</time>
      </trkpt>
      <trkpt lat="44.28822" lon="4.3268">
        <ele>110.31</ele>
        <time>2019-08-01T14:57:00Z</time>
      </trkpt>
      <trkpt lat="44.28806" lon="4.32659">
        <ele>112.16</ele>
        <time>2019-08-01T14:57:04Z</time>
      </trkpt>
      <trkpt lat="44.28789" lon="4.32639">
        <ele>113.82</ele>
        <time>2019-08-01T14:57:08Z</time>
      </trkpt>
      <trkpt lat="44.28774" lon="4.32614">
        <ele>115.56</ele>
        <time>2019-08-01T14:57:12Z</time>
      </trkpt>
      <trkpt lat="44.28765" lon="4.32592">
        <ele>116.08</ele>
        <time>2019-08-01T14:57:15Z</time>
      </trkpt>
      <trkpt lat="44.2875" lon="4.32571">
        <ele>117.41</ele>
        <time>2019-08-01T14:57:19Z</time>
      </trkpt>
      <trkpt lat="44.28738" lon="4.32544">
        <ele>118.02</ele>
        <time>2019-08-01T14:57:23Z</time>
      </trkpt>
      <trkpt lat="44.28729" lon="4.32515">
        <ele>120.47</ele>
        <time>2019-08-01T14:57:27Z</time>
      </trkpt>
      <trkpt lat="44.28723" lon="4.32485">
        <ele>118.41</ele>
        <time>2019-08-01T14:57:31Z</time>
      </trkpt>
      <trkpt lat="44.28722" lon="4.32459">
        <ele>118.76</ele>
        <time>2019-08-01T14:57:34Z</time>
      </trkpt>
      <trkpt lat="44.28719" lon="4.32431">
        <ele>118.98</ele>
        <time>2019-08-01T14:57:38Z</time>
      </trkpt>
      <trkpt lat="44.28725" lon="4.32402">
        <ele>117.4</ele>
        <time>2019-08-01T14:57:41Z</time>
      </trkpt>
      <trkpt lat="44.28724" lon="4.32369">
        <ele>117.52</ele>
        <time>2019-08-01T14:57:45Z</time>
      </trkpt>
      <trkpt lat="44.28725" lon="4.3234">
        <ele>116.76</ele>
        <time>2019-08-01T14:57:49Z</time>
      </trkpt>
      <trkpt lat="44.28723" lon="4.32309">
        <ele>113.78</ele>
        <time>2019-08-01T14:57:53Z</time>
      </trkpt>
      <trkpt lat="44.28717" lon="4.32278">
        <ele>115.62</ele>
        <time>2019-08-01T14:57:57Z</time>
      </trkpt>
      <trkpt lat="44.28711" lon="4.32254">
        <ele>119.71</ele>
        <time>2019-08-01T14:58:00Z</time>
      </trkpt>
      <trkpt lat="44.28699" lon="4.32226">
        <ele>122.26</ele>
        <time>2019-08-01T14:58:04Z</time>
      </trkpt>
      <trkpt lat="44.28689" lon="4.32204">
        <ele>124.85</ele>
        <time>2019-08-01T14:58:07Z</time>
      </trkpt>
      <trkpt lat="44.28678" lon="4.32176">
        <ele>128.85</ele>
        <time>2019-08-01T14:58:11Z</time>
      </trkpt>
      <trkpt lat="44.28669" lon="4.32153">
        <ele>131.23</ele>
        <time>2019-08-01T14:58:14Z</time>
      </trkpt>
      <trkpt lat="44.28658" lon="4.32133">
        <ele>132.3</ele>
        <time>2019-08-01T14:58:17Z</time>
      </trkpt>
      <trkpt lat="44.28649" lon="4.32111">
        <ele>131.68</ele>
        <time>2019-08-01T14:58:20Z</time>
      </trkpt>
      <trkpt lat="44.2864" lon="4.32088">
        <ele>130.76</ele>
        <time>2019-08-01T14:58:23Z</time>
      </trkpt>
      <trkpt lat="44.28632" lon="4.32064">
        <ele>131.47</ele>
        <time>2019-08-01T14:58:26Z</time>
      </trkpt>
      <trkpt lat="44.28619" lon="4.32042">
        <ele>132.3</ele>
        <time>2019-08-01T14:58:30Z</time>
      </trkpt>
      <trkpt lat="44.28612" lon="4.32017">
        <ele>132.51</ele>
        <time>2019-08-01T14:58:33Z</time>
      </trkpt>
      <trkpt lat="44.28601" lon="4.3199">
        <ele>135.25</ele>
        <time>2019-08-01T14:58:37Z</time>
      </trkpt>
      <trkpt lat="44.28588" lon="4.31964">
        <ele>136.14</ele>
        <time>2019-08-01T14:58:41Z</time>
      </trkpt>
      <trkpt lat="44.28573" lon="4.31939">
        <ele>137.12</ele>
        <time>2019-08-01T14:58:45Z</time>
      </trkpt>
      <trkpt lat="44.28558" lon="4.31913">
        <ele>135.41</ele>
        <time>2019-08-01T14:58:49Z</time>
      </trkpt>
      <trkpt lat="44.28543" lon="4.3189">
        <ele>133.37</ele>
        <time>2019-08-01T14:58:52Z</time>
      </trkpt>
      <trkpt lat="44.28529" lon="4.3187">
        <ele>131.82</ele>
        <time>2019-08-01T14:58:55Z</time>
      </trkpt>
      <trkpt lat="44.28516" lon="4.31846">
        <ele>132.71</ele>
        <time>2019-08-01T14:58:58Z</time>
      </trkpt>
      <trkpt lat="44.28502" lon="4.31823">
        <ele>132.15</ele>
        <time>2019-08-01T14:59:01Z</time>
      </trkpt>
      <trkpt lat="44.28488" lon="4.31804">
        <ele>130.76</ele>
        <time>2019-08-01T14:59:04Z</time>
      </trkpt>
      <trkpt lat="44.28475" lon="4.31779">
        <ele>130.91</ele>
        <time>2019-08-01T14:59:07Z</time>
      </trkpt>
      <trkpt lat="44.28461" lon="4.31757">
        <ele>129.73</ele>
        <time>2019-08-01T14:59:10Z</time>
      </trkpt>
      <trkpt lat="44.28447" lon="4.31734">
        <ele>129.16</ele>
        <time>2019-08-01T14:59:13Z</time>
      </trkpt>
      <trkpt lat="44.28433" lon="4.31714">
        <ele>129.4</ele>
        <time>2019-08-01T14:59:16Z</time>
      </trkpt>
      <trkpt lat="44.28418" lon="4.31694">
        <ele>129.17</ele>
        <time>2019-08-01T14:59:19Z</time>
      </trkpt>
      <trkpt lat="44.28402" lon="4.31676">
        <ele>129.19</ele>
        <time>2019-08-01T14:59:22Z</time>
      </trkpt>
      <trkpt lat="44.28384" lon="4.31656">
        <ele>127.73</ele>
        <time>2019-08-01T14:59:25Z</time>
      </trkpt>
      <trkpt lat="44.28366" lon="4.31636">
        <ele>126.54</ele>
        <time>2019-08-01T14:59:28Z</time>
      </trkpt>
      <trkpt lat="44.28347" lon="4.31615">
        <ele>125.98</ele>
        <time>2019-08-01T14:59:31Z</time>
      </trkpt>
      <trkpt lat="44.28328" lon="4.31593">
        <ele>123.3</ele>
        <time>2019-08-01T14:59:34Z</time>
      </trkpt>
      <trkpt lat="44.28307" lon="4.31571">
        <ele>122.37</ele>
        <time>2019-08-01T14:59:37Z</time>
      </trkpt>
      <trkpt lat="44.28288" lon="4.31547">
        <ele>122.28</ele>
        <time>2019-08-01T14:59:40Z</time>
      </trkpt>
      <trkpt lat="44.28271" lon="4.31528">
        <ele>121.86</ele>
        <time>2019-08-01T14:59:43Z</time>
      </trkpt>
      <trkpt lat="44.28254" lon="4.3151">
        <ele>122.99</ele>
        <time>2019-08-01T14:59:46Z</time>
      </trkpt>
      <trkpt lat="44.28237" lon="4.31488">
        <ele>122.45</ele>
        <time>2019-08-01T14:59:50Z</time>
      </trkpt>
      <trkpt lat="44.28219" lon="4.3147">
        <ele>122.9</ele>
        <time>2019-08-01T14:59:54Z</time>
      </trkpt>
      <trkpt lat="44.28205" lon="4.31453">
        <ele>123.83</ele>
        <time>2019-08-01T14:59:57Z</time>
      </trkpt>
      <trkpt lat="44.2819" lon="4.31438">
        <ele>125.82</ele>
        <time>2019-08-01T15:00:00Z</time>
      </trkpt>
      <trkpt lat="44.28172" lon="4.31421">
        <ele>126.5</ele>
        <time>2019-08-01T15:00:04Z</time>
      </trkpt>
      <trkpt lat="44.28158" lon="4.31402">
        <ele>127.71</ele>
        <time>2019-08-01T15:00:07Z</time>
      </trkpt>
      <trkpt lat="44.28144" lon="4.31384">
        <ele>127.05</ele>
        <time>2019-08-01T15:00:10Z</time>
      </trkpt>
      <trkpt lat="44.28126" lon="4.31362">
        <ele>124.74</ele>
        <time>2019-08-01T15:00:14Z</time>
      </trkpt>
      <trkpt lat="44.28112" lon="4.31343">
        <ele>123.87</ele>
        <time>2019-08-01T15:00:17Z</time>
      </trkpt>
      <trkpt lat="44.281" lon="4.31325">
        <ele>124.39</ele>
        <time>2019-08-01T15:00:20Z</time>
      </trkpt>
      <trkpt lat="44.28083" lon="4.31299">
        <ele>124.64</ele>
        <time>2019-08-01T15:00:24Z</time>
      </trkpt>
      <trkpt lat="44.28067" lon="4.31277">
        <ele>124.66</ele>
        <time>2019-08-01T15:00:28Z</time>
      </trkpt>
      <trkpt lat="44.28052" lon="4.3126">
        <ele>124.33</ele>
        <time>2019-08-01T15:00:31Z</time>
      </trkpt>
      <trkpt lat="44.28035" lon="4.31237">
        <ele>125.86</ele>
        <time>2019-08-01T15:00:35Z</time>
      </trkpt>
      <trkpt lat="44.28022" lon="4.31216">
        <ele>125.55</ele>
        <time>2019-08-01T15:00:38Z</time>
      </trkpt>
      <trkpt lat="44.2801" lon="4.31197">
        <ele>123.93</ele>
        <time>2019-08-01T15:00:41Z</time>
      </trkpt>
      <trkpt lat="44.27998" lon="4.31169">
        <ele>126.81</ele>
        <time>2019-08-01T15:00:45Z</time>
      </trkpt>
      <trkpt lat="44.27992" lon="4.3114">
        <ele>130.5</ele>
        <time>2019-08-01T15:00:49Z</time>
      </trkpt>
      <trkpt lat="44.27991" lon="4.31113">
        <ele>133.93</ele>
        <time>2019-08-01T15:00:52Z</time>
      </trkpt>
      <trkpt lat="44.27991" lon="4.31086">
        <ele>134.18</ele>
        <time>2019-08-01T15:00:55Z</time>
      </trkpt>
      <trkpt lat="44.27989" lon="4.31052">
        <ele>133.33</ele>
        <time>2019-08-01T15:00:59Z</time>
      </trkpt>
      <trkpt lat="44.27989" lon="4.31025">
        <ele>135.07</ele>
        <time>2019-08-01T15:01:02Z</time>
      </trkpt>
      <trkpt lat="44.27982" lon="4.31">
        <ele>137.47</ele>
        <time>2019-08-01T15:01:06Z</time>
      </trkpt>
      <trkpt lat="44.27978" lon="4.30969">
        <ele>134.01</ele>
        <time>2019-08-01T15:01:10Z</time>
      </trkpt>
      <trkpt lat="44.27974" lon="4.30943">
        <ele>134.78</ele>
        <time>2019-08-01T15:01:13Z</time>
      </trkpt>
      <trkpt lat="44.2797" lon="4.30916">
        <ele>133.31</ele>
        <time>2019-08-01T15:01:16Z</time>
      </trkpt>
      <trkpt lat="44.27963" lon="4.30893">
        <ele>132.14</ele>
        <time>2019-08-01T15:01:19Z</time>
      </trkpt>
      <trkpt lat="44.27956" lon="4.30869">
        <ele>131.08</ele>
        <time>2019-08-01T15:01:22Z</time>
      </trkpt>
      <trkpt lat="44.27943" lon="4.30842">
        <ele>134.89</ele>
        <time>2019-08-01T15:01:26Z</time>
      </trkpt>
      <trkpt lat="44.27932" lon="4.30819">
        <ele>134.79</ele>
        <time>2019-08-01T15:01:29Z</time>
      </trkpt>
      <trkpt lat="44.27916" lon="4.30796">
        <ele>134.73</ele>
        <time>2019-08-01T15:01:33Z</time>
      </trkpt>
      <trkpt lat="44.27903" lon="4.30776">
        <ele>133.38</ele>
        <time>2019-08-01T15:01:36Z</time>
      </trkpt>
      <trkpt lat="44.2789" lon="4.30759">
        <ele>132.43</ele>
        <time>2019-08-01T15:01:39Z</time>
      </trkpt>
      <trkpt lat="44.27874" lon="4.30747">
        <ele>131.42</ele>
        <time>2019-08-01T15:01:42Z</time>
      </trkpt>
      <trkpt lat="44.27853" lon="4.30732">
        <ele>133.39</ele>
        <time>2019-08-01T15:01:46Z</time>
      </trkpt>
      <trkpt lat="44.27832" lon="4.30718">
        <ele>133.27</ele>
        <time>2019-08-01T15:01:50Z</time>
      </trkpt>
      <trkpt lat="44.27815" lon="4.30708">
        <ele>131.39</ele>
        <time>2019-08-01T15:01:53Z</time>
      </trkpt>
      <trkpt lat="44.27794" lon="4.30699">
        <ele>131.12</ele>
        <time>2019-08-01T15:01:57Z</time>
      </trkpt>
      <trkpt lat="44.27776" lon="4.30691">
        <ele>129.09</ele>
        <time>2019-08-01T15:02:00Z</time>
      </trkpt>
      <trkpt lat="44.27755" lon="4.30678">
        <ele>126.46</ele>
        <time>2019-08-01T15:02:04Z</time>
      </trkpt>
      <trkpt lat="44.27737" lon="4.30668">
        <ele>125.33</ele>
        <time>2019-08-01T15:02:07Z</time>
      </trkpt>
      <trkpt lat="44.2772" lon="4.30658">
        <ele>122.8</ele>
        <time>2019-08-01T15:02:10Z</time>
      </trkpt>
      <trkpt lat="44.27703" lon="4.30649">
        <ele>123.53</ele>
        <time>2019-08-01T15:02:13Z</time>
      </trkpt>
      <trkpt lat="44.27681" lon="4.30635">
        <ele>125.04</ele>
        <time>2019-08-01T15:02:17Z</time>
      </trkpt>
      <trkpt lat="44.27664" lon="4.30623">
        <ele>124.28</ele>
        <time>2019-08-01T15:02:20Z</time>
      </trkpt>
      <trkpt lat="44.27647" lon="4.30614">
        <ele>124.28</ele>
        <time>2019-08-01T15:02:23Z</time>
      </trkpt>
      <trkpt lat="44.27625" lon="4.30602">
        <ele>124.24</ele>
        <time>2019-08-01T15:02:27Z</time>
      </trkpt>
      <trkpt lat="44.27603" lon="4.30593">
        <ele>126.26</ele>
        <time>2019-08-01T15:02:31Z</time>
      </trkpt>
      <trkpt lat="44.27585" lon="4.30586">
        <ele>125.47</ele>
        <time>2019-08-01T15:02:34Z</time>
      </trkpt>
      <trkpt lat="44.27568" lon="4.30577">
        <ele>126.11</ele>
        <time>2019-08-01T15:02:37Z</time>
      </trkpt>
      <trkpt lat="44.27552" lon="4.30565">
        <ele>125.95</ele>
        <time>2019-08-01T15:02:40Z</time>
      </trkpt>
      <trkpt lat="44.27536" lon="4.30554">
        <ele>126.43</ele>
        <time>2019-08-01T15:02:43Z</time>
      </trkpt>
      <trkpt lat="44.27515" lon="4.30538">
        <ele>124.8</ele>
        <time>2019-08-01T15:02:47Z</time>
      </trkpt>
      <trkpt lat="44.275" lon="4.30522">
        <ele>125.02</ele>
        <time>2019-08-01T15:02:50Z</time>
      </trkpt>
      <trkpt lat="44.27485" lon="4.30506">
        <ele>123.71</ele>
        <time>2019-08-01T15:02:53Z</time>
      </trkpt>
      <trkpt lat="44.27471" lon="4.30491">
        <ele>123.26</ele>
        <time>2019-08-01T15:02:56Z</time>
      </trkpt>
      <trkpt lat="44.27453" lon="4.30469">
        <ele>123.95</ele>
        <time>2019-08-01T15:03:00Z</time>
      </trkpt>
      <trkpt lat="44.27436" lon="4.30447">
        <ele>124.24</ele>
        <time>2019-08-01T15:03:04Z</time>
      </trkpt>
      <trkpt lat="44.27416" lon="4.30428">
        <ele>122.98</ele>
        <time>2019-08-01T15:03:08Z</time>
      </trkpt>
      <trkpt lat="44.27399" lon="4.30416">
        <ele>142.79</ele>
        <time>2019-08-01T15:03:11Z</time>
      </trkpt>
      <trkpt lat="44.27381" lon="4.30399">
        <ele>131.37</ele>
        <time>2019-08-01T15:03:15Z</time>
      </trkpt>
      <trkpt lat="44.2736" lon="4.30383">
        <ele>152.87</ele>
        <time>2019-08-01T15:03:19Z</time>
      </trkpt>
      <trkpt lat="44.27341" lon="4.30369">
        <ele>143.2</ele>
        <time>2019-08-01T15:03:22Z</time>
      </trkpt>
      <trkpt lat="44.27323" lon="4.3036">
        <ele>131.71</ele>
        <time>2019-08-01T15:03:25Z</time>
      </trkpt>
      <trkpt lat="44.27303" lon="4.30348">
        <ele>124.86</ele>
        <time>2019-08-01T15:03:28Z</time>
      </trkpt>
      <trkpt lat="44.27284" lon="4.3034">
        <ele>123.01</ele>
        <time>2019-08-01T15:03:31Z</time>
      </trkpt>
      <trkpt lat="44.27262" lon="4.30326">
        <ele>121.76</ele>
        <time>2019-08-01T15:03:35Z</time>
      </trkpt>
      <trkpt lat="44.27244" lon="4.30313">
        <ele>121.88</ele>
        <time>2019-08-01T15:03:38Z</time>
      </trkpt>
      <trkpt lat="44.27226" lon="4.30301">
        <ele>122.4</ele>
        <time>2019-08-01T15:03:41Z</time>
      </trkpt>
      <trkpt lat="44.27207" lon="4.30292">
        <ele>122.49</ele>
        <time>2019-08-01T15:03:44Z</time>
      </trkpt>
      <trkpt lat="44.27189" lon="4.30279">
        <ele>122.79</ele>
        <time>2019-08-01T15:03:47Z</time>
      </trkpt>
      <trkpt lat="44.27171" lon="4.30267">
        <ele>122.26</ele>
        <time>2019-08-01T15:03:50Z</time>
      </trkpt>
      <trkpt lat="44.27154" lon="4.30253">
        <ele>121.88</ele>
        <time>2019-08-01T15:03:53Z</time>
      </trkpt>
      <trkpt lat="44.27134" lon="4.30243">
        <ele>122.19</ele>
        <time>2019-08-01T15:03:56Z</time>
      </trkpt>
      <trkpt lat="44.27115" lon="4.30229">
        <ele>121.78</ele>
        <time>2019-08-01T15:03:59Z</time>
      </trkpt>
      <trkpt lat="44.27098" lon="4.30217">
        <ele>121.9</ele>
        <time>2019-08-01T15:04:02Z</time>
      </trkpt>
      <trkpt lat="44.2708" lon="4.3021">
        <ele>121.73</ele>
        <time>2019-08-01T15:04:05Z</time>
      </trkpt>
      <trkpt lat="44.27062" lon="4.302">
        <ele>121.96</ele>
        <time>2019-08-01T15:04:08Z</time>
      </trkpt>
      <trkpt lat="44.27045" lon="4.30189">
        <ele>121.56</ele>
        <time>2019-08-01T15:04:11Z</time>
      </trkpt>
      <trkpt lat="44.27023" lon="4.30175">
        <ele>120.65</ele>
        <time>2019-08-01T15:04:15Z</time>
      </trkpt>
      <trkpt lat="44.27001" lon="4.30166">
        <ele>121.59</ele>
        <time>2019-08-01T15:04:19Z</time>
      </trkpt>
      <trkpt lat="44.26977" lon="4.30155">
        <ele>123.63</ele>
        <time>2019-08-01T15:04:23Z</time>
      </trkpt>
      <trkpt lat="44.26954" lon="4.30145">
        <ele>123.27</ele>
        <time>2019-08-01T15:04:27Z</time>
      </trkpt>
      <trkpt lat="44.26937" lon="4.30138">
        <ele>123.69</ele>
        <time>2019-08-01T15:04:30Z</time>
      </trkpt>
      <trkpt lat="44.26916" lon="4.30133">
        <ele>126.18</ele>
        <time>2019-08-01T15:04:34Z</time>
      </trkpt>
      <trkpt lat="44.26895" lon="4.30126">
        <ele>122.42</ele>
        <time>2019-08-01T15:04:37Z</time>
      </trkpt>
      <trkpt lat="44.26877" lon="4.30121">
        <ele>122.1</ele>
        <time>2019-08-01T15:04:40Z</time>
      </trkpt>
      <trkpt lat="44.26861" lon="4.3011">
        <ele>121.6</ele>
        <time>2019-08-01T15:04:43Z</time>
      </trkpt>
      <trkpt lat="44.26837" lon="4.30103">
        <ele>122.69</ele>
        <time>2019-08-01T15:04:47Z</time>
      </trkpt>
      <trkpt lat="44.26815" lon="4.30099">
        <ele>123.74</ele>
        <time>2019-08-01T15:04:51Z</time>
      </trkpt>
      <trkpt lat="44.26796" lon="4.30095">
        <ele>123.32</ele>
        <time>2019-08-01T15:04:54Z</time>
      </trkpt>
      <trkpt lat="44.26779" lon="4.30084">
        <ele>122.77</ele>
        <time>2019-08-01T15:04:57Z</time>
      </trkpt>
      <trkpt lat="44.2676" lon="4.30075">
        <ele>122.87</ele>
        <time>2019-08-01T15:05:00Z</time>
      </trkpt>
      <trkpt lat="44.26738" lon="4.30061">
        <ele>123.34</ele>
        <time>2019-08-01T15:05:04Z</time>
      </trkpt>
      <trkpt lat="44.2672" lon="4.30047">
        <ele>125.92</ele>
        <time>2019-08-01T15:05:08Z</time>
      </trkpt>
      <trkpt lat="44.26701" lon="4.30036">
        <ele>124.54</ele>
        <time>2019-08-01T15:05:11Z</time>
      </trkpt>
      <trkpt lat="44.26683" lon="4.30026">
        <ele>123.13</ele>
        <time>2019-08-01T15:05:14Z</time>
      </trkpt>
      <trkpt lat="44.26665" lon="4.30015">
        <ele>121.49</ele>
        <time>2019-08-01T15:05:17Z</time>
      </trkpt>
      <trkpt lat="44.26647" lon="4.30004">
        <ele>120.33</ele>
        <time>2019-08-01T15:05:20Z</time>
      </trkpt>
      <trkpt lat="44.26626" lon="4.29994">
        <ele>120.65</ele>
        <time>2019-08-01T15:05:24Z</time>
      </trkpt>
      <trkpt lat="44.26605" lon="4.29983">
        <ele>125.29</ele>
        <time>2019-08-01T15:05:28Z</time>
      </trkpt>
      <trkpt lat="44.26585" lon="4.2997">
        <ele>125.47</ele>
        <time>2019-08-01T15:05:32Z</time>
      </trkpt>
      <trkpt lat="44.26565" lon="4.29963">
        <ele>128.34</ele>
        <time>2019-08-01T15:05:36Z</time>
      </trkpt>
      <trkpt lat="44.26547" lon="4.29952">
        <ele>128.06</ele>
        <time>2019-08-01T15:05:39Z</time>
      </trkpt>
      <trkpt lat="44.26528" lon="4.29936">
        <ele>125</ele>
        <time>2019-08-01T15:05:42Z</time>
      </trkpt>
      <trkpt lat="44.26507" lon="4.2992">
        <ele>123.24</ele>
        <time>2019-08-01T15:05:46Z</time>
      </trkpt>
      <trkpt lat="44.2649" lon="4.2991">
        <ele>122.81</ele>
        <time>2019-08-01T15:05:49Z</time>
      </trkpt>
      <trkpt lat="44.26473" lon="4.29901">
        <ele>122.34</ele>
        <time>2019-08-01T15:05:52Z</time>
      </trkpt>
      <trkpt lat="44.26456" lon="4.29891">
        <ele>119.85</ele>
        <time>2019-08-01T15:05:55Z</time>
      </trkpt>
      <trkpt lat="44.26439" lon="4.29879">
        <ele>117.96</ele>
        <time>2019-08-01T15:05:58Z</time>
      </trkpt>
      <trkpt lat="44.26423" lon="4.29867">
        <ele>118.52</ele>
        <time>2019-08-01T15:06:01Z</time>
      </trkpt>
      <trkpt lat="44.26405" lon="4.29859">
        <ele>117.61</ele>
        <time>2019-08-01T15:06:04Z</time>
      </trkpt>
      <trkpt lat="44.26387" lon="4.29851">
        <ele>116.74</ele>
        <time>2019-08-01T15:06:07Z</time>
      </trkpt>
      <trkpt lat="44.26365" lon="4.29844">
        <ele>117.42</ele>
        <time>2019-08-01T15:06:11Z</time>
      </trkpt>
      <trkpt lat="44.26342" lon="4.29833">
        <ele>118.54</ele>
        <time>2019-08-01T15:06:15Z</time>
      </trkpt>
      <trkpt lat="44.26324" lon="4.29829">
        <ele>117.25</ele>
        <time>2019-08-01T15:06:18Z</time>
      </trkpt>
      <trkpt lat="44.26301" lon="4.29823">
        <ele>117.77</ele>
        <time>2019-08-01T15:06:22Z</time>
      </trkpt>
      <trkpt lat="44.26279" lon="4.29814">
        <ele>118.31</ele>
        <time>2019-08-01T15:06:26Z</time>
      </trkpt>
      <trkpt lat="44.26258" lon="4.29803">
        <ele>121.24</ele>
        <time>2019-08-01T15:06:30Z</time>
      </trkpt>
      <trkpt lat="44.26239" lon="4.29789">
        <ele>123.4</ele>
        <time>2019-08-01T15:06:34Z</time>
      </trkpt>
      <trkpt lat="44.26221" lon="4.29782">
        <ele>122.83</ele>
        <time>2019-08-01T15:06:37Z</time>
      </trkpt>
      <trkpt lat="44.26203" lon="4.29773">
        <ele>120.63</ele>
        <time>2019-08-01T15:06:40Z</time>
      </trkpt>
      <trkpt lat="44.2618" lon="4.29763">
        <ele>119.75</ele>
        <time>2019-08-01T15:06:44Z</time>
      </trkpt>
      <trkpt lat="44.26161" lon="4.29754">
        <ele>118.45</ele>
        <time>2019-08-01T15:06:47Z</time>
      </trkpt>
      <trkpt lat="44.26139" lon="4.29744">
        <ele>118.48</ele>
        <time>2019-08-01T15:06:51Z</time>
      </trkpt>
      <trkpt lat="44.26122" lon="4.29736">
        <ele>118.1</ele>
        <time>2019-08-01T15:06:54Z</time>
      </trkpt>
      <trkpt lat="44.26101" lon="4.2972">
        <ele>118.23</ele>
        <time>2019-08-01T15:06:58Z</time>
      </trkpt>
      <trkpt lat="44.2608" lon="4.29708">
        <ele>118.79</ele>
        <time>2019-08-01T15:07:02Z</time>
      </trkpt>
      <trkpt lat="44.26058" lon="4.29698">
        <ele>120.28</ele>
        <time>2019-08-01T15:07:06Z</time>
      </trkpt>
      <trkpt lat="44.26038" lon="4.29683">
        <ele>119.4</ele>
        <time>2019-08-01T15:07:10Z</time>
      </trkpt>
      <trkpt lat="44.26018" lon="4.29669">
        <ele>120.8</ele>
        <time>2019-08-01T15:07:14Z</time>
      </trkpt>
      <trkpt lat="44.26003" lon="4.29654">
        <ele>121.86</ele>
        <time>2019-08-01T15:07:17Z</time>
      </trkpt>
      <trkpt lat="44.25989" lon="4.29638">
        <ele>121.14</ele>
        <time>2019-08-01T15:07:20Z</time>
      </trkpt>
      <trkpt lat="44.25972" lon="4.29614">
        <ele>122.08</ele>
        <time>2019-08-01T15:07:24Z</time>
      </trkpt>
      <trkpt lat="44.25956" lon="4.29591">
        <ele>122.21</ele>
        <time>2019-08-01T15:07:28Z</time>
      </trkpt>
      <trkpt lat="44.2594" lon="4.29566">
        <ele>122.4</ele>
        <time>2019-08-01T15:07:32Z</time>
      </trkpt>
      <trkpt lat="44.25928" lon="4.29547">
        <ele>123.56</ele>
        <time>2019-08-01T15:07:35Z</time>
      </trkpt>
      <trkpt lat="44.25912" lon="4.29522">
        <ele>125.42</ele>
        <time>2019-08-01T15:07:39Z</time>
      </trkpt>
      <trkpt lat="44.25898" lon="4.29506">
        <ele>123.48</ele>
        <time>2019-08-01T15:07:42Z</time>
      </trkpt>
      <trkpt lat="44.25886" lon="4.29482">
        <ele>122.55</ele>
        <time>2019-08-01T15:07:45Z</time>
      </trkpt>
      <trkpt lat="44.25873" lon="4.29462">
        <ele>122.61</ele>
        <time>2019-08-01T15:07:48Z</time>
      </trkpt>
      <trkpt lat="44.25859" lon="4.29441">
        <ele>125.31</ele>
        <time>2019-08-01T15:07:51Z</time>
      </trkpt>
      <trkpt lat="44.25844" lon="4.29419">
        <ele>125.44</ele>
        <time>2019-08-01T15:07:54Z</time>
      </trkpt>
      <trkpt lat="44.25831" lon="4.29395">
        <ele>125.22</ele>
        <time>2019-08-01T15:07:57Z</time>
      </trkpt>
      <trkpt lat="44.25819" lon="4.29374">
        <ele>125.64</ele>
        <time>2019-08-01T15:08:00Z</time>
      </trkpt>
      <trkpt lat="44.25804" lon="4.29348">
        <ele>124.69</ele>
        <time>2019-08-01T15:08:04Z</time>
      </trkpt>
      <trkpt lat="44.25789" lon="4.29327">
        <ele>124.9</ele>
        <time>2019-08-01T15:08:08Z</time>
      </trkpt>
      <trkpt lat="44.25775" lon="4.29308">
        <ele>126.74</ele>
        <time>2019-08-01T15:08:11Z</time>
      </trkpt>
      <trkpt lat="44.25763" lon="4.29283">
        <ele>126.07</ele>
        <time>2019-08-01T15:08:14Z</time>
      </trkpt>
      <trkpt lat="44.2575" lon="4.29264">
        <ele>128.15</ele>
        <time>2019-08-01T15:08:17Z</time>
      </trkpt>
      <trkpt lat="44.25736" lon="4.29246">
        <ele>128.06</ele>
        <time>2019-08-01T15:08:20Z</time>
      </trkpt>
      <trkpt lat="44.25721" lon="4.29228">
        <ele>126.95</ele>
        <time>2019-08-01T15:08:23Z</time>
      </trkpt>
      <trkpt lat="44.25702" lon="4.29217">
        <ele>125.78</ele>
        <time>2019-08-01T15:08:26Z</time>
      </trkpt>
      <trkpt lat="44.25684" lon="4.29213">
        <ele>127.32</ele>
        <time>2019-08-01T15:08:29Z</time>
      </trkpt>
      <trkpt lat="44.25664" lon="4.29208">
        <ele>125.66</ele>
        <time>2019-08-01T15:08:32Z</time>
      </trkpt>
      <trkpt lat="44.25643" lon="4.29204">
        <ele>120.27</ele>
        <time>2019-08-01T15:08:35Z</time>
      </trkpt>
      <trkpt lat="44.25621" lon="4.29202">
        <ele>117.98</ele>
        <time>2019-08-01T15:08:38Z</time>
      </trkpt>
      <trkpt lat="44.25604" lon="4.29198">
        <ele>118.02</ele>
        <time>2019-08-01T15:08:41Z</time>
      </trkpt>
      <trkpt lat="44.25586" lon="4.29194">
        <ele>118.41</ele>
        <time>2019-08-01T15:08:44Z</time>
      </trkpt>
      <trkpt lat="44.25565" lon="4.2919">
        <ele>117.76</ele>
        <time>2019-08-01T15:08:47Z</time>
      </trkpt>
      <trkpt lat="44.25545" lon="4.29183">
        <ele>116.42</ele>
        <time>2019-08-01T15:08:50Z</time>
      </trkpt>
      <trkpt lat="44.25524" lon="4.29177">
        <ele>116.76</ele>
        <time>2019-08-01T15:08:54Z</time>
      </trkpt>
      <trkpt lat="44.25505" lon="4.29173">
        <ele>116.01</ele>
        <time>2019-08-01T15:08:57Z</time>
      </trkpt>
      <trkpt lat="44.25483" lon="4.29171">
        <ele>115.24</ele>
        <time>2019-08-01T15:09:00Z</time>
      </trkpt>
      <trkpt lat="44.25464" lon="4.29167">
        <ele>114.86</ele>
        <time>2019-08-01T15:09:03Z</time>
      </trkpt>
      <trkpt lat="44.25443" lon="4.29164">
        <ele>113.38</ele>
        <time>2019-08-01T15:09:06Z</time>
      </trkpt>
      <trkpt lat="44.25425" lon="4.29157">
        <ele>115.12</ele>
        <time>2019-08-01T15:09:09Z</time>
      </trkpt>
      <trkpt lat="44.25401" lon="4.29148">
        <ele>116.35</ele>
        <time>2019-08-01T15:09:13Z</time>
      </trkpt>
      <trkpt lat="44.25382" lon="4.29142">
        <ele>116.7</ele>
        <time>2019-08-01T15:09:16Z</time>
      </trkpt>
      <trkpt lat="44.25359" lon="4.29136">
        <ele>115.67</ele>
        <time>2019-08-01T15:09:20Z</time>
      </trkpt>
      <trkpt lat="44.25337" lon="4.29125">
        <ele>117.43</ele>
        <time>2019-08-01T15:09:24Z</time>
      </trkpt>
      <trkpt lat="44.25319" lon="4.29121">
        <ele>117.08</ele>
        <time>2019-08-01T15:09:27Z</time>
      </trkpt>
      <trkpt lat="44.25302" lon="4.29108">
        <ele>115.65</ele>
        <time>2019-08-01T15:09:30Z</time>
      </trkpt>
      <trkpt lat="44.25283" lon="4.291">
        <ele>116.34</ele>
        <time>2019-08-01T15:09:33Z</time>
      </trkpt>
      <trkpt lat="44.25266" lon="4.29089">
        <ele>116.26</ele>
        <time>2019-08-01T15:09:36Z</time>
      </trkpt>
      <trkpt lat="44.25246" lon="4.29076">
        <ele>115.63</ele>
        <time>2019-08-01T15:09:39Z</time>
      </trkpt>
      <trkpt lat="44.25229" lon="4.29067">
        <ele>111.63</ele>
        <time>2019-08-01T15:09:42Z</time>
      </trkpt>
      <trkpt lat="44.25212" lon="4.29052">
        <ele>111.05</ele>
        <time>2019-08-01T15:09:45Z</time>
      </trkpt>
      <trkpt lat="44.25193" lon="4.2904">
        <ele>109.3</ele>
        <time>2019-08-01T15:09:48Z</time>
      </trkpt>
      <trkpt lat="44.25172" lon="4.29027">
        <ele>106.78</ele>
        <time>2019-08-01T15:09:52Z</time>
      </trkpt>
      <trkpt lat="44.25156" lon="4.2901">
        <ele>103.6</ele>
        <time>2019-08-01T15:09:55Z</time>
      </trkpt>
      <trkpt lat="44.25141" lon="4.28991">
        <ele>103.49</ele>
        <time>2019-08-01T15:09:58Z</time>
      </trkpt>
      <trkpt lat="44.25124" lon="4.28974">
        <ele>103.1</ele>
        <time>2019-08-01T15:10:01Z</time>
      </trkpt>
      <trkpt lat="44.25106" lon="4.28959">
        <ele>104.45</ele>
        <time>2019-08-01T15:10:05Z</time>
      </trkpt>
      <trkpt lat="44.25087" lon="4.28942">
        <ele>105.76</ele>
        <time>2019-08-01T15:10:09Z</time>
      </trkpt>
      <trkpt lat="44.25065" lon="4.28929">
        <ele>105.44</ele>
        <time>2019-08-01T15:10:13Z</time>
      </trkpt>
      <trkpt lat="44.25049" lon="4.28917">
        <ele>105.73</ele>
        <time>2019-08-01T15:10:16Z</time>
      </trkpt>
      <trkpt lat="44.25032" lon="4.28907">
        <ele>104.71</ele>
        <time>2019-08-01T15:10:19Z</time>
      </trkpt>
      <trkpt lat="44.25016" lon="4.28897">
        <ele>105.27</ele>
        <time>2019-08-01T15:10:22Z</time>
      </trkpt>
      <trkpt lat="44.24999" lon="4.28885">
        <ele>106.8</ele>
        <time>2019-08-01T15:10:25Z</time>
      </trkpt>
      <trkpt lat="44.24983" lon="4.2887">
        <ele>108.97</ele>
        <time>2019-08-01T15:10:28Z</time>
      </trkpt>
      <trkpt lat="44.24965" lon="4.2885">
        <ele>108.7</ele>
        <time>2019-08-01T15:10:32Z</time>
      </trkpt>
      <trkpt lat="44.24948" lon="4.28836">
        <ele>107.26</ele>
        <time>2019-08-01T15:10:35Z</time>
      </trkpt>
      <trkpt lat="44.24929" lon="4.2882">
        <ele>106.3</ele>
        <time>2019-08-01T15:10:39Z</time>
      </trkpt>
      <trkpt lat="44.24912" lon="4.28807">
        <ele>104.73</ele>
        <time>2019-08-01T15:10:42Z</time>
      </trkpt>
      <trkpt lat="44.24892" lon="4.28791">
        <ele>105.67</ele>
        <time>2019-08-01T15:10:46Z</time>
      </trkpt>
      <trkpt lat="44.24877" lon="4.28776">
        <ele>106.6</ele>
        <time>2019-08-01T15:10:49Z</time>
      </trkpt>
      <trkpt lat="44.24857" lon="4.28762">
        <ele>105.71</ele>
        <time>2019-08-01T15:10:53Z</time>
      </trkpt>
      <trkpt lat="44.24841" lon="4.2875">
        <ele>107.47</ele>
        <time>2019-08-01T15:10:56Z</time>
      </trkpt>
      <trkpt lat="44.2482" lon="4.28733">
        <ele>108.27</ele>
        <time>2019-08-01T15:11:00Z</time>
      </trkpt>
      <trkpt lat="44.24805" lon="4.28716">
        <ele>108.46</ele>
        <time>2019-08-01T15:11:03Z</time>
      </trkpt>
      <trkpt lat="44.2479" lon="4.28702">
        <ele>109.77</ele>
        <time>2019-08-01T15:11:06Z</time>
      </trkpt>
      <trkpt lat="44.24775" lon="4.28688">
        <ele>110.14</ele>
        <time>2019-08-01T15:11:09Z</time>
      </trkpt>
      <trkpt lat="44.2476" lon="4.28672">
        <ele>108.81</ele>
        <time>2019-08-01T15:11:12Z</time>
      </trkpt>
      <trkpt lat="44.24741" lon="4.28653">
        <ele>107.39</ele>
        <time>2019-08-01T15:11:16Z</time>
      </trkpt>
      <trkpt lat="44.24723" lon="4.28634">
        <ele>109.61</ele>
        <time>2019-08-01T15:11:20Z</time>
      </trkpt>
      <trkpt lat="44.24703" lon="4.28616">
        <ele>109.38</ele>
        <time>2019-08-01T15:11:24Z</time>
      </trkpt>
      <trkpt lat="44.24683" lon="4.28598">
        <ele>107.12</ele>
        <time>2019-08-01T15:11:28Z</time>
      </trkpt>
      <trkpt lat="44.24664" lon="4.28578">
        <ele>109.03</ele>
        <time>2019-08-01T15:11:32Z</time>
      </trkpt>
      <trkpt lat="44.24647" lon="4.28559">
        <ele>110.87</ele>
        <time>2019-08-01T15:11:36Z</time>
      </trkpt>
      <trkpt lat="44.24631" lon="4.28541">
        <ele>110.95</ele>
        <time>2019-08-01T15:11:40Z</time>
      </trkpt>
      <trkpt lat="44.24614" lon="4.28523">
        <ele>112.71</ele>
        <time>2019-08-01T15:11:44Z</time>
      </trkpt>
      <trkpt lat="44.24595" lon="4.2851">
        <ele>113.62</ele>
        <time>2019-08-01T15:11:48Z</time>
      </trkpt>
      <trkpt lat="44.24578" lon="4.28496">
        <ele>115.65</ele>
        <time>2019-08-01T15:11:51Z</time>
      </trkpt>
      <trkpt lat="44.24562" lon="4.28482">
        <ele>114.65</ele>
        <time>2019-08-01T15:11:54Z</time>
      </trkpt>
      <trkpt lat="44.24546" lon="4.28466">
        <ele>113.93</ele>
        <time>2019-08-01T15:11:57Z</time>
      </trkpt>
      <trkpt lat="44.24528" lon="4.28447">
        <ele>112.9</ele>
        <time>2019-08-01T15:12:01Z</time>
      </trkpt>
      <trkpt lat="44.24512" lon="4.28435">
        <ele>113.13</ele>
        <time>2019-08-01T15:12:04Z</time>
      </trkpt>
      <trkpt lat="44.24497" lon="4.28421">
        <ele>112.95</ele>
        <time>2019-08-01T15:12:07Z</time>
      </trkpt>
      <trkpt lat="44.24483" lon="4.28404">
        <ele>113.29</ele>
        <time>2019-08-01T15:12:10Z</time>
      </trkpt>
      <trkpt lat="44.24471" lon="4.28384">
        <ele>114.03</ele>
        <time>2019-08-01T15:12:13Z</time>
      </trkpt>
      <trkpt lat="44.2446" lon="4.28362">
        <ele>114.33</ele>
        <time>2019-08-01T15:12:16Z</time>
      </trkpt>
      <trkpt lat="44.24449" lon="4.28334">
        <ele>114.37</ele>
        <time>2019-08-01T15:12:20Z</time>
      </trkpt>
      <trkpt lat="44.24438" lon="4.28304">
        <ele>116.06</ele>
        <time>2019-08-01T15:12:24Z</time>
      </trkpt>
      <trkpt lat="44.24428" lon="4.28278">
        <ele>115.68</ele>
        <time>2019-08-01T15:12:27Z</time>
      </trkpt>
      <trkpt lat="44.24422" lon="4.28254">
        <ele>116.03</ele>
        <time>2019-08-01T15:12:30Z</time>
      </trkpt>
      <trkpt lat="44.24408" lon="4.28229">
        <ele>115.02</ele>
        <time>2019-08-01T15:12:34Z</time>
      </trkpt>
      <trkpt lat="44.24393" lon="4.28204">
        <ele>117.14</ele>
        <time>2019-08-01T15:12:38Z</time>
      </trkpt>
      <trkpt lat="44.24376" lon="4.28185">
        <ele>114.51</ele>
        <time>2019-08-01T15:12:42Z</time>
      </trkpt>
      <trkpt lat="44.24363" lon="4.28165">
        <ele>113.26</ele>
        <time>2019-08-01T15:12:45Z</time>
      </trkpt>
      <trkpt lat="44.24352" lon="4.28145">
        <ele>112.43</ele>
        <time>2019-08-01T15:12:48Z</time>
      </trkpt>
      <trkpt lat="44.2434" lon="4.28124">
        <ele>111.56</ele>
        <time>2019-08-01T15:12:51Z</time>
      </trkpt>
      <trkpt lat="44.24324" lon="4.28099">
        <ele>117.81</ele>
        <time>2019-08-01T15:12:55Z</time>
      </trkpt>
      <trkpt lat="44.24312" lon="4.28079">
        <ele>115.65</ele>
        <time>2019-08-01T15:12:58Z</time>
      </trkpt>
      <trkpt lat="44.24299" lon="4.2806">
        <ele>120.27</ele>
        <time>2019-08-01T15:13:01Z</time>
      </trkpt>
      <trkpt lat="44.24285" lon="4.2804">
        <ele>116.34</ele>
        <time>2019-08-01T15:13:04Z</time>
      </trkpt>
      <trkpt lat="44.24272" lon="4.28022">
        <ele>114.82</ele>
        <time>2019-08-01T15:13:07Z</time>
      </trkpt>
      <trkpt lat="44.24259" lon="4.28004">
        <ele>113.57</ele>
        <time>2019-08-01T15:13:10Z</time>
      </trkpt>
      <trkpt lat="44.24242" lon="4.27984">
        <ele>111.82</ele>
        <time>2019-08-01T15:13:14Z</time>
      </trkpt>
      <trkpt lat="44.24226" lon="4.27962">
        <ele>111.24</ele>
        <time>2019-08-01T15:13:18Z</time>
      </trkpt>
      <trkpt lat="44.24214" lon="4.27942">
        <ele>112.98</ele>
        <time>2019-08-01T15:13:21Z</time>
      </trkpt>
      <trkpt lat="44.24197" lon="4.27916">
        <ele>113.29</ele>
        <time>2019-08-01T15:13:25Z</time>
      </trkpt>
      <trkpt lat="44.2418" lon="4.27893">
        <ele>114.16</ele>
        <time>2019-08-01T15:13:29Z</time>
      </trkpt>
      <trkpt lat="44.24162" lon="4.27875">
        <ele>114.22</ele>
        <time>2019-08-01T15:13:33Z</time>
      </trkpt>
      <trkpt lat="44.24144" lon="4.27855">
        <ele>114.58</ele>
        <time>2019-08-01T15:13:37Z</time>
      </trkpt>
      <trkpt lat="44.24129" lon="4.2784">
        <ele>115.82</ele>
        <time>2019-08-01T15:13:40Z</time>
      </trkpt>
      <trkpt lat="44.24116" lon="4.27823">
        <ele>117.24</ele>
        <time>2019-08-01T15:13:43Z</time>
      </trkpt>
      <trkpt lat="44.24094" lon="4.27807">
        <ele>117.77</ele>
        <time>2019-08-01T15:13:47Z</time>
      </trkpt>
      <trkpt lat="44.24077" lon="4.27788">
        <ele>117.63</ele>
        <time>2019-08-01T15:13:51Z</time>
      </trkpt>
      <trkpt lat="44.24066" lon="4.27764">
        <ele>117.63</ele>
        <time>2019-08-01T15:13:54Z</time>
      </trkpt>
      <trkpt lat="44.24051" lon="4.27736">
        <ele>116.61</ele>
        <time>2019-08-01T15:13:58Z</time>
      </trkpt>
      <trkpt lat="44.2404" lon="4.27716">
        <ele>115.22</ele>
        <time>2019-08-01T15:14:01Z</time>
      </trkpt>
      <trkpt lat="44.24027" lon="4.2769">
        <ele>114.96</ele>
        <time>2019-08-01T15:14:05Z</time>
      </trkpt>
      <trkpt lat="44.24011" lon="4.27667">
        <ele>115.52</ele>
        <time>2019-08-01T15:14:09Z</time>
      </trkpt>
      <trkpt lat="44.23995" lon="4.27642">
        <ele>116.95</ele>
        <time>2019-08-01T15:14:13Z</time>
      </trkpt>
      <trkpt lat="44.23984" lon="4.2762">
        <ele>116.63</ele>
        <time>2019-08-01T15:14:16Z</time>
      </trkpt>
      <trkpt lat="44.23971" lon="4.27603">
        <ele>116.33</ele>
        <time>2019-08-01T15:14:19Z</time>
      </trkpt>
      <trkpt lat="44.23953" lon="4.27582">
        <ele>116.67</ele>
        <time>2019-08-01T15:14:23Z</time>
      </trkpt>
      <trkpt lat="44.2394" lon="4.27561">
        <ele>117.46</ele>
        <time>2019-08-01T15:14:26Z</time>
      </trkpt>
      <trkpt lat="44.23925" lon="4.27538">
        <ele>118.13</ele>
        <time>2019-08-01T15:14:30Z</time>
      </trkpt>
      <trkpt lat="44.2391" lon="4.27517">
        <ele>117.85</ele>
        <time>2019-08-01T15:14:34Z</time>
      </trkpt>
      <trkpt lat="44.23895" lon="4.27496">
        <ele>119.18</ele>
        <time>2019-08-01T15:14:38Z</time>
      </trkpt>
      <trkpt lat="44.23888" lon="4.27473">
        <ele>118.8</ele>
        <time>2019-08-01T15:14:41Z</time>
      </trkpt>
      <trkpt lat="44.2388" lon="4.27449">
        <ele>120.79</ele>
        <time>2019-08-01T15:14:44Z</time>
      </trkpt>
      <trkpt lat="44.23873" lon="4.27425">
        <ele>121.41</ele>
        <time>2019-08-01T15:14:47Z</time>
      </trkpt>
      <trkpt lat="44.23867" lon="4.27401">
        <ele>122.94</ele>
        <time>2019-08-01T15:14:50Z</time>
      </trkpt>
      <trkpt lat="44.23863" lon="4.27376">
        <ele>122.35</ele>
        <time>2019-08-01T15:14:53Z</time>
      </trkpt>
      <trkpt lat="44.2386" lon="4.27351">
        <ele>122.82</ele>
        <time>2019-08-01T15:14:56Z</time>
      </trkpt>
      <trkpt lat="44.23856" lon="4.27325">
        <ele>122.49</ele>
        <time>2019-08-01T15:14:59Z</time>
      </trkpt>
      <trkpt lat="44.23848" lon="4.27295">
        <ele>123.25</ele>
        <time>2019-08-01T15:15:03Z</time>
      </trkpt>
      <trkpt lat="44.23842" lon="4.27265">
        <ele>122.06</ele>
        <time>2019-08-01T15:15:07Z</time>
      </trkpt>
      <trkpt lat="44.23837" lon="4.27231">
        <ele>120.63</ele>
        <time>2019-08-01T15:15:11Z</time>
      </trkpt>
      <trkpt lat="44.23829" lon="4.27201">
        <ele>120.32</ele>
        <time>2019-08-01T15:15:15Z</time>
      </trkpt>
      <trkpt lat="44.23824" lon="4.27169">
        <ele>119.39</ele>
        <time>2019-08-01T15:15:19Z</time>
      </trkpt>
      <trkpt lat="44.2382" lon="4.27145">
        <ele>120.4</ele>
        <time>2019-08-01T15:15:22Z</time>
      </trkpt>
      <trkpt lat="44.23812" lon="4.27113">
        <ele>120.59</ele>
        <time>2019-08-01T15:15:26Z</time>
      </trkpt>
      <trkpt lat="44.23809" lon="4.27086">
        <ele>120.89</ele>
        <time>2019-08-01T15:15:29Z</time>
      </trkpt>
      <trkpt lat="44.23803" lon="4.27056">
        <ele>120.02</ele>
        <time>2019-08-01T15:15:33Z</time>
      </trkpt>
      <trkpt lat="44.23797" lon="4.27025">
        <ele>120.11</ele>
        <time>2019-08-01T15:15:37Z</time>
      </trkpt>
      <trkpt lat="44.23791" lon="4.26999">
        <ele>121.57</ele>
        <time>2019-08-01T15:15:40Z</time>
      </trkpt>
      <trkpt lat="44.23784" lon="4.26966">
        <ele>123.14</ele>
        <time>2019-08-01T15:15:44Z</time>
      </trkpt>
      <trkpt lat="44.2378" lon="4.26941">
        <ele>121.05</ele>
        <time>2019-08-01T15:15:47Z</time>
      </trkpt>
      <trkpt lat="44.23772" lon="4.26909">
        <ele>122.93</ele>
        <time>2019-08-01T15:15:51Z</time>
      </trkpt>
      <trkpt lat="44.23763" lon="4.26882">
        <ele>122.52</ele>
        <time>2019-08-01T15:15:55Z</time>
      </trkpt>
      <trkpt lat="44.23759" lon="4.26853">
        <ele>121.32</ele>
        <time>2019-08-01T15:15:58Z</time>
      </trkpt>
      <trkpt lat="44.23749" lon="4.26823">
        <ele>121.85</ele>
        <time>2019-08-01T15:16:02Z</time>
      </trkpt>
      <trkpt lat="44.23741" lon="4.268">
        <ele>122.43</ele>
        <time>2019-08-01T15:16:05Z</time>
      </trkpt>
      <trkpt lat="44.23735" lon="4.26774">
        <ele>122.5</ele>
        <time>2019-08-01T15:16:08Z</time>
      </trkpt>
      <trkpt lat="44.23727" lon="4.26751">
        <ele>123.32</ele>
        <time>2019-08-01T15:16:11Z</time>
      </trkpt>
      <trkpt lat="44.23717" lon="4.26721">
        <ele>121.21</ele>
        <time>2019-08-01T15:16:15Z</time>
      </trkpt>
      <trkpt lat="44.23708" lon="4.2669">
        <ele>120.77</ele>
        <time>2019-08-01T15:16:19Z</time>
      </trkpt>
      <trkpt lat="44.23697" lon="4.26659">
        <ele>120.4</ele>
        <time>2019-08-01T15:16:23Z</time>
      </trkpt>
      <trkpt lat="44.23688" lon="4.26637">
        <ele>119.71</ele>
        <time>2019-08-01T15:16:26Z</time>
      </trkpt>
      <trkpt lat="44.23681" lon="4.26613">
        <ele>120.92</ele>
        <time>2019-08-01T15:16:29Z</time>
      </trkpt>
      <trkpt lat="44.23674" lon="4.2659">
        <ele>121</ele>
        <time>2019-08-01T15:16:32Z</time>
      </trkpt>
      <trkpt lat="44.23662" lon="4.26562">
        <ele>121.31</ele>
        <time>2019-08-01T15:16:36Z</time>
      </trkpt>
      <trkpt lat="44.23652" lon="4.2654">
        <ele>120.99</ele>
        <time>2019-08-01T15:16:39Z</time>
      </trkpt>
      <trkpt lat="44.2364" lon="4.2652">
        <ele>120.92</ele>
        <time>2019-08-01T15:16:42Z</time>
      </trkpt>
      <trkpt lat="44.23624" lon="4.26496">
        <ele>121.75</ele>
        <time>2019-08-01T15:16:46Z</time>
      </trkpt>
      <trkpt lat="44.23607" lon="4.26475">
        <ele>119.32</ele>
        <time>2019-08-01T15:16:50Z</time>
      </trkpt>
      <trkpt lat="44.23597" lon="4.26453">
        <ele>119.55</ele>
        <time>2019-08-01T15:16:53Z</time>
      </trkpt>
      <trkpt lat="44.23588" lon="4.26425">
        <ele>120.34</ele>
        <time>2019-08-01T15:16:57Z</time>
      </trkpt>
      <trkpt lat="44.23581" lon="4.26396">
        <ele>120.64</ele>
        <time>2019-08-01T15:17:01Z</time>
      </trkpt>
      <trkpt lat="44.23579" lon="4.26369">
        <ele>119.75</ele>
        <time>2019-08-01T15:17:04Z</time>
      </trkpt>
      <trkpt lat="44.23575" lon="4.26338">
        <ele>119.18</ele>
        <time>2019-08-01T15:17:08Z</time>
      </trkpt>
      <trkpt lat="44.23572" lon="4.26312">
        <ele>117.92</ele>
        <time>2019-08-01T15:17:11Z</time>
      </trkpt>
      <trkpt lat="44.23568" lon="4.26283">
        <ele>117.65</ele>
        <time>2019-08-01T15:17:15Z</time>
      </trkpt>
      <trkpt lat="44.23563" lon="4.26251">
        <ele>117.54</ele>
        <time>2019-08-01T15:17:19Z</time>
      </trkpt>
      <trkpt lat="44.23556" lon="4.2622">
        <ele>118.52</ele>
        <time>2019-08-01T15:17:23Z</time>
      </trkpt>
      <trkpt lat="44.23552" lon="4.26193">
        <ele>118.5</ele>
        <time>2019-08-01T15:17:26Z</time>
      </trkpt>
      <trkpt lat="44.23547" lon="4.26168">
        <ele>117.73</ele>
        <time>2019-08-01T15:17:29Z</time>
      </trkpt>
      <trkpt lat="44.23544" lon="4.26141">
        <ele>118.13</ele>
        <time>2019-08-01T15:17:32Z</time>
      </trkpt>
      <trkpt lat="44.2354" lon="4.26116">
        <ele>117.69</ele>
        <time>2019-08-01T15:17:35Z</time>
      </trkpt>
      <trkpt lat="44.23533" lon="4.26085">
        <ele>117.36</ele>
        <time>2019-08-01T15:17:39Z</time>
      </trkpt>
      <trkpt lat="44.23527" lon="4.26053">
        <ele>117.84</ele>
        <time>2019-08-01T15:17:43Z</time>
      </trkpt>
      <trkpt lat="44.23523" lon="4.26027">
        <ele>119.16</ele>
        <time>2019-08-01T15:17:46Z</time>
      </trkpt>
      <trkpt lat="44.23515" lon="4.26004">
        <ele>118.7</ele>
        <time>2019-08-01T15:17:50Z</time>
      </trkpt>
      <trkpt lat="44.23504" lon="4.25978">
        <ele>119.72</ele>
        <time>2019-08-01T15:17:54Z</time>
      </trkpt>
      <trkpt lat="44.23494" lon="4.2595">
        <ele>119.77</ele>
        <time>2019-08-01T15:17:58Z</time>
      </trkpt>
      <trkpt lat="44.23485" lon="4.2592">
        <ele>120.66</ele>
        <time>2019-08-01T15:18:02Z</time>
      </trkpt>
      <trkpt lat="44.23476" lon="4.2589">
        <ele>121.88</ele>
        <time>2019-08-01T15:18:06Z</time>
      </trkpt>
      <trkpt lat="44.23465" lon="4.25861">
        <ele>121.09</ele>
        <time>2019-08-01T15:18:10Z</time>
      </trkpt>
      <trkpt lat="44.23454" lon="4.25834">
        <ele>121.8</ele>
        <time>2019-08-01T15:18:14Z</time>
      </trkpt>
      <trkpt lat="44.23446" lon="4.25811">
        <ele>121.86</ele>
        <time>2019-08-01T15:18:17Z</time>
      </trkpt>
      <trkpt lat="44.23437" lon="4.2578">
        <ele>122.86</ele>
        <time>2019-08-01T15:18:21Z</time>
      </trkpt>
      <trkpt lat="44.23429" lon="4.25756">
        <ele>122.62</ele>
        <time>2019-08-01T15:18:24Z</time>
      </trkpt>
      <trkpt lat="44.23422" lon="4.25733">
        <ele>123.07</ele>
        <time>2019-08-01T15:18:27Z</time>
      </trkpt>
      <trkpt lat="44.23415" lon="4.25701">
        <ele>123.37</ele>
        <time>2019-08-01T15:18:31Z</time>
      </trkpt>
      <trkpt lat="44.23414" lon="4.25676">
        <ele>122.59</ele>
        <time>2019-08-01T15:18:34Z</time>
      </trkpt>
      <trkpt lat="44.23417" lon="4.25645">
        <ele>123.94</ele>
        <time>2019-08-01T15:18:38Z</time>
      </trkpt>
      <trkpt lat="44.23422" lon="4.25621">
        <ele>125.56</ele>
        <time>2019-08-01T15:18:41Z</time>
      </trkpt>
      <trkpt lat="44.23428" lon="4.2559">
        <ele>126.38</ele>
        <time>2019-08-01T15:18:45Z</time>
      </trkpt>
      <trkpt lat="44.23433" lon="4.25559">
        <ele>127.56</ele>
        <time>2019-08-01T15:18:49Z</time>
      </trkpt>
      <trkpt lat="44.23438" lon="4.25528">
        <ele>128.12</ele>
        <time>2019-08-01T15:18:53Z</time>
      </trkpt>
      <trkpt lat="44.23442" lon="4.25503">
        <ele>129</ele>
        <time>2019-08-01T15:18:56Z</time>
      </trkpt>
      <trkpt lat="44.23447" lon="4.25475">
        <ele>129.16</ele>
        <time>2019-08-01T15:18:59Z</time>
      </trkpt>
      <trkpt lat="44.23448" lon="4.25448">
        <ele>128.61</ele>
        <time>2019-08-01T15:19:02Z</time>
      </trkpt>
      <trkpt lat="44.23447" lon="4.25416">
        <ele>127.23</ele>
        <time>2019-08-01T15:19:06Z</time>
      </trkpt>
      <trkpt lat="44.23444" lon="4.25389">
        <ele>127.9</ele>
        <time>2019-08-01T15:19:10Z</time>
      </trkpt>
      <trkpt lat="44.23446" lon="4.25362">
        <ele>125.38</ele>
        <time>2019-08-01T15:19:14Z</time>
      </trkpt>
      <trkpt lat="44.23447" lon="4.2533">
        <ele>126.75</ele>
        <time>2019-08-01T15:19:18Z</time>
      </trkpt>
      <trkpt lat="44.23447" lon="4.25305">
        <ele>127.17</ele>
        <time>2019-08-01T15:19:21Z</time>
      </trkpt>
      <trkpt lat="44.23444" lon="4.25274">
        <ele>130.21</ele>
        <time>2019-08-01T15:19:25Z</time>
      </trkpt>
      <trkpt lat="44.23444" lon="4.25241">
        <ele>130.28</ele>
        <time>2019-08-01T15:19:29Z</time>
      </trkpt>
      <trkpt lat="44.23444" lon="4.25214">
        <ele>128.48</ele>
        <time>2019-08-01T15:19:32Z</time>
      </trkpt>
      <trkpt lat="44.23441" lon="4.25182">
        <ele>127.13</ele>
        <time>2019-08-01T15:19:36Z</time>
      </trkpt>
      <trkpt lat="44.2344" lon="4.25156">
        <ele>129.39</ele>
        <time>2019-08-01T15:19:39Z</time>
      </trkpt>
      <trkpt lat="44.23444" lon="4.2513">
        <ele>129.66</ele>
        <time>2019-08-01T15:19:42Z</time>
      </trkpt>
      <trkpt lat="44.23441" lon="4.25097">
        <ele>127.48</ele>
        <time>2019-08-01T15:19:46Z</time>
      </trkpt>
      <trkpt lat="44.23439" lon="4.25072">
        <ele>126.66</ele>
        <time>2019-08-01T15:19:49Z</time>
      </trkpt>
      <trkpt lat="44.23433" lon="4.25041">
        <ele>125.27</ele>
        <time>2019-08-01T15:19:53Z</time>
      </trkpt>
      <trkpt lat="44.23427" lon="4.25014">
        <ele>128.82</ele>
        <time>2019-08-01T15:19:57Z</time>
      </trkpt>
      <trkpt lat="44.23421" lon="4.2499">
        <ele>125.36</ele>
        <time>2019-08-01T15:20:00Z</time>
      </trkpt>
      <trkpt lat="44.23414" lon="4.24961">
        <ele>124.92</ele>
        <time>2019-08-01T15:20:04Z</time>
      </trkpt>
      <trkpt lat="44.23408" lon="4.24936">
        <ele>125.36</ele>
        <time>2019-08-01T15:20:07Z</time>
      </trkpt>
      <trkpt lat="44.23401" lon="4.24913">
        <ele>126.91</ele>
        <time>2019-08-01T15:20:10Z</time>
      </trkpt>
      <trkpt lat="44.23394" lon="4.24882">
        <ele>127.2</ele>
        <time>2019-08-01T15:20:14Z</time>
      </trkpt>
      <trkpt lat="44.23391" lon="4.24852">
        <ele>126.31</ele>
        <time>2019-08-01T15:20:18Z</time>
      </trkpt>
      <trkpt lat="44.23391" lon="4.24825">
        <ele>125.82</ele>
        <time>2019-08-01T15:20:21Z</time>
      </trkpt>
      <trkpt lat="44.23393" lon="4.24795">
        <ele>124.23</ele>
        <time>2019-08-01T15:20:25Z</time>
      </trkpt>
      <trkpt lat="44.23398" lon="4.24767">
        <ele>125.58</ele>
        <time>2019-08-01T15:20:28Z</time>
      </trkpt>
      <trkpt lat="44.23409" lon="4.24738">
        <ele>126.56</ele>
        <time>2019-08-01T15:20:31Z</time>
      </trkpt>
      <trkpt lat="44.23419" lon="4.24708">
        <ele>127.79</ele>
        <time>2019-08-01T15:20:35Z</time>
      </trkpt>
      <trkpt lat="44.2343" lon="4.24683">
        <ele>126.41</ele>
        <time>2019-08-01T15:20:39Z</time>
      </trkpt>
      <trkpt lat="44.23439" lon="4.24658">
        <ele>125.43</ele>
        <time>2019-08-01T15:20:42Z</time>
      </trkpt>
      <trkpt lat="44.2345" lon="4.24637">
        <ele>124.49</ele>
        <time>2019-08-01T15:20:45Z</time>
      </trkpt>
      <trkpt lat="44.2346" lon="4.24607">
        <ele>128.25</ele>
        <time>2019-08-01T15:20:49Z</time>
      </trkpt>
      <trkpt lat="44.2347" lon="4.24578">
        <ele>131.19</ele>
        <time>2019-08-01T15:20:53Z</time>
      </trkpt>
      <trkpt lat="44.23483" lon="4.24553">
        <ele>130.82</ele>
        <time>2019-08-01T15:20:57Z</time>
      </trkpt>
      <trkpt lat="44.23503" lon="4.24535">
        <ele>129.89</ele>
        <time>2019-08-01T15:21:01Z</time>
      </trkpt>
      <trkpt lat="44.2352" lon="4.24512">
        <ele>128.14</ele>
        <time>2019-08-01T15:21:05Z</time>
      </trkpt>
      <trkpt lat="44.23536" lon="4.24491">
        <ele>128.36</ele>
        <time>2019-08-01T15:21:09Z</time>
      </trkpt>
      <trkpt lat="44.23555" lon="4.24473">
        <ele>125.28</ele>
        <time>2019-08-01T15:21:13Z</time>
      </trkpt>
      <trkpt lat="44.23571" lon="4.24454">
        <ele>124.7</ele>
        <time>2019-08-01T15:21:16Z</time>
      </trkpt>
      <trkpt lat="44.23586" lon="4.2444">
        <ele>124.69</ele>
        <time>2019-08-01T15:21:19Z</time>
      </trkpt>
      <trkpt lat="44.23603" lon="4.24428">
        <ele>125.53</ele>
        <time>2019-08-01T15:21:22Z</time>
      </trkpt>
      <trkpt lat="44.23618" lon="4.24403">
        <ele>129.27</ele>
        <time>2019-08-01T15:21:26Z</time>
      </trkpt>
      <trkpt lat="44.23635" lon="4.2439">
        <ele>129.39</ele>
        <time>2019-08-01T15:21:29Z</time>
      </trkpt>
      <trkpt lat="44.23649" lon="4.24373">
        <ele>130</ele>
        <time>2019-08-01T15:21:32Z</time>
      </trkpt>
      <trkpt lat="44.23669" lon="4.24354">
        <ele>130.65</ele>
        <time>2019-08-01T15:21:36Z</time>
      </trkpt>
      <trkpt lat="44.23688" lon="4.24335">
        <ele>128.94</ele>
        <time>2019-08-01T15:21:40Z</time>
      </trkpt>
      <trkpt lat="44.23702" lon="4.24319">
        <ele>128.35</ele>
        <time>2019-08-01T15:21:43Z</time>
      </trkpt>
      <trkpt lat="44.23722" lon="4.243">
        <ele>130.28</ele>
        <time>2019-08-01T15:21:47Z</time>
      </trkpt>
      <trkpt lat="44.23736" lon="4.24283">
        <ele>129.47</ele>
        <time>2019-08-01T15:21:50Z</time>
      </trkpt>
      <trkpt lat="44.23753" lon="4.24261">
        <ele>131.28</ele>
        <time>2019-08-01T15:21:54Z</time>
      </trkpt>
      <trkpt lat="44.23766" lon="4.24243">
        <ele>130.86</ele>
        <time>2019-08-01T15:21:57Z</time>
      </trkpt>
      <trkpt lat="44.23781" lon="4.24215">
        <ele>131.43</ele>
        <time>2019-08-01T15:22:01Z</time>
      </trkpt>
      <trkpt lat="44.23788" lon="4.24191">
        <ele>130.84</ele>
        <time>2019-08-01T15:22:04Z</time>
      </trkpt>
      <trkpt lat="44.23789" lon="4.24165">
        <ele>130.68</ele>
        <time>2019-08-01T15:22:07Z</time>
      </trkpt>
      <trkpt lat="44.23789" lon="4.24134">
        <ele>129.32</ele>
        <time>2019-08-01T15:22:11Z</time>
      </trkpt>
      <trkpt lat="44.23786" lon="4.24108">
        <ele>129.17</ele>
        <time>2019-08-01T15:22:14Z</time>
      </trkpt>
      <trkpt lat="44.23778" lon="4.24078">
        <ele>129.59</ele>
        <time>2019-08-01T15:22:18Z</time>
      </trkpt>
      <trkpt lat="44.23772" lon="4.24053">
        <ele>129.39</ele>
        <time>2019-08-01T15:22:21Z</time>
      </trkpt>
      <trkpt lat="44.23765" lon="4.24029">
        <ele>130.18</ele>
        <time>2019-08-01T15:22:24Z</time>
      </trkpt>
      <trkpt lat="44.23759" lon="4.24005">
        <ele>128.74</ele>
        <time>2019-08-01T15:22:27Z</time>
      </trkpt>
      <trkpt lat="44.23752" lon="4.23973">
        <ele>126.49</ele>
        <time>2019-08-01T15:22:31Z</time>
      </trkpt>
      <trkpt lat="44.23748" lon="4.23941">
        <ele>125.18</ele>
        <time>2019-08-01T15:22:35Z</time>
      </trkpt>
      <trkpt lat="44.23748" lon="4.23916">
        <ele>124.29</ele>
        <time>2019-08-01T15:22:38Z</time>
      </trkpt>
      <trkpt lat="44.23749" lon="4.23882">
        <ele>123.86</ele>
        <time>2019-08-01T15:22:42Z</time>
      </trkpt>
      <trkpt lat="44.23749" lon="4.23855">
        <ele>124.85</ele>
        <time>2019-08-01T15:22:45Z</time>
      </trkpt>
      <trkpt lat="44.2375" lon="4.23827">
        <ele>126.03</ele>
        <time>2019-08-01T15:22:48Z</time>
      </trkpt>
      <trkpt lat="44.2375" lon="4.23797">
        <ele>127.14</ele>
        <time>2019-08-01T15:22:51Z</time>
      </trkpt>
      <trkpt lat="44.2375" lon="4.23769">
        <ele>126.2</ele>
        <time>2019-08-01T15:22:54Z</time>
      </trkpt>
      <trkpt lat="44.23751" lon="4.23742">
        <ele>124.72</ele>
        <time>2019-08-01T15:22:57Z</time>
      </trkpt>
      <trkpt lat="44.23754" lon="4.23715">
        <ele>123.47</ele>
        <time>2019-08-01T15:23:00Z</time>
      </trkpt>
      <trkpt lat="44.23762" lon="4.23688">
        <ele>122.45</ele>
        <time>2019-08-01T15:23:03Z</time>
      </trkpt>
      <trkpt lat="44.2377" lon="4.23662">
        <ele>122.68</ele>
        <time>2019-08-01T15:23:06Z</time>
      </trkpt>
      <trkpt lat="44.23777" lon="4.23633">
        <ele>122.11</ele>
        <time>2019-08-01T15:23:09Z</time>
      </trkpt>
      <trkpt lat="44.23775" lon="4.23602">
        <ele>123.28</ele>
        <time>2019-08-01T15:23:12Z</time>
      </trkpt>
      <trkpt lat="44.2377" lon="4.23572">
        <ele>123.72</ele>
        <time>2019-08-01T15:23:16Z</time>
      </trkpt>
      <trkpt lat="44.23762" lon="4.23542">
        <ele>125.93</ele>
        <time>2019-08-01T15:23:20Z</time>
      </trkpt>
      <trkpt lat="44.23756" lon="4.23508">
        <ele>125.42</ele>
        <time>2019-08-01T15:23:24Z</time>
      </trkpt>
      <trkpt lat="44.2375" lon="4.23484">
        <ele>125.42</ele>
        <time>2019-08-01T15:23:27Z</time>
      </trkpt>
      <trkpt lat="44.23744" lon="4.23452">
        <ele>125.45</ele>
        <time>2019-08-01T15:23:31Z</time>
      </trkpt>
      <trkpt lat="44.23742" lon="4.2342">
        <ele>125.74</ele>
        <time>2019-08-01T15:23:35Z</time>
      </trkpt>
      <trkpt lat="44.23746" lon="4.23391">
        <ele>125.78</ele>
        <time>2019-08-01T15:23:38Z</time>
      </trkpt>
      <trkpt lat="44.23755" lon="4.23361">
        <ele>127.32</ele>
        <time>2019-08-01T15:23:42Z</time>
      </trkpt>
      <trkpt lat="44.23766" lon="4.23333">
        <ele>128.33</ele>
        <time>2019-08-01T15:23:46Z</time>
      </trkpt>
      <trkpt lat="44.23775" lon="4.2331">
        <ele>128.6</ele>
        <time>2019-08-01T15:23:49Z</time>
      </trkpt>
      <trkpt lat="44.23787" lon="4.23282">
        <ele>129.6</ele>
        <time>2019-08-01T15:23:53Z</time>
      </trkpt>
      <trkpt lat="44.23795" lon="4.23259">
        <ele>130.63</ele>
        <time>2019-08-01T15:23:56Z</time>
      </trkpt>
      <trkpt lat="44.238" lon="4.23233">
        <ele>131.5</ele>
        <time>2019-08-01T15:23:59Z</time>
      </trkpt>
      <trkpt lat="44.23803" lon="4.23208">
        <ele>127.92</ele>
        <time>2019-08-01T15:24:02Z</time>
      </trkpt>
      <trkpt lat="44.23805" lon="4.23183">
        <ele>128</ele>
        <time>2019-08-01T15:24:05Z</time>
      </trkpt>
      <trkpt lat="44.23804" lon="4.23155">
        <ele>129.28</ele>
        <time>2019-08-01T15:24:08Z</time>
      </trkpt>
      <trkpt lat="44.23807" lon="4.23122">
        <ele>130.44</ele>
        <time>2019-08-01T15:24:12Z</time>
      </trkpt>
      <trkpt lat="44.23818" lon="4.23095">
        <ele>132</ele>
        <time>2019-08-01T15:24:15Z</time>
      </trkpt>
      <trkpt lat="44.23829" lon="4.23071">
        <ele>133.16</ele>
        <time>2019-08-01T15:24:19Z</time>
      </trkpt>
      <trkpt lat="44.23847" lon="4.23052">
        <ele>131.82</ele>
        <time>2019-08-01T15:24:23Z</time>
      </trkpt>
      <trkpt lat="44.23864" lon="4.23034">
        <ele>132.5</ele>
        <time>2019-08-01T15:24:27Z</time>
      </trkpt>
      <trkpt lat="44.23878" lon="4.23019">
        <ele>131.08</ele>
        <time>2019-08-01T15:24:30Z</time>
      </trkpt>
      <trkpt lat="44.2389" lon="4.22999">
        <ele>129.53</ele>
        <time>2019-08-01T15:24:33Z</time>
      </trkpt>
      <trkpt lat="44.23904" lon="4.22972">
        <ele>127.74</ele>
        <time>2019-08-01T15:24:37Z</time>
      </trkpt>
      <trkpt lat="44.23913" lon="4.2295">
        <ele>129.02</ele>
        <time>2019-08-01T15:24:40Z</time>
      </trkpt>
      <trkpt lat="44.23924" lon="4.22922">
        <ele>128.92</ele>
        <time>2019-08-01T15:24:44Z</time>
      </trkpt>
      <trkpt lat="44.23934" lon="4.229">
        <ele>128.63</ele>
        <time>2019-08-01T15:24:47Z</time>
      </trkpt>
      <trkpt lat="44.23944" lon="4.22878">
        <ele>127.63</ele>
        <time>2019-08-01T15:24:50Z</time>
      </trkpt>
      <trkpt lat="44.23957" lon="4.2285">
        <ele>126.17</ele>
        <time>2019-08-01T15:24:54Z</time>
      </trkpt>
      <trkpt lat="44.23967" lon="4.22827">
        <ele>126.15</ele>
        <time>2019-08-01T15:24:57Z</time>
      </trkpt>
      <trkpt lat="44.23976" lon="4.22799">
        <ele>127.24</ele>
        <time>2019-08-01T15:25:01Z</time>
      </trkpt>
      <trkpt lat="44.23986" lon="4.22769">
        <ele>129.19</ele>
        <time>2019-08-01T15:25:05Z</time>
      </trkpt>
      <trkpt lat="44.23999" lon="4.22743">
        <ele>128.34</ele>
        <time>2019-08-01T15:25:09Z</time>
      </trkpt>
      <trkpt lat="44.24008" lon="4.22717">
        <ele>129.7</ele>
        <time>2019-08-01T15:25:12Z</time>
      </trkpt>
      <trkpt lat="44.24016" lon="4.22694">
        <ele>131.23</ele>
        <time>2019-08-01T15:25:15Z</time>
      </trkpt>
      <trkpt lat="44.24023" lon="4.22667">
        <ele>131.9</ele>
        <time>2019-08-01T15:25:19Z</time>
      </trkpt>
      <trkpt lat="44.24025" lon="4.22642">
        <ele>130.34</ele>
        <time>2019-08-01T15:25:22Z</time>
      </trkpt>
      <trkpt lat="44.24034" lon="4.22613">
        <ele>126.6</ele>
        <time>2019-08-01T15:25:26Z</time>
      </trkpt>
      <trkpt lat="44.2404" lon="4.22583">
        <ele>126.39</ele>
        <time>2019-08-01T15:25:30Z</time>
      </trkpt>
      <trkpt lat="44.24044" lon="4.22558">
        <ele>125.68</ele>
        <time>2019-08-01T15:25:33Z</time>
      </trkpt>
      <trkpt lat="44.24049" lon="4.22533">
        <ele>126.39</ele>
        <time>2019-08-01T15:25:36Z</time>
      </trkpt>
      <trkpt lat="44.24054" lon="4.22508">
        <ele>125.52</ele>
        <time>2019-08-01T15:25:39Z</time>
      </trkpt>
      <trkpt lat="44.24058" lon="4.22474">
        <ele>125.54</ele>
        <time>2019-08-01T15:25:43Z</time>
      </trkpt>
      <trkpt lat="44.24061" lon="4.22442">
        <ele>127.5</ele>
        <time>2019-08-01T15:25:47Z</time>
      </trkpt>
      <trkpt lat="44.24066" lon="4.22416">
        <ele>128.1</ele>
        <time>2019-08-01T15:25:50Z</time>
      </trkpt>
      <trkpt lat="44.24069" lon="4.22387">
        <ele>129.26</ele>
        <time>2019-08-01T15:25:53Z</time>
      </trkpt>
      <trkpt lat="44.24073" lon="4.22353">
        <ele>128.85</ele>
        <time>2019-08-01T15:25:57Z</time>
      </trkpt>
      <trkpt lat="44.24074" lon="4.2232">
        <ele>130.82</ele>
        <time>2019-08-01T15:26:01Z</time>
      </trkpt>
      <trkpt lat="44.24077" lon="4.2229">
        <ele>131.69</ele>
        <time>2019-08-01T15:26:05Z</time>
      </trkpt>
      <trkpt lat="44.24083" lon="4.22266">
        <ele>131.72</ele>
        <time>2019-08-01T15:26:08Z</time>
      </trkpt>
      <trkpt lat="44.24087" lon="4.22241">
        <ele>130.43</ele>
        <time>2019-08-01T15:26:11Z</time>
      </trkpt>
      <trkpt lat="44.24093" lon="4.22209">
        <ele>130.71</ele>
        <time>2019-08-01T15:26:15Z</time>
      </trkpt>
      <trkpt lat="44.24102" lon="4.22187">
        <ele>129.85</ele>
        <time>2019-08-01T15:26:18Z</time>
      </trkpt>
      <trkpt lat="44.24113" lon="4.2216">
        <ele>133.7</ele>
        <time>2019-08-01T15:26:22Z</time>
      </trkpt>
      <trkpt lat="44.24127" lon="4.22137">
        <ele>135.63</ele>
        <time>2019-08-01T15:26:26Z</time>
      </trkpt>
      <trkpt lat="44.24143" lon="4.22119">
        <ele>134.54</ele>
        <time>2019-08-01T15:26:29Z</time>
      </trkpt>
      <trkpt lat="44.24159" lon="4.22099">
        <ele>130.8</ele>
        <time>2019-08-01T15:26:32Z</time>
      </trkpt>
      <trkpt lat="44.24171" lon="4.22078">
        <ele>129.06</ele>
        <time>2019-08-01T15:26:35Z</time>
      </trkpt>
      <trkpt lat="44.24186" lon="4.22065">
        <ele>128.81</ele>
        <time>2019-08-01T15:26:38Z</time>
      </trkpt>
      <trkpt lat="44.24205" lon="4.22046">
        <ele>128.2</ele>
        <time>2019-08-01T15:26:42Z</time>
      </trkpt>
      <trkpt lat="44.24225" lon="4.22028">
        <ele>130</ele>
        <time>2019-08-01T15:26:46Z</time>
      </trkpt>
      <trkpt lat="44.24241" lon="4.22016">
        <ele>130.4</ele>
        <time>2019-08-01T15:26:49Z</time>
      </trkpt>
      <trkpt lat="44.24257" lon="4.22004">
        <ele>130.87</ele>
        <time>2019-08-01T15:26:52Z</time>
      </trkpt>
      <trkpt lat="44.24273" lon="4.21992">
        <ele>130.93</ele>
        <time>2019-08-01T15:26:55Z</time>
      </trkpt>
      <trkpt lat="44.24291" lon="4.21982">
        <ele>131.1</ele>
        <time>2019-08-01T15:26:58Z</time>
      </trkpt>
      <trkpt lat="44.24311" lon="4.21966">
        <ele>132.28</ele>
        <time>2019-08-01T15:27:02Z</time>
      </trkpt>
      <trkpt lat="44.24327" lon="4.21952">
        <ele>131.43</ele>
        <time>2019-08-01T15:27:05Z</time>
      </trkpt>
      <trkpt lat="44.24348" lon="4.21937">
        <ele>132.01</ele>
        <time>2019-08-01T15:27:09Z</time>
      </trkpt>
      <trkpt lat="44.24368" lon="4.2192">
        <ele>131.97</ele>
        <time>2019-08-01T15:27:13Z</time>
      </trkpt>
      <trkpt lat="44.24389" lon="4.21903">
        <ele>131.66</ele>
        <time>2019-08-01T15:27:17Z</time>
      </trkpt>
      <trkpt lat="44.24405" lon="4.21891">
        <ele>130.94</ele>
        <time>2019-08-01T15:27:20Z</time>
      </trkpt>
      <trkpt lat="44.24424" lon="4.21885">
        <ele>129.35</ele>
        <time>2019-08-01T15:27:23Z</time>
      </trkpt>
      <trkpt lat="44.24444" lon="4.21867">
        <ele>130.61</ele>
        <time>2019-08-01T15:27:27Z</time>
      </trkpt>
      <trkpt lat="44.2446" lon="4.21854">
        <ele>129.84</ele>
        <time>2019-08-01T15:27:30Z</time>
      </trkpt>
      <trkpt lat="44.24481" lon="4.21841">
        <ele>131.38</ele>
        <time>2019-08-01T15:27:34Z</time>
      </trkpt>
      <trkpt lat="44.24497" lon="4.21827">
        <ele>132.24</ele>
        <time>2019-08-01T15:27:37Z</time>
      </trkpt>
      <trkpt lat="44.24513" lon="4.21814">
        <ele>129.49</ele>
        <time>2019-08-01T15:27:40Z</time>
      </trkpt>
      <trkpt lat="44.24533" lon="4.21796">
        <ele>130.55</ele>
        <time>2019-08-01T15:27:44Z</time>
      </trkpt>
      <trkpt lat="44.24547" lon="4.21781">
        <ele>131.39</ele>
        <time>2019-08-01T15:27:47Z</time>
      </trkpt>
      <trkpt lat="44.24562" lon="4.21766">
        <ele>131.49</ele>
        <time>2019-08-01T15:27:50Z</time>
      </trkpt>
      <trkpt lat="44.24581" lon="4.21747">
        <ele>132</ele>
        <time>2019-08-01T15:27:54Z</time>
      </trkpt>
      <trkpt lat="44.24596" lon="4.21732">
        <ele>132.51</ele>
        <time>2019-08-01T15:27:57Z</time>
      </trkpt>
      <trkpt lat="44.24611" lon="4.21717">
        <ele>132.62</ele>
        <time>2019-08-01T15:28:00Z</time>
      </trkpt>
      <trkpt lat="44.24625" lon="4.21702">
        <ele>132.56</ele>
        <time>2019-08-01T15:28:03Z</time>
      </trkpt>
      <trkpt lat="44.2464" lon="4.21687">
        <ele>132.19</ele>
        <time>2019-08-01T15:28:06Z</time>
      </trkpt>
      <trkpt lat="44.24659" lon="4.21667">
        <ele>133.06</ele>
        <time>2019-08-01T15:28:10Z</time>
      </trkpt>
      <trkpt lat="44.24676" lon="4.21644">
        <ele>134.66</ele>
        <time>2019-08-01T15:28:14Z</time>
      </trkpt>
      <trkpt lat="44.24691" lon="4.21619">
        <ele>134.77</ele>
        <time>2019-08-01T15:28:18Z</time>
      </trkpt>
      <trkpt lat="44.24706" lon="4.21597">
        <ele>135.89</ele>
        <time>2019-08-01T15:28:22Z</time>
      </trkpt>
      <trkpt lat="44.24719" lon="4.21577">
        <ele>136.42</ele>
        <time>2019-08-01T15:28:25Z</time>
      </trkpt>
      <trkpt lat="44.24732" lon="4.21558">
        <ele>136.59</ele>
        <time>2019-08-01T15:28:28Z</time>
      </trkpt>
      <trkpt lat="44.24744" lon="4.21538">
        <ele>137.16</ele>
        <time>2019-08-01T15:28:31Z</time>
      </trkpt>
      <trkpt lat="44.2476" lon="4.21515">
        <ele>138.53</ele>
        <time>2019-08-01T15:28:35Z</time>
      </trkpt>
      <trkpt lat="44.24773" lon="4.2149">
        <ele>138.59</ele>
        <time>2019-08-01T15:28:39Z</time>
      </trkpt>
      <trkpt lat="44.24785" lon="4.21465">
        <ele>140.7</ele>
        <time>2019-08-01T15:28:43Z</time>
      </trkpt>
      <trkpt lat="44.24796" lon="4.21444">
        <ele>141.23</ele>
        <time>2019-08-01T15:28:46Z</time>
      </trkpt>
      <trkpt lat="44.24807" lon="4.21424">
        <ele>141.08</ele>
        <time>2019-08-01T15:28:49Z</time>
      </trkpt>
      <trkpt lat="44.2482" lon="4.21394">
        <ele>143.7</ele>
        <time>2019-08-01T15:28:53Z</time>
      </trkpt>
      <trkpt lat="44.24832" lon="4.21373">
        <ele>145.16</ele>
        <time>2019-08-01T15:28:56Z</time>
      </trkpt>
      <trkpt lat="44.24846" lon="4.21355">
        <ele>143.25</ele>
        <time>2019-08-01T15:28:59Z</time>
      </trkpt>
      <trkpt lat="44.24863" lon="4.21331">
        <ele>143.94</ele>
        <time>2019-08-01T15:29:03Z</time>
      </trkpt>
      <trkpt lat="44.24879" lon="4.21313">
        <ele>142.45</ele>
        <time>2019-08-01T15:29:06Z</time>
      </trkpt>
      <trkpt lat="44.24896" lon="4.21302">
        <ele>142.94</ele>
        <time>2019-08-01T15:29:09Z</time>
      </trkpt>
      <trkpt lat="44.24917" lon="4.21298">
        <ele>140.02</ele>
        <time>2019-08-01T15:29:12Z</time>
      </trkpt>
      <trkpt lat="44.24938" lon="4.2129">
        <ele>140.67</ele>
        <time>2019-08-01T15:29:16Z</time>
      </trkpt>
      <trkpt lat="44.24956" lon="4.2129">
        <ele>138.94</ele>
        <time>2019-08-01T15:29:19Z</time>
      </trkpt>
      <trkpt lat="44.24974" lon="4.21292">
        <ele>139.02</ele>
        <time>2019-08-01T15:29:22Z</time>
      </trkpt>
      <trkpt lat="44.24996" lon="4.21298">
        <ele>139.6</ele>
        <time>2019-08-01T15:29:26Z</time>
      </trkpt>
      <trkpt lat="44.25018" lon="4.2131">
        <ele>140.16</ele>
        <time>2019-08-01T15:29:30Z</time>
      </trkpt>
      <trkpt lat="44.2504" lon="4.21314">
        <ele>142.39</ele>
        <time>2019-08-01T15:29:34Z</time>
      </trkpt>
      <trkpt lat="44.25058" lon="4.21316">
        <ele>144.19</ele>
        <time>2019-08-01T15:29:37Z</time>
      </trkpt>
      <trkpt lat="44.2508" lon="4.21316">
        <ele>141.73</ele>
        <time>2019-08-01T15:29:41Z</time>
      </trkpt>
      <trkpt lat="44.25102" lon="4.21312">
        <ele>141.65</ele>
        <time>2019-08-01T15:29:45Z</time>
      </trkpt>
      <trkpt lat="44.2512" lon="4.2131">
        <ele>140.16</ele>
        <time>2019-08-01T15:29:48Z</time>
      </trkpt>
      <trkpt lat="44.25138" lon="4.21307">
        <ele>138.74</ele>
        <time>2019-08-01T15:29:51Z</time>
      </trkpt>
      <trkpt lat="44.25159" lon="4.21303">
        <ele>139.39</ele>
        <time>2019-08-01T15:29:55Z</time>
      </trkpt>
      <trkpt lat="44.25178" lon="4.213">
        <ele>139.89</ele>
        <time>2019-08-01T15:29:58Z</time>
      </trkpt>
      <trkpt lat="44.25199" lon="4.21296">
        <ele>139.04</ele>
        <time>2019-08-01T15:30:01Z</time>
      </trkpt>
      <trkpt lat="44.2522" lon="4.21293">
        <ele>138.9</ele>
        <time>2019-08-01T15:30:04Z</time>
      </trkpt>
      <trkpt lat="44.25238" lon="4.21284">
        <ele>139.32</ele>
        <time>2019-08-01T15:30:07Z</time>
      </trkpt>
      <trkpt lat="44.25258" lon="4.21281">
        <ele>138.31</ele>
        <time>2019-08-01T15:30:10Z</time>
      </trkpt>
      <trkpt lat="44.25282" lon="4.21275">
        <ele>135.85</ele>
        <time>2019-08-01T15:30:13Z</time>
      </trkpt>
      <trkpt lat="44.25307" lon="4.2127">
        <ele>135.3</ele>
        <time>2019-08-01T15:30:16Z</time>
      </trkpt>
      <trkpt lat="44.2533" lon="4.21267">
        <ele>136.97</ele>
        <time>2019-08-01T15:30:19Z</time>
      </trkpt>
      <trkpt lat="44.25352" lon="4.21265">
        <ele>137.5</ele>
        <time>2019-08-01T15:30:22Z</time>
      </trkpt>
      <trkpt lat="44.25372" lon="4.21258">
        <ele>138.85</ele>
        <time>2019-08-01T15:30:25Z</time>
      </trkpt>
      <trkpt lat="44.25392" lon="4.21255">
        <ele>139.35</ele>
        <time>2019-08-01T15:30:28Z</time>
      </trkpt>
      <trkpt lat="44.25412" lon="4.21244">
        <ele>136.66</ele>
        <time>2019-08-01T15:30:32Z</time>
      </trkpt>
      <trkpt lat="44.25428" lon="4.21233">
        <ele>135.3</ele>
        <time>2019-08-01T15:30:35Z</time>
      </trkpt>
      <trkpt lat="44.25448" lon="4.21213">
        <ele>136.9</ele>
        <time>2019-08-01T15:30:39Z</time>
      </trkpt>
      <trkpt lat="44.25465" lon="4.21198">
        <ele>141.41</ele>
        <time>2019-08-01T15:30:43Z</time>
      </trkpt>
      <trkpt lat="44.25483" lon="4.2118">
        <ele>141.76</ele>
        <time>2019-08-01T15:30:47Z</time>
      </trkpt>
      <trkpt lat="44.25498" lon="4.21162">
        <ele>141.59</ele>
        <time>2019-08-01T15:30:51Z</time>
      </trkpt>
      <trkpt lat="44.25516" lon="4.21144">
        <ele>146.53</ele>
        <time>2019-08-01T15:30:55Z</time>
      </trkpt>
      <trkpt lat="44.25536" lon="4.21127">
        <ele>147.94</ele>
        <time>2019-08-01T15:30:59Z</time>
      </trkpt>
      <trkpt lat="44.25553" lon="4.2111">
        <ele>144.63</ele>
        <time>2019-08-01T15:31:02Z</time>
      </trkpt>
      <trkpt lat="44.2557" lon="4.21093">
        <ele>143.82</ele>
        <time>2019-08-01T15:31:05Z</time>
      </trkpt>
      <trkpt lat="44.25587" lon="4.21081">
        <ele>142.56</ele>
        <time>2019-08-01T15:31:08Z</time>
      </trkpt>
      <trkpt lat="44.25601" lon="4.21064">
        <ele>142.16</ele>
        <time>2019-08-01T15:31:11Z</time>
      </trkpt>
      <trkpt lat="44.25614" lon="4.21045">
        <ele>142.32</ele>
        <time>2019-08-01T15:31:14Z</time>
      </trkpt>
      <trkpt lat="44.25627" lon="4.2102">
        <ele>142.62</ele>
        <time>2019-08-01T15:31:18Z</time>
      </trkpt>
      <trkpt lat="44.25639" lon="4.20997">
        <ele>142.45</ele>
        <time>2019-08-01T15:31:21Z</time>
      </trkpt>
      <trkpt lat="44.25651" lon="4.2097">
        <ele>143.37</ele>
        <time>2019-08-01T15:31:25Z</time>
      </trkpt>
      <trkpt lat="44.25663" lon="4.20944">
        <ele>144.18</ele>
        <time>2019-08-01T15:31:29Z</time>
      </trkpt>
      <trkpt lat="44.25678" lon="4.2092">
        <ele>145.61</ele>
        <time>2019-08-01T15:31:33Z</time>
      </trkpt>
      <trkpt lat="44.25692" lon="4.20894">
        <ele>148.03</ele>
        <time>2019-08-01T15:31:37Z</time>
      </trkpt>
      <trkpt lat="44.25701" lon="4.20873">
        <ele>146.56</ele>
        <time>2019-08-01T15:31:40Z</time>
      </trkpt>
      <trkpt lat="44.25714" lon="4.20845">
        <ele>146.55</ele>
        <time>2019-08-01T15:31:44Z</time>
      </trkpt>
      <trkpt lat="44.25724" lon="4.20821">
        <ele>146.8</ele>
        <time>2019-08-01T15:31:48Z</time>
      </trkpt>
      <trkpt lat="44.25736" lon="4.20799">
        <ele>145.55</ele>
        <time>2019-08-01T15:31:52Z</time>
      </trkpt>
      <trkpt lat="44.25749" lon="4.20774">
        <ele>142.89</ele>
        <time>2019-08-01T15:31:56Z</time>
      </trkpt>
      <trkpt lat="44.25762" lon="4.20746">
        <ele>142.48</ele>
        <time>2019-08-01T15:32:00Z</time>
      </trkpt>
      <trkpt lat="44.25773" lon="4.20717">
        <ele>144.45</ele>
        <time>2019-08-01T15:32:04Z</time>
      </trkpt>
      <trkpt lat="44.25782" lon="4.20696">
        <ele>146.88</ele>
        <time>2019-08-01T15:32:07Z</time>
      </trkpt>
      <trkpt lat="44.25793" lon="4.20674">
        <ele>149.1</ele>
        <time>2019-08-01T15:32:10Z</time>
      </trkpt>
      <trkpt lat="44.25801" lon="4.20643">
        <ele>150.25</ele>
        <time>2019-08-01T15:32:14Z</time>
      </trkpt>
      <trkpt lat="44.25802" lon="4.20612">
        <ele>148.82</ele>
        <time>2019-08-01T15:32:18Z</time>
      </trkpt>
      <trkpt lat="44.25799" lon="4.20587">
        <ele>149.27</ele>
        <time>2019-08-01T15:32:21Z</time>
      </trkpt>
      <trkpt lat="44.2579" lon="4.20557">
        <ele>153.27</ele>
        <time>2019-08-01T15:32:25Z</time>
      </trkpt>
      <trkpt lat="44.25786" lon="4.20528">
        <ele>152.31</ele>
        <time>2019-08-01T15:32:29Z</time>
      </trkpt>
      <trkpt lat="44.25787" lon="4.205">
        <ele>153.27</ele>
        <time>2019-08-01T15:32:33Z</time>
      </trkpt>
      <trkpt lat="44.25787" lon="4.20475">
        <ele>152.86</ele>
        <time>2019-08-01T15:32:36Z</time>
      </trkpt>
      <trkpt lat="44.25792" lon="4.20447">
        <ele>152.22</ele>
        <time>2019-08-01T15:32:39Z</time>
      </trkpt>
      <trkpt lat="44.25793" lon="4.20422">
        <ele>151.42</ele>
        <time>2019-08-01T15:32:42Z</time>
      </trkpt>
      <trkpt lat="44.25798" lon="4.20393">
        <ele>151.47</ele>
        <time>2019-08-01T15:32:45Z</time>
      </trkpt>
      <trkpt lat="44.25809" lon="4.20364">
        <ele>149.84</ele>
        <time>2019-08-01T15:32:48Z</time>
      </trkpt>
      <trkpt lat="44.25821" lon="4.20333">
        <ele>149.07</ele>
        <time>2019-08-01T15:32:51Z</time>
      </trkpt>
      <trkpt lat="44.25836" lon="4.20304">
        <ele>148.58</ele>
        <time>2019-08-01T15:32:54Z</time>
      </trkpt>
      <trkpt lat="44.2585" lon="4.20273">
        <ele>149.63</ele>
        <time>2019-08-01T15:32:57Z</time>
      </trkpt>
      <trkpt lat="44.25864" lon="4.20244">
        <ele>147.59</ele>
        <time>2019-08-01T15:33:00Z</time>
      </trkpt>
      <trkpt lat="44.25879" lon="4.20213">
        <ele>146.01</ele>
        <time>2019-08-01T15:33:03Z</time>
      </trkpt>
      <trkpt lat="44.2589" lon="4.20193">
        <ele>145.44</ele>
        <time>2019-08-01T15:33:05Z</time>
      </trkpt>
      <trkpt lat="44.25904" lon="4.20163">
        <ele>146.38</ele>
        <time>2019-08-01T15:33:08Z</time>
      </trkpt>
      <trkpt lat="44.25918" lon="4.20135">
        <ele>147.37</ele>
        <time>2019-08-01T15:33:11Z</time>
      </trkpt>
      <trkpt lat="44.25929" lon="4.20106">
        <ele>148.22</ele>
        <time>2019-08-01T15:33:14Z</time>
      </trkpt>
      <trkpt lat="44.2594" lon="4.20083">
        <ele>145.91</ele>
        <time>2019-08-01T15:33:17Z</time>
      </trkpt>
      <trkpt lat="44.2595" lon="4.20061">
        <ele>145.53</ele>
        <time>2019-08-01T15:33:20Z</time>
      </trkpt>
      <trkpt lat="44.25964" lon="4.20035">
        <ele>144.29</ele>
        <time>2019-08-01T15:33:24Z</time>
      </trkpt>
      <trkpt lat="44.25977" lon="4.20009">
        <ele>144.17</ele>
        <time>2019-08-01T15:33:28Z</time>
      </trkpt>
      <trkpt lat="44.2599" lon="4.19981">
        <ele>143.21</ele>
        <time>2019-08-01T15:33:32Z</time>
      </trkpt>
      <trkpt lat="44.26" lon="4.19953">
        <ele>146.21</ele>
        <time>2019-08-01T15:33:36Z</time>
      </trkpt>
      <trkpt lat="44.26011" lon="4.19925">
        <ele>143.53</ele>
        <time>2019-08-01T15:33:40Z</time>
      </trkpt>
      <trkpt lat="44.26019" lon="4.19902">
        <ele>146.54</ele>
        <time>2019-08-01T15:33:51Z</time>
      </trkpt>
      <trkpt lat="44.26031" lon="4.19882">
        <ele>145.89</ele>
        <time>2019-08-01T15:34:08Z</time>
      </trkpt>
      <trkpt lat="44.26041" lon="4.19856">
        <ele>147.1</ele>
        <time>2019-08-01T15:34:24Z</time>
      </trkpt>
      <trkpt lat="44.26053" lon="4.19836">
        <ele>144.53</ele>
        <time>2019-08-01T15:34:29Z</time>
      </trkpt>
      <trkpt lat="44.26073" lon="4.19832">
        <ele>149.52</ele>
        <time>2019-08-01T15:34:42Z</time>
      </trkpt>
      <trkpt lat="44.26094" lon="4.19851">
        <ele>152.35</ele>
        <time>2019-08-01T15:34:45Z</time>
      </trkpt>
      <trkpt lat="44.26114" lon="4.19864">
        <ele>153.51</ele>
        <time>2019-08-01T15:34:48Z</time>
      </trkpt>
      <trkpt lat="44.26133" lon="4.19886">
        <ele>155.02</ele>
        <time>2019-08-01T15:34:52Z</time>
      </trkpt>
      <trkpt lat="44.26147" lon="4.19906">
        <ele>154.21</ele>
        <time>2019-08-01T15:34:58Z</time>
      </trkpt>
      <trkpt lat="44.26164" lon="4.19895">
        <ele>145.74</ele>
        <time>2019-08-01T15:35:06Z</time>
      </trkpt>
      <trkpt lat="44.26178" lon="4.19911">
        <ele>136.41</ele>
        <time>2019-08-01T15:39:19Z</time>
      </trkpt>
      <trkpt lat="44.26163" lon="4.19896">
        <ele>136.67</ele>
        <time>2019-08-01T15:42:49Z</time>
      </trkpt>
      <trkpt lat="44.26145" lon="4.199">
        <ele>137.46</ele>
        <time>2019-08-01T15:43:07Z</time>
      </trkpt>
      <trkpt lat="44.26128" lon="4.1989">
        <ele>139.2</ele>
        <time>2019-08-01T15:43:24Z</time>
      </trkpt>
      <trkpt lat="44.26114" lon="4.19873">
        <ele>138.77</ele>
        <time>2019-08-01T15:43:44Z</time>
      </trkpt>
      <trkpt lat="44.26099" lon="4.19858">
        <ele>135.24</ele>
        <time>2019-08-01T15:44:28Z</time>
      </trkpt>
      <trkpt lat="44.26083" lon="4.19847">
        <ele>139.13</ele>
        <time>2019-08-01T15:44:46Z</time>
      </trkpt>
      <trkpt lat="44.26071" lon="4.19828">
        <ele>144.46</ele>
        <time>2019-08-01T15:45:00Z</time>
      </trkpt>
      <trkpt lat="44.26088" lon="4.19814">
        <ele>145.17</ele>
        <time>2019-08-01T15:45:25Z</time>
      </trkpt>
      <trkpt lat="44.26102" lon="4.19798">
        <ele>151</ele>
        <time>2019-08-01T15:46:18Z</time>
      </trkpt>
      <trkpt lat="44.26077" lon="4.19768">
        <ele>161.51</ele>
        <time>2019-08-01T15:55:55Z</time>
      </trkpt>
      <trkpt lat="44.26093" lon="4.19781">
        <ele>161.68</ele>
        <time>2019-08-01T15:56:27Z</time>
      </trkpt>
      <trkpt lat="44.26099" lon="4.19811">
        <ele>152.5</ele>
        <time>2019-08-01T15:57:22Z</time>
      </trkpt>
      <trkpt lat="44.26086" lon="4.19788">
        <ele>152.24</ele>
        <time>2019-08-01T15:57:43Z</time>
      </trkpt>
      <trkpt lat="44.26113" lon="4.19838">
        <ele>157.03</ele>
        <time>2019-08-01T15:58:04Z</time>
      </trkpt>
      <trkpt lat="44.26101" lon="4.19812">
        <ele>157.62</ele>
        <time>2019-08-01T15:58:06Z</time>
      </trkpt>
      <trkpt lat="44.26092" lon="4.19789">
        <ele>160.05</ele>
        <time>2019-08-01T15:58:14Z</time>
      </trkpt>
      <trkpt lat="44.26072" lon="4.19779">
        <ele>146.87</ele>
        <time>2019-08-01T15:59:00Z</time>
      </trkpt>
      <trkpt lat="44.26097" lon="4.19784">
        <ele>151.43</ele>
        <time>2019-08-01T15:59:14Z</time>
      </trkpt>
      <trkpt lat="44.26081" lon="4.1977">
        <ele>152.14</ele>
        <time>2019-08-01T15:59:27Z</time>
      </trkpt>
      <trkpt lat="44.26095" lon="4.19789">
        <ele>166.9</ele>
        <time>2019-08-01T16:01:41Z</time>
      </trkpt>
      <trkpt lat="44.26079" lon="4.19799">
        <ele>151.9</ele>
        <time>2019-08-01T16:03:01Z</time>
      </trkpt>
      <trkpt lat="44.26074" lon="4.19825">
        <ele>147.9</ele>
        <time>2019-08-01T16:03:26Z</time>
      </trkpt>
      <trkpt lat="44.2609" lon="4.19836">
        <ele>143.52</ele>
        <time>2019-08-01T16:03:40Z</time>
      </trkpt>
      <trkpt lat="44.26099" lon="4.19858">
        <ele>142.19</ele>
        <time>2019-08-01T16:03:57Z</time>
      </trkpt>
      <trkpt lat="44.26116" lon="4.19869">
        <ele>141.96</ele>
        <time>2019-08-01T16:04:14Z</time>
      </trkpt>
      <trkpt lat="44.26132" lon="4.19883">
        <ele>140.12</ele>
        <time>2019-08-01T16:04:32Z</time>
      </trkpt>
      <trkpt lat="44.26143" lon="4.19903">
        <ele>139.74</ele>
        <time>2019-08-01T16:04:47Z</time>
      </trkpt>
      <trkpt lat="44.26161" lon="4.19905">
        <ele>139.22</ele>
        <time>2019-08-01T16:05:05Z</time>
      </trkpt>
      <trkpt lat="44.26175" lon="4.19888">
        <ele>142.46</ele>
        <time>2019-08-01T16:05:24Z</time>
      </trkpt>
      <trkpt lat="44.26156" lon="4.19892">
        <ele>139.57</ele>
        <time>2019-08-01T16:08:24Z</time>
      </trkpt>
      <trkpt lat="44.26139" lon="4.19902">
        <ele>143.39</ele>
        <time>2019-08-01T16:08:37Z</time>
      </trkpt>
      <trkpt lat="44.26112" lon="4.1988">
        <ele>143.54</ele>
        <time>2019-08-01T16:08:46Z</time>
      </trkpt>
      <trkpt lat="44.26095" lon="4.19865">
        <ele>144.73</ele>
        <time>2019-08-01T16:08:51Z</time>
      </trkpt>
      <trkpt lat="44.2608" lon="4.19845">
        <ele>141.86</ele>
        <time>2019-08-01T16:08:57Z</time>
      </trkpt>
      <trkpt lat="44.26064" lon="4.19829">
        <ele>141.36</ele>
        <time>2019-08-01T16:09:05Z</time>
      </trkpt>
      <trkpt lat="44.26055" lon="4.19854">
        <ele>144.84</ele>
        <time>2019-08-01T16:09:14Z</time>
      </trkpt>
      <trkpt lat="44.26044" lon="4.19882">
        <ele>144.62</ele>
        <time>2019-08-01T16:09:20Z</time>
      </trkpt>
      <trkpt lat="44.26036" lon="4.19906">
        <ele>145.19</ele>
        <time>2019-08-01T16:09:23Z</time>
      </trkpt>
      <trkpt lat="44.26024" lon="4.19925">
        <ele>142.49</ele>
        <time>2019-08-01T16:09:27Z</time>
      </trkpt>
      <trkpt lat="44.26012" lon="4.19948">
        <ele>147.58</ele>
        <time>2019-08-01T16:09:38Z</time>
      </trkpt>
      <trkpt lat="44.25984" lon="4.19998">
        <ele>145.46</ele>
        <time>2019-08-01T16:09:39Z</time>
      </trkpt>
      <trkpt lat="44.25974" lon="4.20024">
        <ele>148.98</ele>
        <time>2019-08-01T16:09:43Z</time>
      </trkpt>
      <trkpt lat="44.25964" lon="4.20046">
        <ele>148.68</ele>
        <time>2019-08-01T16:09:46Z</time>
      </trkpt>
      <trkpt lat="44.25951" lon="4.20075">
        <ele>147.94</ele>
        <time>2019-08-01T16:09:50Z</time>
      </trkpt>
      <trkpt lat="44.2594" lon="4.20097">
        <ele>146.23</ele>
        <time>2019-08-01T16:09:53Z</time>
      </trkpt>
      <trkpt lat="44.25931" lon="4.20125">
        <ele>147.9</ele>
        <time>2019-08-01T16:09:57Z</time>
      </trkpt>
      <trkpt lat="44.25916" lon="4.2015">
        <ele>148.92</ele>
        <time>2019-08-01T16:10:01Z</time>
      </trkpt>
      <trkpt lat="44.25903" lon="4.20177">
        <ele>147.72</ele>
        <time>2019-08-01T16:10:05Z</time>
      </trkpt>
      <trkpt lat="44.25893" lon="4.20203">
        <ele>149.19</ele>
        <time>2019-08-01T16:10:09Z</time>
      </trkpt>
      <trkpt lat="44.25882" lon="4.20226">
        <ele>149.85</ele>
        <time>2019-08-01T16:10:13Z</time>
      </trkpt>
      <trkpt lat="44.2587" lon="4.20252">
        <ele>150.3</ele>
        <time>2019-08-01T16:10:17Z</time>
      </trkpt>
      <trkpt lat="44.2586" lon="4.20273">
        <ele>150.21</ele>
        <time>2019-08-01T16:10:20Z</time>
      </trkpt>
      <trkpt lat="44.25849" lon="4.203">
        <ele>152.55</ele>
        <time>2019-08-01T16:10:24Z</time>
      </trkpt>
      <trkpt lat="44.25838" lon="4.20327">
        <ele>153.27</ele>
        <time>2019-08-01T16:10:28Z</time>
      </trkpt>
      <trkpt lat="44.25828" lon="4.20349">
        <ele>154.57</ele>
        <time>2019-08-01T16:10:31Z</time>
      </trkpt>
      <trkpt lat="44.25818" lon="4.20371">
        <ele>153.41</ele>
        <time>2019-08-01T16:10:34Z</time>
      </trkpt>
      <trkpt lat="44.25811" lon="4.20401">
        <ele>155.1</ele>
        <time>2019-08-01T16:10:38Z</time>
      </trkpt>
      <trkpt lat="44.25804" lon="4.20424">
        <ele>157.55</ele>
        <time>2019-08-01T16:10:41Z</time>
      </trkpt>
      <trkpt lat="44.25795" lon="4.20446">
        <ele>157.65</ele>
        <time>2019-08-01T16:10:44Z</time>
      </trkpt>
      <trkpt lat="44.25787" lon="4.20476">
        <ele>160.15</ele>
        <time>2019-08-01T16:10:48Z</time>
      </trkpt>
      <trkpt lat="44.2578" lon="4.205">
        <ele>158.48</ele>
        <time>2019-08-01T16:10:52Z</time>
      </trkpt>
      <trkpt lat="44.2578" lon="4.2053">
        <ele>155.31</ele>
        <time>2019-08-01T16:10:58Z</time>
      </trkpt>
      <trkpt lat="44.25789" lon="4.20558">
        <ele>154.76</ele>
        <time>2019-08-01T16:11:02Z</time>
      </trkpt>
      <trkpt lat="44.25794" lon="4.20584">
        <ele>154.28</ele>
        <time>2019-08-01T16:11:05Z</time>
      </trkpt>
      <trkpt lat="44.258" lon="4.20616">
        <ele>153.45</ele>
        <time>2019-08-01T16:11:08Z</time>
      </trkpt>
      <trkpt lat="44.25799" lon="4.20648">
        <ele>152.58</ele>
        <time>2019-08-01T16:11:11Z</time>
      </trkpt>
      <trkpt lat="44.2579" lon="4.20681">
        <ele>151.8</ele>
        <time>2019-08-01T16:11:14Z</time>
      </trkpt>
      <trkpt lat="44.25778" lon="4.2071">
        <ele>149.7</ele>
        <time>2019-08-01T16:11:17Z</time>
      </trkpt>
      <trkpt lat="44.25766" lon="4.2074">
        <ele>147.46</ele>
        <time>2019-08-01T16:11:20Z</time>
      </trkpt>
      <trkpt lat="44.25751" lon="4.2077">
        <ele>145.22</ele>
        <time>2019-08-01T16:11:23Z</time>
      </trkpt>
      <trkpt lat="44.25737" lon="4.208">
        <ele>144.27</ele>
        <time>2019-08-01T16:11:26Z</time>
      </trkpt>
      <trkpt lat="44.25727" lon="4.20821">
        <ele>142.77</ele>
        <time>2019-08-01T16:11:28Z</time>
      </trkpt>
      <trkpt lat="44.25717" lon="4.20843">
        <ele>141.24</ele>
        <time>2019-08-01T16:11:30Z</time>
      </trkpt>
      <trkpt lat="44.25707" lon="4.20864">
        <ele>140.3</ele>
        <time>2019-08-01T16:11:32Z</time>
      </trkpt>
      <trkpt lat="44.25694" lon="4.20895">
        <ele>139.6</ele>
        <time>2019-08-01T16:11:35Z</time>
      </trkpt>
      <trkpt lat="44.2568" lon="4.20925">
        <ele>139.36</ele>
        <time>2019-08-01T16:11:38Z</time>
      </trkpt>
      <trkpt lat="44.25665" lon="4.20954">
        <ele>138.44</ele>
        <time>2019-08-01T16:11:41Z</time>
      </trkpt>
      <trkpt lat="44.2565" lon="4.20982">
        <ele>137.26</ele>
        <time>2019-08-01T16:11:44Z</time>
      </trkpt>
      <trkpt lat="44.25636" lon="4.2101">
        <ele>137.38</ele>
        <time>2019-08-01T16:11:47Z</time>
      </trkpt>
      <trkpt lat="44.25626" lon="4.21035">
        <ele>137.85</ele>
        <time>2019-08-01T16:11:50Z</time>
      </trkpt>
      <trkpt lat="44.25612" lon="4.21063">
        <ele>137.57</ele>
        <time>2019-08-01T16:11:53Z</time>
      </trkpt>
      <trkpt lat="44.25597" lon="4.21087">
        <ele>136.44</ele>
        <time>2019-08-01T16:11:56Z</time>
      </trkpt>
      <trkpt lat="44.25581" lon="4.21103">
        <ele>133.96</ele>
        <time>2019-08-01T16:11:59Z</time>
      </trkpt>
      <trkpt lat="44.25561" lon="4.2112">
        <ele>133.22</ele>
        <time>2019-08-01T16:12:02Z</time>
      </trkpt>
      <trkpt lat="44.25541" lon="4.21136">
        <ele>131.51</ele>
        <time>2019-08-01T16:12:05Z</time>
      </trkpt>
      <trkpt lat="44.25523" lon="4.21151">
        <ele>130.41</ele>
        <time>2019-08-01T16:12:08Z</time>
      </trkpt>
      <trkpt lat="44.25503" lon="4.21167">
        <ele>130.53</ele>
        <time>2019-08-01T16:12:11Z</time>
      </trkpt>
      <trkpt lat="44.25486" lon="4.21181">
        <ele>130.7</ele>
        <time>2019-08-01T16:12:14Z</time>
      </trkpt>
      <trkpt lat="44.25469" lon="4.21196">
        <ele>130.6</ele>
        <time>2019-08-01T16:12:17Z</time>
      </trkpt>
      <trkpt lat="44.25453" lon="4.21207">
        <ele>130.67</ele>
        <time>2019-08-01T16:12:20Z</time>
      </trkpt>
      <trkpt lat="44.25436" lon="4.21222">
        <ele>131.33</ele>
        <time>2019-08-01T16:12:23Z</time>
      </trkpt>
      <trkpt lat="44.2542" lon="4.21234">
        <ele>130.22</ele>
        <time>2019-08-01T16:12:26Z</time>
      </trkpt>
      <trkpt lat="44.25399" lon="4.21249">
        <ele>129.55</ele>
        <time>2019-08-01T16:12:30Z</time>
      </trkpt>
      <trkpt lat="44.25376" lon="4.21258">
        <ele>127.51</ele>
        <time>2019-08-01T16:12:34Z</time>
      </trkpt>
      <trkpt lat="44.25353" lon="4.21261">
        <ele>126.27</ele>
        <time>2019-08-01T16:12:38Z</time>
      </trkpt>
      <trkpt lat="44.25331" lon="4.21268">
        <ele>127.33</ele>
        <time>2019-08-01T16:12:42Z</time>
      </trkpt>
      <trkpt lat="44.25309" lon="4.21273">
        <ele>126.6</ele>
        <time>2019-08-01T16:12:46Z</time>
      </trkpt>
      <trkpt lat="44.25286" lon="4.21279">
        <ele>128.85</ele>
        <time>2019-08-01T16:12:50Z</time>
      </trkpt>
      <trkpt lat="44.25267" lon="4.2128">
        <ele>128.05</ele>
        <time>2019-08-01T16:12:53Z</time>
      </trkpt>
      <trkpt lat="44.25245" lon="4.21286">
        <ele>127.85</ele>
        <time>2019-08-01T16:12:57Z</time>
      </trkpt>
      <trkpt lat="44.25224" lon="4.21292">
        <ele>133.42</ele>
        <time>2019-08-01T16:13:01Z</time>
      </trkpt>
      <trkpt lat="44.25207" lon="4.213">
        <ele>134.11</ele>
        <time>2019-08-01T16:13:04Z</time>
      </trkpt>
      <trkpt lat="44.25189" lon="4.21303">
        <ele>136.07</ele>
        <time>2019-08-01T16:13:07Z</time>
      </trkpt>
      <trkpt lat="44.25171" lon="4.21306">
        <ele>136.1</ele>
        <time>2019-08-01T16:13:10Z</time>
      </trkpt>
      <trkpt lat="44.25148" lon="4.21307">
        <ele>135.89</ele>
        <time>2019-08-01T16:13:14Z</time>
      </trkpt>
      <trkpt lat="44.25129" lon="4.21306">
        <ele>133.16</ele>
        <time>2019-08-01T16:13:17Z</time>
      </trkpt>
      <trkpt lat="44.25108" lon="4.21309">
        <ele>133.03</ele>
        <time>2019-08-01T16:13:20Z</time>
      </trkpt>
      <trkpt lat="44.25086" lon="4.21313">
        <ele>131.98</ele>
        <time>2019-08-01T16:13:23Z</time>
      </trkpt>
      <trkpt lat="44.25065" lon="4.21312">
        <ele>130.01</ele>
        <time>2019-08-01T16:13:26Z</time>
      </trkpt>
      <trkpt lat="44.25044" lon="4.21309">
        <ele>129.03</ele>
        <time>2019-08-01T16:13:29Z</time>
      </trkpt>
      <trkpt lat="44.25026" lon="4.21304">
        <ele>129.43</ele>
        <time>2019-08-01T16:13:32Z</time>
      </trkpt>
      <trkpt lat="44.25006" lon="4.21297">
        <ele>128.17</ele>
        <time>2019-08-01T16:13:35Z</time>
      </trkpt>
      <trkpt lat="44.24987" lon="4.21288">
        <ele>127.93</ele>
        <time>2019-08-01T16:13:38Z</time>
      </trkpt>
      <trkpt lat="44.24969" lon="4.21281">
        <ele>127.83</ele>
        <time>2019-08-01T16:13:41Z</time>
      </trkpt>
      <trkpt lat="44.2495" lon="4.21282">
        <ele>129.48</ele>
        <time>2019-08-01T16:13:44Z</time>
      </trkpt>
      <trkpt lat="44.24932" lon="4.21285">
        <ele>130.09</ele>
        <time>2019-08-01T16:13:47Z</time>
      </trkpt>
      <trkpt lat="44.24913" lon="4.21289">
        <ele>129.24</ele>
        <time>2019-08-01T16:13:50Z</time>
      </trkpt>
      <trkpt lat="44.24895" lon="4.21297">
        <ele>130.3</ele>
        <time>2019-08-01T16:13:53Z</time>
      </trkpt>
      <trkpt lat="44.24875" lon="4.21314">
        <ele>130.83</ele>
        <time>2019-08-01T16:13:57Z</time>
      </trkpt>
      <trkpt lat="44.2486" lon="4.2133">
        <ele>131.34</ele>
        <time>2019-08-01T16:14:00Z</time>
      </trkpt>
      <trkpt lat="44.24848" lon="4.21349">
        <ele>134</ele>
        <time>2019-08-01T16:14:03Z</time>
      </trkpt>
      <trkpt lat="44.24836" lon="4.21369">
        <ele>134.11</ele>
        <time>2019-08-01T16:14:06Z</time>
      </trkpt>
      <trkpt lat="44.24825" lon="4.21389">
        <ele>133.39</ele>
        <time>2019-08-01T16:14:09Z</time>
      </trkpt>
      <trkpt lat="44.24814" lon="4.21409">
        <ele>133.72</ele>
        <time>2019-08-01T16:14:12Z</time>
      </trkpt>
      <trkpt lat="44.24799" lon="4.21437">
        <ele>133.31</ele>
        <time>2019-08-01T16:14:16Z</time>
      </trkpt>
      <trkpt lat="44.24789" lon="4.21459">
        <ele>132.58</ele>
        <time>2019-08-01T16:14:19Z</time>
      </trkpt>
      <trkpt lat="44.24779" lon="4.2148">
        <ele>133.1</ele>
        <time>2019-08-01T16:14:22Z</time>
      </trkpt>
      <trkpt lat="44.24767" lon="4.21503">
        <ele>133.58</ele>
        <time>2019-08-01T16:14:25Z</time>
      </trkpt>
      <trkpt lat="44.24754" lon="4.21531">
        <ele>134.72</ele>
        <time>2019-08-01T16:14:29Z</time>
      </trkpt>
      <trkpt lat="44.24739" lon="4.21553">
        <ele>133.88</ele>
        <time>2019-08-01T16:14:32Z</time>
      </trkpt>
      <trkpt lat="44.24722" lon="4.21574">
        <ele>132.39</ele>
        <time>2019-08-01T16:14:35Z</time>
      </trkpt>
      <trkpt lat="44.24708" lon="4.21595">
        <ele>133.83</ele>
        <time>2019-08-01T16:14:38Z</time>
      </trkpt>
      <trkpt lat="44.24695" lon="4.21615">
        <ele>134.34</ele>
        <time>2019-08-01T16:14:41Z</time>
      </trkpt>
      <trkpt lat="44.24682" lon="4.21634">
        <ele>133.91</ele>
        <time>2019-08-01T16:14:44Z</time>
      </trkpt>
      <trkpt lat="44.24669" lon="4.21654">
        <ele>134.41</ele>
        <time>2019-08-01T16:14:47Z</time>
      </trkpt>
      <trkpt lat="44.24653" lon="4.21672">
        <ele>133.4</ele>
        <time>2019-08-01T16:14:50Z</time>
      </trkpt>
      <trkpt lat="44.24635" lon="4.21689">
        <ele>132.36</ele>
        <time>2019-08-01T16:14:53Z</time>
      </trkpt>
      <trkpt lat="44.24618" lon="4.21707">
        <ele>131.01</ele>
        <time>2019-08-01T16:14:56Z</time>
      </trkpt>
      <trkpt lat="44.24602" lon="4.21725">
        <ele>130.83</ele>
        <time>2019-08-01T16:14:59Z</time>
      </trkpt>
      <trkpt lat="44.24584" lon="4.21742">
        <ele>130.96</ele>
        <time>2019-08-01T16:15:02Z</time>
      </trkpt>
      <trkpt lat="44.24565" lon="4.21759">
        <ele>128.92</ele>
        <time>2019-08-01T16:15:05Z</time>
      </trkpt>
      <trkpt lat="44.24549" lon="4.21776">
        <ele>128.85</ele>
        <time>2019-08-01T16:15:08Z</time>
      </trkpt>
      <trkpt lat="44.2453" lon="4.21795">
        <ele>127.5</ele>
        <time>2019-08-01T16:15:11Z</time>
      </trkpt>
      <trkpt lat="44.24513" lon="4.21811">
        <ele>127.97</ele>
        <time>2019-08-01T16:15:14Z</time>
      </trkpt>
      <trkpt lat="44.24496" lon="4.21826">
        <ele>127.54</ele>
        <time>2019-08-01T16:15:17Z</time>
      </trkpt>
      <trkpt lat="44.24477" lon="4.21841">
        <ele>126.9</ele>
        <time>2019-08-01T16:15:20Z</time>
      </trkpt>
      <trkpt lat="44.24458" lon="4.21859">
        <ele>127.29</ele>
        <time>2019-08-01T16:15:24Z</time>
      </trkpt>
      <trkpt lat="44.24441" lon="4.21872">
        <ele>127.09</ele>
        <time>2019-08-01T16:15:27Z</time>
      </trkpt>
      <trkpt lat="44.24425" lon="4.21883">
        <ele>126.32</ele>
        <time>2019-08-01T16:15:30Z</time>
      </trkpt>
      <trkpt lat="44.24408" lon="4.21894">
        <ele>128.94</ele>
        <time>2019-08-01T16:15:33Z</time>
      </trkpt>
      <trkpt lat="44.24386" lon="4.21903">
        <ele>126.13</ele>
        <time>2019-08-01T16:15:37Z</time>
      </trkpt>
      <trkpt lat="44.24369" lon="4.21914">
        <ele>127.13</ele>
        <time>2019-08-01T16:15:40Z</time>
      </trkpt>
      <trkpt lat="44.24353" lon="4.21926">
        <ele>127.76</ele>
        <time>2019-08-01T16:15:43Z</time>
      </trkpt>
      <trkpt lat="44.24338" lon="4.21941">
        <ele>128.3</ele>
        <time>2019-08-01T16:15:46Z</time>
      </trkpt>
      <trkpt lat="44.2432" lon="4.21953">
        <ele>129.75</ele>
        <time>2019-08-01T16:15:49Z</time>
      </trkpt>
      <trkpt lat="44.243" lon="4.2197">
        <ele>130.48</ele>
        <time>2019-08-01T16:15:53Z</time>
      </trkpt>
      <trkpt lat="44.24283" lon="4.21983">
        <ele>128.37</ele>
        <time>2019-08-01T16:15:56Z</time>
      </trkpt>
      <trkpt lat="44.24262" lon="4.21998">
        <ele>127.72</ele>
        <time>2019-08-01T16:16:00Z</time>
      </trkpt>
      <trkpt lat="44.24243" lon="4.22016">
        <ele>128.25</ele>
        <time>2019-08-01T16:16:04Z</time>
      </trkpt>
      <trkpt lat="44.24227" lon="4.22029">
        <ele>128.66</ele>
        <time>2019-08-01T16:16:07Z</time>
      </trkpt>
      <trkpt lat="44.24208" lon="4.22044">
        <ele>128.17</ele>
        <time>2019-08-01T16:16:11Z</time>
      </trkpt>
      <trkpt lat="44.24189" lon="4.22064">
        <ele>129.04</ele>
        <time>2019-08-01T16:16:15Z</time>
      </trkpt>
      <trkpt lat="44.24172" lon="4.22087">
        <ele>128.87</ele>
        <time>2019-08-01T16:16:19Z</time>
      </trkpt>
      <trkpt lat="44.24158" lon="4.22103">
        <ele>127.57</ele>
        <time>2019-08-01T16:16:22Z</time>
      </trkpt>
      <trkpt lat="44.2414" lon="4.22124">
        <ele>126.24</ele>
        <time>2019-08-01T16:16:26Z</time>
      </trkpt>
      <trkpt lat="44.24127" lon="4.22143">
        <ele>126.43</ele>
        <time>2019-08-01T16:16:29Z</time>
      </trkpt>
      <trkpt lat="44.2411" lon="4.22166">
        <ele>126.05</ele>
        <time>2019-08-01T16:16:33Z</time>
      </trkpt>
      <trkpt lat="44.24099" lon="4.22194">
        <ele>124.98</ele>
        <time>2019-08-01T16:16:37Z</time>
      </trkpt>
      <trkpt lat="44.24093" lon="4.22218">
        <ele>126.48</ele>
        <time>2019-08-01T16:16:40Z</time>
      </trkpt>
      <trkpt lat="44.24089" lon="4.22245">
        <ele>126.4</ele>
        <time>2019-08-01T16:16:43Z</time>
      </trkpt>
      <trkpt lat="44.24085" lon="4.22277">
        <ele>125.79</ele>
        <time>2019-08-01T16:16:47Z</time>
      </trkpt>
      <trkpt lat="44.24082" lon="4.22303">
        <ele>126.04</ele>
        <time>2019-08-01T16:16:50Z</time>
      </trkpt>
      <trkpt lat="44.24075" lon="4.22327">
        <ele>125.45</ele>
        <time>2019-08-01T16:16:53Z</time>
      </trkpt>
      <trkpt lat="44.24073" lon="4.22354">
        <ele>128.76</ele>
        <time>2019-08-01T16:16:56Z</time>
      </trkpt>
      <trkpt lat="44.24072" lon="4.22379">
        <ele>128.5</ele>
        <time>2019-08-01T16:16:59Z</time>
      </trkpt>
      <trkpt lat="44.24069" lon="4.22405">
        <ele>128.6</ele>
        <time>2019-08-01T16:17:02Z</time>
      </trkpt>
      <trkpt lat="44.24066" lon="4.22434">
        <ele>128.44</ele>
        <time>2019-08-01T16:17:05Z</time>
      </trkpt>
      <trkpt lat="44.24065" lon="4.22466">
        <ele>129.21</ele>
        <time>2019-08-01T16:17:09Z</time>
      </trkpt>
      <trkpt lat="44.24061" lon="4.22498">
        <ele>130.44</ele>
        <time>2019-08-01T16:17:13Z</time>
      </trkpt>
      <trkpt lat="44.24055" lon="4.22523">
        <ele>128.98</ele>
        <time>2019-08-01T16:17:16Z</time>
      </trkpt>
      <trkpt lat="44.24046" lon="4.22546">
        <ele>125.12</ele>
        <time>2019-08-01T16:17:19Z</time>
      </trkpt>
      <trkpt lat="44.24039" lon="4.22576">
        <ele>122.45</ele>
        <time>2019-08-01T16:17:23Z</time>
      </trkpt>
      <trkpt lat="44.24033" lon="4.226">
        <ele>122.01</ele>
        <time>2019-08-01T16:17:26Z</time>
      </trkpt>
      <trkpt lat="44.2403" lon="4.22631">
        <ele>124.53</ele>
        <time>2019-08-01T16:17:30Z</time>
      </trkpt>
      <trkpt lat="44.24025" lon="4.22663">
        <ele>126.53</ele>
        <time>2019-08-01T16:17:34Z</time>
      </trkpt>
      <trkpt lat="44.24019" lon="4.22686">
        <ele>127.34</ele>
        <time>2019-08-01T16:17:37Z</time>
      </trkpt>
      <trkpt lat="44.2401" lon="4.22717">
        <ele>126.89</ele>
        <time>2019-08-01T16:17:41Z</time>
      </trkpt>
      <trkpt lat="44.23999" lon="4.22738">
        <ele>125.73</ele>
        <time>2019-08-01T16:17:44Z</time>
      </trkpt>
      <trkpt lat="44.2399" lon="4.2276">
        <ele>124.7</ele>
        <time>2019-08-01T16:17:47Z</time>
      </trkpt>
      <trkpt lat="44.23977" lon="4.22789">
        <ele>126.38</ele>
        <time>2019-08-01T16:17:51Z</time>
      </trkpt>
      <trkpt lat="44.23965" lon="4.22817">
        <ele>126.48</ele>
        <time>2019-08-01T16:17:55Z</time>
      </trkpt>
      <trkpt lat="44.23955" lon="4.22846">
        <ele>129.22</ele>
        <time>2019-08-01T16:17:59Z</time>
      </trkpt>
      <trkpt lat="44.23945" lon="4.22874">
        <ele>127.78</ele>
        <time>2019-08-01T16:18:03Z</time>
      </trkpt>
      <trkpt lat="44.23934" lon="4.22896">
        <ele>127.96</ele>
        <time>2019-08-01T16:18:06Z</time>
      </trkpt>
      <trkpt lat="44.23924" lon="4.22924">
        <ele>130.75</ele>
        <time>2019-08-01T16:18:10Z</time>
      </trkpt>
      <trkpt lat="44.23916" lon="4.22947">
        <ele>130.82</ele>
        <time>2019-08-01T16:18:13Z</time>
      </trkpt>
      <trkpt lat="44.23906" lon="4.22969">
        <ele>130.92</ele>
        <time>2019-08-01T16:18:16Z</time>
      </trkpt>
      <trkpt lat="44.23896" lon="4.22991">
        <ele>132.26</ele>
        <time>2019-08-01T16:18:19Z</time>
      </trkpt>
      <trkpt lat="44.23884" lon="4.2301">
        <ele>132.15</ele>
        <time>2019-08-01T16:18:22Z</time>
      </trkpt>
      <trkpt lat="44.2387" lon="4.23027">
        <ele>130.46</ele>
        <time>2019-08-01T16:18:25Z</time>
      </trkpt>
      <trkpt lat="44.23851" lon="4.23045">
        <ele>130.73</ele>
        <time>2019-08-01T16:18:29Z</time>
      </trkpt>
      <trkpt lat="44.23834" lon="4.2306">
        <ele>129.15</ele>
        <time>2019-08-01T16:18:32Z</time>
      </trkpt>
      <trkpt lat="44.23815" lon="4.23081">
        <ele>127.35</ele>
        <time>2019-08-01T16:18:36Z</time>
      </trkpt>
      <trkpt lat="44.23803" lon="4.23109">
        <ele>127.33</ele>
        <time>2019-08-01T16:18:40Z</time>
      </trkpt>
      <trkpt lat="44.23798" lon="4.23133">
        <ele>126.31</ele>
        <time>2019-08-01T16:18:43Z</time>
      </trkpt>
      <trkpt lat="44.23795" lon="4.23159">
        <ele>125.58</ele>
        <time>2019-08-01T16:18:46Z</time>
      </trkpt>
      <trkpt lat="44.23796" lon="4.23188">
        <ele>123.99</ele>
        <time>2019-08-01T16:18:49Z</time>
      </trkpt>
      <trkpt lat="44.23799" lon="4.23214">
        <ele>125.19</ele>
        <time>2019-08-01T16:18:52Z</time>
      </trkpt>
      <trkpt lat="44.23796" lon="4.23242">
        <ele>124.69</ele>
        <time>2019-08-01T16:18:55Z</time>
      </trkpt>
      <trkpt lat="44.23788" lon="4.23272">
        <ele>125.1</ele>
        <time>2019-08-01T16:18:59Z</time>
      </trkpt>
      <trkpt lat="44.23779" lon="4.23296">
        <ele>124.87</ele>
        <time>2019-08-01T16:19:02Z</time>
      </trkpt>
      <trkpt lat="44.2377" lon="4.23319">
        <ele>125.63</ele>
        <time>2019-08-01T16:19:05Z</time>
      </trkpt>
      <trkpt lat="44.2376" lon="4.23343">
        <ele>125.62</ele>
        <time>2019-08-01T16:19:08Z</time>
      </trkpt>
      <trkpt lat="44.23748" lon="4.23374">
        <ele>126.53</ele>
        <time>2019-08-01T16:19:12Z</time>
      </trkpt>
      <trkpt lat="44.23742" lon="4.234">
        <ele>127.83</ele>
        <time>2019-08-01T16:19:15Z</time>
      </trkpt>
      <trkpt lat="44.2374" lon="4.23427">
        <ele>127.9</ele>
        <time>2019-08-01T16:19:18Z</time>
      </trkpt>
      <trkpt lat="44.23742" lon="4.23453">
        <ele>127.86</ele>
        <time>2019-08-01T16:19:21Z</time>
      </trkpt>
      <trkpt lat="44.23751" lon="4.23477">
        <ele>127.17</ele>
        <time>2019-08-01T16:19:24Z</time>
      </trkpt>
      <trkpt lat="44.23757" lon="4.23509">
        <ele>127.34</ele>
        <time>2019-08-01T16:19:28Z</time>
      </trkpt>
      <trkpt lat="44.23764" lon="4.23537">
        <ele>127.85</ele>
        <time>2019-08-01T16:19:31Z</time>
      </trkpt>
      <trkpt lat="44.2377" lon="4.23569">
        <ele>131.74</ele>
        <time>2019-08-01T16:19:35Z</time>
      </trkpt>
      <trkpt lat="44.23775" lon="4.23595">
        <ele>130.37</ele>
        <time>2019-08-01T16:19:38Z</time>
      </trkpt>
      <trkpt lat="44.23779" lon="4.2362">
        <ele>129.59</ele>
        <time>2019-08-01T16:19:41Z</time>
      </trkpt>
      <trkpt lat="44.23771" lon="4.23651">
        <ele>127.93</ele>
        <time>2019-08-01T16:19:45Z</time>
      </trkpt>
      <trkpt lat="44.23757" lon="4.23677">
        <ele>125.7</ele>
        <time>2019-08-01T16:19:49Z</time>
      </trkpt>
      <trkpt lat="44.23747" lon="4.23706">
        <ele>123.87</ele>
        <time>2019-08-01T16:19:53Z</time>
      </trkpt>
      <trkpt lat="44.23744" lon="4.23738">
        <ele>124.52</ele>
        <time>2019-08-01T16:19:57Z</time>
      </trkpt>
      <trkpt lat="44.23743" lon="4.23763">
        <ele>124.44</ele>
        <time>2019-08-01T16:20:00Z</time>
      </trkpt>
      <trkpt lat="44.23744" lon="4.23796">
        <ele>125.32</ele>
        <time>2019-08-01T16:20:04Z</time>
      </trkpt>
      <trkpt lat="44.23742" lon="4.23829">
        <ele>125.18</ele>
        <time>2019-08-01T16:20:08Z</time>
      </trkpt>
      <trkpt lat="44.23741" lon="4.23862">
        <ele>125.28</ele>
        <time>2019-08-01T16:20:12Z</time>
      </trkpt>
      <trkpt lat="44.2374" lon="4.23894">
        <ele>126.8</ele>
        <time>2019-08-01T16:20:16Z</time>
      </trkpt>
      <trkpt lat="44.23737" lon="4.23928">
        <ele>126.42</ele>
        <time>2019-08-01T16:20:20Z</time>
      </trkpt>
      <trkpt lat="44.23739" lon="4.23955">
        <ele>126.06</ele>
        <time>2019-08-01T16:20:23Z</time>
      </trkpt>
      <trkpt lat="44.23746" lon="4.23982">
        <ele>127.02</ele>
        <time>2019-08-01T16:20:26Z</time>
      </trkpt>
      <trkpt lat="44.23754" lon="4.24011">
        <ele>128.55</ele>
        <time>2019-08-01T16:20:30Z</time>
      </trkpt>
      <trkpt lat="44.23762" lon="4.24042">
        <ele>128.75</ele>
        <time>2019-08-01T16:20:34Z</time>
      </trkpt>
      <trkpt lat="44.23767" lon="4.24069">
        <ele>125.55</ele>
        <time>2019-08-01T16:20:37Z</time>
      </trkpt>
      <trkpt lat="44.23775" lon="4.24094">
        <ele>125.48</ele>
        <time>2019-08-01T16:20:40Z</time>
      </trkpt>
      <trkpt lat="44.23782" lon="4.24124">
        <ele>127.18</ele>
        <time>2019-08-01T16:20:44Z</time>
      </trkpt>
      <trkpt lat="44.23781" lon="4.24157">
        <ele>126.4</ele>
        <time>2019-08-01T16:20:48Z</time>
      </trkpt>
      <trkpt lat="44.23781" lon="4.24183">
        <ele>124.51</ele>
        <time>2019-08-01T16:20:51Z</time>
      </trkpt>
      <trkpt lat="44.23778" lon="4.24214">
        <ele>127.55</ele>
        <time>2019-08-01T16:20:55Z</time>
      </trkpt>
      <trkpt lat="44.23769" lon="4.24235">
        <ele>129.09</ele>
        <time>2019-08-01T16:20:58Z</time>
      </trkpt>
      <trkpt lat="44.23753" lon="4.24258">
        <ele>128.57</ele>
        <time>2019-08-01T16:21:02Z</time>
      </trkpt>
      <trkpt lat="44.23738" lon="4.24275">
        <ele>128.13</ele>
        <time>2019-08-01T16:21:05Z</time>
      </trkpt>
      <trkpt lat="44.23719" lon="4.24295">
        <ele>127.62</ele>
        <time>2019-08-01T16:21:09Z</time>
      </trkpt>
      <trkpt lat="44.23705" lon="4.2431">
        <ele>126.09</ele>
        <time>2019-08-01T16:21:12Z</time>
      </trkpt>
      <trkpt lat="44.23686" lon="4.24331">
        <ele>126.69</ele>
        <time>2019-08-01T16:21:16Z</time>
      </trkpt>
      <trkpt lat="44.23667" lon="4.24352">
        <ele>127.14</ele>
        <time>2019-08-01T16:21:20Z</time>
      </trkpt>
      <trkpt lat="44.23652" lon="4.24368">
        <ele>126.09</ele>
        <time>2019-08-01T16:21:23Z</time>
      </trkpt>
      <trkpt lat="44.23637" lon="4.24384">
        <ele>125.83</ele>
        <time>2019-08-01T16:21:26Z</time>
      </trkpt>
      <trkpt lat="44.23622" lon="4.24399">
        <ele>126.05</ele>
        <time>2019-08-01T16:21:29Z</time>
      </trkpt>
      <trkpt lat="44.23605" lon="4.24418">
        <ele>124.64</ele>
        <time>2019-08-01T16:21:33Z</time>
      </trkpt>
      <trkpt lat="44.23591" lon="4.24435">
        <ele>124.07</ele>
        <time>2019-08-01T16:21:36Z</time>
      </trkpt>
      <trkpt lat="44.23576" lon="4.24451">
        <ele>124.41</ele>
        <time>2019-08-01T16:21:39Z</time>
      </trkpt>
      <trkpt lat="44.23562" lon="4.24467">
        <ele>125.81</ele>
        <time>2019-08-01T16:21:42Z</time>
      </trkpt>
      <trkpt lat="44.23548" lon="4.24484">
        <ele>125.92</ele>
        <time>2019-08-01T16:21:45Z</time>
      </trkpt>
      <trkpt lat="44.2353" lon="4.24505">
        <ele>125.21</ele>
        <time>2019-08-01T16:21:49Z</time>
      </trkpt>
      <trkpt lat="44.23512" lon="4.24524">
        <ele>124.5</ele>
        <time>2019-08-01T16:21:53Z</time>
      </trkpt>
      <trkpt lat="44.23497" lon="4.2454">
        <ele>125.54</ele>
        <time>2019-08-01T16:21:56Z</time>
      </trkpt>
      <trkpt lat="44.23483" lon="4.24556">
        <ele>126.7</ele>
        <time>2019-08-01T16:21:59Z</time>
      </trkpt>
      <trkpt lat="44.23469" lon="4.24574">
        <ele>126.48</ele>
        <time>2019-08-01T16:22:02Z</time>
      </trkpt>
      <trkpt lat="44.23456" lon="4.24599">
        <ele>126.35</ele>
        <time>2019-08-01T16:22:06Z</time>
      </trkpt>
      <trkpt lat="44.23447" lon="4.24625">
        <ele>126.47</ele>
        <time>2019-08-01T16:22:09Z</time>
      </trkpt>
      <trkpt lat="44.23437" lon="4.24648">
        <ele>125.86</ele>
        <time>2019-08-01T16:22:12Z</time>
      </trkpt>
      <trkpt lat="44.23426" lon="4.24677">
        <ele>125.69</ele>
        <time>2019-08-01T16:22:16Z</time>
      </trkpt>
      <trkpt lat="44.23417" lon="4.24704">
        <ele>127.14</ele>
        <time>2019-08-01T16:22:20Z</time>
      </trkpt>
      <trkpt lat="44.23406" lon="4.24732">
        <ele>126.95</ele>
        <time>2019-08-01T16:22:24Z</time>
      </trkpt>
      <trkpt lat="44.234" lon="4.24756">
        <ele>127.28</ele>
        <time>2019-08-01T16:22:27Z</time>
      </trkpt>
      <trkpt lat="44.23393" lon="4.24787">
        <ele>128.57</ele>
        <time>2019-08-01T16:22:31Z</time>
      </trkpt>
      <trkpt lat="44.2339" lon="4.24814">
        <ele>128.34</ele>
        <time>2019-08-01T16:22:34Z</time>
      </trkpt>
      <trkpt lat="44.2339" lon="4.2484">
        <ele>127.7</ele>
        <time>2019-08-01T16:22:37Z</time>
      </trkpt>
      <trkpt lat="44.23392" lon="4.24865">
        <ele>128.24</ele>
        <time>2019-08-01T16:22:40Z</time>
      </trkpt>
      <trkpt lat="44.23398" lon="4.24897">
        <ele>127.28</ele>
        <time>2019-08-01T16:22:44Z</time>
      </trkpt>
      <trkpt lat="44.23404" lon="4.24926">
        <ele>127.92</ele>
        <time>2019-08-01T16:22:48Z</time>
      </trkpt>
      <trkpt lat="44.23411" lon="4.24954">
        <ele>128.07</ele>
        <time>2019-08-01T16:22:52Z</time>
      </trkpt>
      <trkpt lat="44.23417" lon="4.24985">
        <ele>128.87</ele>
        <time>2019-08-01T16:22:56Z</time>
      </trkpt>
      <trkpt lat="44.23423" lon="4.25016">
        <ele>128.64</ele>
        <time>2019-08-01T16:23:00Z</time>
      </trkpt>
      <trkpt lat="44.23428" lon="4.25042">
        <ele>127.62</ele>
        <time>2019-08-01T16:23:03Z</time>
      </trkpt>
      <trkpt lat="44.23435" lon="4.25069">
        <ele>129.64</ele>
        <time>2019-08-01T16:23:06Z</time>
      </trkpt>
      <trkpt lat="44.23437" lon="4.25094">
        <ele>128.41</ele>
        <time>2019-08-01T16:23:09Z</time>
      </trkpt>
      <trkpt lat="44.23441" lon="4.25127">
        <ele>130.34</ele>
        <time>2019-08-01T16:23:13Z</time>
      </trkpt>
      <trkpt lat="44.23441" lon="4.25161">
        <ele>130</ele>
        <time>2019-08-01T16:23:17Z</time>
      </trkpt>
      <trkpt lat="44.2344" lon="4.25192">
        <ele>130.51</ele>
        <time>2019-08-01T16:23:21Z</time>
      </trkpt>
      <trkpt lat="44.23439" lon="4.25221">
        <ele>128.01</ele>
        <time>2019-08-01T16:23:24Z</time>
      </trkpt>
      <trkpt lat="44.23442" lon="4.25247">
        <ele>128.32</ele>
        <time>2019-08-01T16:23:27Z</time>
      </trkpt>
      <trkpt lat="44.23439" lon="4.25279">
        <ele>126.09</ele>
        <time>2019-08-01T16:23:31Z</time>
      </trkpt>
      <trkpt lat="44.23443" lon="4.25306">
        <ele>125.57</ele>
        <time>2019-08-01T16:23:34Z</time>
      </trkpt>
      <trkpt lat="44.23443" lon="4.25338">
        <ele>123.61</ele>
        <time>2019-08-01T16:23:38Z</time>
      </trkpt>
      <trkpt lat="44.23448" lon="4.25364">
        <ele>124.43</ele>
        <time>2019-08-01T16:23:41Z</time>
      </trkpt>
      <trkpt lat="44.23444" lon="4.25397">
        <ele>125.13</ele>
        <time>2019-08-01T16:23:45Z</time>
      </trkpt>
      <trkpt lat="44.23447" lon="4.25424">
        <ele>126.44</ele>
        <time>2019-08-01T16:23:48Z</time>
      </trkpt>
      <trkpt lat="44.23446" lon="4.25451">
        <ele>125.01</ele>
        <time>2019-08-01T16:23:51Z</time>
      </trkpt>
      <trkpt lat="44.23446" lon="4.25483">
        <ele>126.41</ele>
        <time>2019-08-01T16:23:55Z</time>
      </trkpt>
      <trkpt lat="44.23442" lon="4.25515">
        <ele>128.72</ele>
        <time>2019-08-01T16:23:59Z</time>
      </trkpt>
      <trkpt lat="44.23436" lon="4.25545">
        <ele>125.98</ele>
        <time>2019-08-01T16:24:03Z</time>
      </trkpt>
      <trkpt lat="44.23428" lon="4.25576">
        <ele>125.67</ele>
        <time>2019-08-01T16:24:07Z</time>
      </trkpt>
      <trkpt lat="44.23421" lon="4.25599">
        <ele>124.64</ele>
        <time>2019-08-01T16:24:10Z</time>
      </trkpt>
      <trkpt lat="44.23415" lon="4.2563">
        <ele>121.18</ele>
        <time>2019-08-01T16:24:14Z</time>
      </trkpt>
      <trkpt lat="44.23409" lon="4.2566">
        <ele>120.41</ele>
        <time>2019-08-01T16:24:18Z</time>
      </trkpt>
      <trkpt lat="44.23407" lon="4.25692">
        <ele>120.21</ele>
        <time>2019-08-01T16:24:22Z</time>
      </trkpt>
      <trkpt lat="44.2341" lon="4.25718">
        <ele>120.29</ele>
        <time>2019-08-01T16:24:25Z</time>
      </trkpt>
      <trkpt lat="44.23416" lon="4.25743">
        <ele>120.96</ele>
        <time>2019-08-01T16:24:28Z</time>
      </trkpt>
      <trkpt lat="44.23427" lon="4.25774">
        <ele>119.48</ele>
        <time>2019-08-01T16:24:32Z</time>
      </trkpt>
      <trkpt lat="44.23436" lon="4.25799">
        <ele>119.57</ele>
        <time>2019-08-01T16:24:35Z</time>
      </trkpt>
      <trkpt lat="44.23443" lon="4.25825">
        <ele>117.84</ele>
        <time>2019-08-01T16:24:38Z</time>
      </trkpt>
      <trkpt lat="44.23453" lon="4.25851">
        <ele>116.7</ele>
        <time>2019-08-01T16:24:41Z</time>
      </trkpt>
      <trkpt lat="44.23459" lon="4.25875">
        <ele>116.32</ele>
        <time>2019-08-01T16:24:44Z</time>
      </trkpt>
      <trkpt lat="44.23466" lon="4.25899">
        <ele>116.29</ele>
        <time>2019-08-01T16:24:47Z</time>
      </trkpt>
      <trkpt lat="44.23476" lon="4.25929">
        <ele>117.68</ele>
        <time>2019-08-01T16:24:51Z</time>
      </trkpt>
      <trkpt lat="44.23481" lon="4.25953">
        <ele>115.09</ele>
        <time>2019-08-01T16:24:54Z</time>
      </trkpt>
      <trkpt lat="44.23491" lon="4.25977">
        <ele>113.18</ele>
        <time>2019-08-01T16:24:57Z</time>
      </trkpt>
      <trkpt lat="44.23501" lon="4.26001">
        <ele>114.18</ele>
        <time>2019-08-01T16:25:00Z</time>
      </trkpt>
      <trkpt lat="44.23506" lon="4.26026">
        <ele>113.49</ele>
        <time>2019-08-01T16:25:03Z</time>
      </trkpt>
      <trkpt lat="44.23514" lon="4.26051">
        <ele>113.77</ele>
        <time>2019-08-01T16:25:06Z</time>
      </trkpt>
      <trkpt lat="44.23521" lon="4.26076">
        <ele>113.23</ele>
        <time>2019-08-01T16:25:09Z</time>
      </trkpt>
      <trkpt lat="44.23527" lon="4.26108">
        <ele>114.86</ele>
        <time>2019-08-01T16:25:13Z</time>
      </trkpt>
      <trkpt lat="44.23531" lon="4.26133">
        <ele>116.28</ele>
        <time>2019-08-01T16:25:16Z</time>
      </trkpt>
      <trkpt lat="44.23538" lon="4.26157">
        <ele>115.68</ele>
        <time>2019-08-01T16:25:19Z</time>
      </trkpt>
      <trkpt lat="44.23546" lon="4.26183">
        <ele>115.3</ele>
        <time>2019-08-01T16:25:22Z</time>
      </trkpt>
      <trkpt lat="44.23551" lon="4.26215">
        <ele>115.38</ele>
        <time>2019-08-01T16:25:26Z</time>
      </trkpt>
      <trkpt lat="44.23555" lon="4.26246">
        <ele>114.54</ele>
        <time>2019-08-01T16:25:30Z</time>
      </trkpt>
      <trkpt lat="44.23564" lon="4.26277">
        <ele>116.28</ele>
        <time>2019-08-01T16:25:34Z</time>
      </trkpt>
      <trkpt lat="44.23571" lon="4.26301">
        <ele>117.88</ele>
        <time>2019-08-01T16:25:37Z</time>
      </trkpt>
      <trkpt lat="44.23574" lon="4.26326">
        <ele>118.64</ele>
        <time>2019-08-01T16:25:40Z</time>
      </trkpt>
      <trkpt lat="44.23576" lon="4.26358">
        <ele>119.12</ele>
        <time>2019-08-01T16:25:44Z</time>
      </trkpt>
      <trkpt lat="44.23579" lon="4.26389">
        <ele>119.53</ele>
        <time>2019-08-01T16:25:48Z</time>
      </trkpt>
      <trkpt lat="44.23583" lon="4.2642">
        <ele>119.92</ele>
        <time>2019-08-01T16:25:52Z</time>
      </trkpt>
      <trkpt lat="44.23586" lon="4.2645">
        <ele>119.26</ele>
        <time>2019-08-01T16:25:56Z</time>
      </trkpt>
      <trkpt lat="44.23599" lon="4.26476">
        <ele>119.44</ele>
        <time>2019-08-01T16:26:00Z</time>
      </trkpt>
      <trkpt lat="44.23613" lon="4.26495">
        <ele>119.79</ele>
        <time>2019-08-01T16:26:03Z</time>
      </trkpt>
      <trkpt lat="44.23632" lon="4.26517">
        <ele>120.68</ele>
        <time>2019-08-01T16:26:07Z</time>
      </trkpt>
      <trkpt lat="44.23643" lon="4.26537">
        <ele>121.11</ele>
        <time>2019-08-01T16:26:10Z</time>
      </trkpt>
      <trkpt lat="44.23658" lon="4.26567">
        <ele>120.03</ele>
        <time>2019-08-01T16:26:14Z</time>
      </trkpt>
      <trkpt lat="44.23667" lon="4.2659">
        <ele>118.15</ele>
        <time>2019-08-01T16:26:17Z</time>
      </trkpt>
      <trkpt lat="44.23674" lon="4.26619">
        <ele>115.72</ele>
        <time>2019-08-01T16:26:21Z</time>
      </trkpt>
      <trkpt lat="44.23686" lon="4.26643">
        <ele>116.92</ele>
        <time>2019-08-01T16:26:24Z</time>
      </trkpt>
      <trkpt lat="44.23693" lon="4.26671">
        <ele>117.06</ele>
        <time>2019-08-01T16:26:28Z</time>
      </trkpt>
      <trkpt lat="44.23702" lon="4.26695">
        <ele>118.22</ele>
        <time>2019-08-01T16:26:31Z</time>
      </trkpt>
      <trkpt lat="44.23707" lon="4.26719">
        <ele>117.58</ele>
        <time>2019-08-01T16:26:34Z</time>
      </trkpt>
      <trkpt lat="44.23718" lon="4.26748">
        <ele>118.29</ele>
        <time>2019-08-01T16:26:38Z</time>
      </trkpt>
      <trkpt lat="44.23723" lon="4.26775">
        <ele>117</ele>
        <time>2019-08-01T16:26:42Z</time>
      </trkpt>
      <trkpt lat="44.23733" lon="4.26804">
        <ele>117.59</ele>
        <time>2019-08-01T16:26:46Z</time>
      </trkpt>
      <trkpt lat="44.23739" lon="4.26834">
        <ele>117.01</ele>
        <time>2019-08-01T16:26:50Z</time>
      </trkpt>
      <trkpt lat="44.23746" lon="4.26861">
        <ele>117.4</ele>
        <time>2019-08-01T16:26:53Z</time>
      </trkpt>
      <trkpt lat="44.23757" lon="4.26883">
        <ele>119.19</ele>
        <time>2019-08-01T16:26:56Z</time>
      </trkpt>
      <trkpt lat="44.23762" lon="4.26908">
        <ele>119.01</ele>
        <time>2019-08-01T16:26:59Z</time>
      </trkpt>
      <trkpt lat="44.23769" lon="4.26939">
        <ele>117.25</ele>
        <time>2019-08-01T16:27:03Z</time>
      </trkpt>
      <trkpt lat="44.23777" lon="4.26969">
        <ele>116.81</ele>
        <time>2019-08-01T16:27:07Z</time>
      </trkpt>
      <trkpt lat="44.23782" lon="4.27002">
        <ele>114.3</ele>
        <time>2019-08-01T16:27:11Z</time>
      </trkpt>
      <trkpt lat="44.23789" lon="4.27029">
        <ele>113.36</ele>
        <time>2019-08-01T16:27:14Z</time>
      </trkpt>
      <trkpt lat="44.23796" lon="4.27059">
        <ele>114.14</ele>
        <time>2019-08-01T16:27:18Z</time>
      </trkpt>
      <trkpt lat="44.23801" lon="4.27084">
        <ele>114.43</ele>
        <time>2019-08-01T16:27:21Z</time>
      </trkpt>
      <trkpt lat="44.23806" lon="4.2711">
        <ele>116.93</ele>
        <time>2019-08-01T16:27:25Z</time>
      </trkpt>
      <trkpt lat="44.23811" lon="4.27138">
        <ele>117.33</ele>
        <time>2019-08-01T16:27:29Z</time>
      </trkpt>
      <trkpt lat="44.23815" lon="4.27169">
        <ele>115.47</ele>
        <time>2019-08-01T16:27:33Z</time>
      </trkpt>
      <trkpt lat="44.23819" lon="4.27195">
        <ele>114.19</ele>
        <time>2019-08-01T16:27:36Z</time>
      </trkpt>
      <trkpt lat="44.23821" lon="4.2722">
        <ele>113.1</ele>
        <time>2019-08-01T16:27:39Z</time>
      </trkpt>
      <trkpt lat="44.23826" lon="4.27245">
        <ele>112.91</ele>
        <time>2019-08-01T16:27:42Z</time>
      </trkpt>
      <trkpt lat="44.23832" lon="4.27269">
        <ele>113.89</ele>
        <time>2019-08-01T16:27:45Z</time>
      </trkpt>
      <trkpt lat="44.23839" lon="4.27299">
        <ele>116.46</ele>
        <time>2019-08-01T16:27:49Z</time>
      </trkpt>
      <trkpt lat="44.23845" lon="4.27325">
        <ele>117.84</ele>
        <time>2019-08-01T16:27:52Z</time>
      </trkpt>
      <trkpt lat="44.23852" lon="4.2735">
        <ele>117.68</ele>
        <time>2019-08-01T16:27:55Z</time>
      </trkpt>
      <trkpt lat="44.23858" lon="4.27381">
        <ele>117.54</ele>
        <time>2019-08-01T16:27:59Z</time>
      </trkpt>
      <trkpt lat="44.23864" lon="4.27412">
        <ele>118.53</ele>
        <time>2019-08-01T16:28:03Z</time>
      </trkpt>
      <trkpt lat="44.23871" lon="4.27443">
        <ele>116.47</ele>
        <time>2019-08-01T16:28:07Z</time>
      </trkpt>
      <trkpt lat="44.2388" lon="4.27465">
        <ele>118.29</ele>
        <time>2019-08-01T16:28:10Z</time>
      </trkpt>
      <trkpt lat="44.23894" lon="4.27495">
        <ele>118.71</ele>
        <time>2019-08-01T16:28:14Z</time>
      </trkpt>
      <trkpt lat="44.23909" lon="4.2752">
        <ele>119.02</ele>
        <time>2019-08-01T16:28:18Z</time>
      </trkpt>
      <trkpt lat="44.23929" lon="4.27546">
        <ele>118.97</ele>
        <time>2019-08-01T16:28:22Z</time>
      </trkpt>
      <trkpt lat="44.23943" lon="4.27564">
        <ele>120.06</ele>
        <time>2019-08-01T16:28:25Z</time>
      </trkpt>
      <trkpt lat="44.23958" lon="4.27591">
        <ele>116.84</ele>
        <time>2019-08-01T16:28:29Z</time>
      </trkpt>
      <trkpt lat="44.23974" lon="4.27615">
        <ele>115.84</ele>
        <time>2019-08-01T16:28:33Z</time>
      </trkpt>
      <trkpt lat="44.23988" lon="4.27637">
        <ele>115.83</ele>
        <time>2019-08-01T16:28:37Z</time>
      </trkpt>
      <trkpt lat="44.24004" lon="4.2766">
        <ele>116.18</ele>
        <time>2019-08-01T16:28:41Z</time>
      </trkpt>
      <trkpt lat="44.24014" lon="4.27686">
        <ele>113.15</ele>
        <time>2019-08-01T16:28:45Z</time>
      </trkpt>
      <trkpt lat="44.24025" lon="4.27707">
        <ele>115.71</ele>
        <time>2019-08-01T16:28:48Z</time>
      </trkpt>
      <trkpt lat="44.24039" lon="4.27728">
        <ele>113.72</ele>
        <time>2019-08-01T16:28:51Z</time>
      </trkpt>
      <trkpt lat="44.24051" lon="4.27753">
        <ele>111.24</ele>
        <time>2019-08-01T16:28:55Z</time>
      </trkpt>
      <trkpt lat="44.24063" lon="4.27773">
        <ele>111.37</ele>
        <time>2019-08-01T16:28:58Z</time>
      </trkpt>
      <trkpt lat="44.24077" lon="4.27793">
        <ele>111.14</ele>
        <time>2019-08-01T16:29:01Z</time>
      </trkpt>
      <trkpt lat="44.2409" lon="4.27813">
        <ele>110.97</ele>
        <time>2019-08-01T16:29:04Z</time>
      </trkpt>
      <trkpt lat="44.24106" lon="4.27828">
        <ele>111.26</ele>
        <time>2019-08-01T16:29:07Z</time>
      </trkpt>
      <trkpt lat="44.2412" lon="4.27843">
        <ele>110.99</ele>
        <time>2019-08-01T16:29:10Z</time>
      </trkpt>
      <trkpt lat="44.24144" lon="4.27859">
        <ele>113.24</ele>
        <time>2019-08-01T16:29:14Z</time>
      </trkpt>
      <trkpt lat="44.24162" lon="4.27875">
        <ele>112.81</ele>
        <time>2019-08-01T16:29:18Z</time>
      </trkpt>
      <trkpt lat="44.24177" lon="4.27891">
        <ele>112.42</ele>
        <time>2019-08-01T16:29:21Z</time>
      </trkpt>
      <trkpt lat="44.24192" lon="4.27908">
        <ele>113.5</ele>
        <time>2019-08-01T16:29:24Z</time>
      </trkpt>
      <trkpt lat="44.24208" lon="4.27932">
        <ele>114.92</ele>
        <time>2019-08-01T16:29:28Z</time>
      </trkpt>
      <trkpt lat="44.24223" lon="4.27954">
        <ele>117.34</ele>
        <time>2019-08-01T16:29:32Z</time>
      </trkpt>
      <trkpt lat="44.24238" lon="4.27979">
        <ele>118.85</ele>
        <time>2019-08-01T16:29:36Z</time>
      </trkpt>
      <trkpt lat="44.24252" lon="4.28001">
        <ele>118.91</ele>
        <time>2019-08-01T16:29:40Z</time>
      </trkpt>
      <trkpt lat="44.24264" lon="4.28023">
        <ele>116.4</ele>
        <time>2019-08-01T16:29:44Z</time>
      </trkpt>
      <trkpt lat="44.24278" lon="4.28042">
        <ele>117.08</ele>
        <time>2019-08-01T16:29:47Z</time>
      </trkpt>
      <trkpt lat="44.24295" lon="4.28063">
        <ele>118.81</ele>
        <time>2019-08-01T16:29:50Z</time>
      </trkpt>
      <trkpt lat="44.24305" lon="4.28084">
        <ele>119.08</ele>
        <time>2019-08-01T16:29:53Z</time>
      </trkpt>
      <trkpt lat="44.24319" lon="4.28104">
        <ele>119.13</ele>
        <time>2019-08-01T16:29:57Z</time>
      </trkpt>
      <trkpt lat="44.24332" lon="4.28123">
        <ele>120.54</ele>
        <time>2019-08-01T16:30:00Z</time>
      </trkpt>
      <trkpt lat="44.24346" lon="4.28145">
        <ele>122.31</ele>
        <time>2019-08-01T16:30:04Z</time>
      </trkpt>
      <trkpt lat="44.2436" lon="4.28166">
        <ele>121.08</ele>
        <time>2019-08-01T16:30:08Z</time>
      </trkpt>
      <trkpt lat="44.24375" lon="4.2819">
        <ele>120.86</ele>
        <time>2019-08-01T16:30:12Z</time>
      </trkpt>
      <trkpt lat="44.2439" lon="4.28213">
        <ele>121.05</ele>
        <time>2019-08-01T16:30:16Z</time>
      </trkpt>
      <trkpt lat="44.24402" lon="4.28237">
        <ele>118.32</ele>
        <time>2019-08-01T16:30:19Z</time>
      </trkpt>
      <trkpt lat="44.24413" lon="4.28265">
        <ele>115.82</ele>
        <time>2019-08-01T16:30:23Z</time>
      </trkpt>
      <trkpt lat="44.24424" lon="4.28288">
        <ele>115.23</ele>
        <time>2019-08-01T16:30:26Z</time>
      </trkpt>
      <trkpt lat="44.24435" lon="4.2831">
        <ele>115.37</ele>
        <time>2019-08-01T16:30:29Z</time>
      </trkpt>
      <trkpt lat="44.24445" lon="4.28333">
        <ele>114.57</ele>
        <time>2019-08-01T16:30:32Z</time>
      </trkpt>
      <trkpt lat="44.24456" lon="4.28358">
        <ele>113.77</ele>
        <time>2019-08-01T16:30:35Z</time>
      </trkpt>
      <trkpt lat="44.24467" lon="4.2838">
        <ele>114.09</ele>
        <time>2019-08-01T16:30:38Z</time>
      </trkpt>
      <trkpt lat="44.24481" lon="4.28399">
        <ele>115.59</ele>
        <time>2019-08-01T16:30:41Z</time>
      </trkpt>
      <trkpt lat="44.24495" lon="4.2842">
        <ele>115.17</ele>
        <time>2019-08-01T16:30:45Z</time>
      </trkpt>
      <trkpt lat="44.24511" lon="4.28434">
        <ele>115.93</ele>
        <time>2019-08-01T16:30:48Z</time>
      </trkpt>
      <trkpt lat="44.24528" lon="4.28452">
        <ele>114.99</ele>
        <time>2019-08-01T16:30:51Z</time>
      </trkpt>
      <trkpt lat="44.24544" lon="4.28468">
        <ele>114.68</ele>
        <time>2019-08-01T16:30:54Z</time>
      </trkpt>
      <trkpt lat="44.24558" lon="4.28484">
        <ele>113.37</ele>
        <time>2019-08-01T16:30:57Z</time>
      </trkpt>
      <trkpt lat="44.24572" lon="4.28501">
        <ele>111.93</ele>
        <time>2019-08-01T16:31:00Z</time>
      </trkpt>
      <trkpt lat="44.2459" lon="4.28517">
        <ele>111.96</ele>
        <time>2019-08-01T16:31:03Z</time>
      </trkpt>
      <trkpt lat="44.24605" lon="4.28531">
        <ele>111.91</ele>
        <time>2019-08-01T16:31:06Z</time>
      </trkpt>
      <trkpt lat="44.24621" lon="4.28547">
        <ele>112.45</ele>
        <time>2019-08-01T16:31:09Z</time>
      </trkpt>
      <trkpt lat="44.24636" lon="4.28562">
        <ele>111.14</ele>
        <time>2019-08-01T16:31:12Z</time>
      </trkpt>
      <trkpt lat="44.24653" lon="4.28577">
        <ele>111.47</ele>
        <time>2019-08-01T16:31:15Z</time>
      </trkpt>
      <trkpt lat="44.2467" lon="4.28592">
        <ele>111.46</ele>
        <time>2019-08-01T16:31:18Z</time>
      </trkpt>
      <trkpt lat="44.24683" lon="4.28613">
        <ele>111.3</ele>
        <time>2019-08-01T16:31:21Z</time>
      </trkpt>
      <trkpt lat="44.24703" lon="4.28627">
        <ele>111.92</ele>
        <time>2019-08-01T16:31:25Z</time>
      </trkpt>
      <trkpt lat="44.24723" lon="4.28643">
        <ele>112.9</ele>
        <time>2019-08-01T16:31:29Z</time>
      </trkpt>
      <trkpt lat="44.24741" lon="4.28661">
        <ele>113.78</ele>
        <time>2019-08-01T16:31:33Z</time>
      </trkpt>
      <trkpt lat="44.24757" lon="4.28676">
        <ele>114.53</ele>
        <time>2019-08-01T16:31:36Z</time>
      </trkpt>
      <trkpt lat="44.24776" lon="4.28697">
        <ele>115.15</ele>
        <time>2019-08-01T16:31:40Z</time>
      </trkpt>
      <trkpt lat="44.24796" lon="4.28712">
        <ele>116.79</ele>
        <time>2019-08-01T16:31:44Z</time>
      </trkpt>
      <trkpt lat="44.24813" lon="4.28727">
        <ele>115.57</ele>
        <time>2019-08-01T16:31:47Z</time>
      </trkpt>
      <trkpt lat="44.24829" lon="4.2874">
        <ele>115.49</ele>
        <time>2019-08-01T16:31:50Z</time>
      </trkpt>
      <trkpt lat="44.24848" lon="4.28753">
        <ele>116.69</ele>
        <time>2019-08-01T16:31:54Z</time>
      </trkpt>
      <trkpt lat="44.24866" lon="4.2877">
        <ele>114.33</ele>
        <time>2019-08-01T16:31:58Z</time>
      </trkpt>
      <trkpt lat="44.24888" lon="4.28783">
        <ele>114.5</ele>
        <time>2019-08-01T16:32:02Z</time>
      </trkpt>
      <trkpt lat="44.24904" lon="4.28797">
        <ele>113.39</ele>
        <time>2019-08-01T16:32:05Z</time>
      </trkpt>
      <trkpt lat="44.24923" lon="4.28811">
        <ele>113.88</ele>
        <time>2019-08-01T16:32:09Z</time>
      </trkpt>
      <trkpt lat="44.2494" lon="4.28827">
        <ele>112.95</ele>
        <time>2019-08-01T16:32:12Z</time>
      </trkpt>
      <trkpt lat="44.24955" lon="4.28843">
        <ele>112.01</ele>
        <time>2019-08-01T16:32:15Z</time>
      </trkpt>
      <trkpt lat="44.24974" lon="4.28857">
        <ele>112.43</ele>
        <time>2019-08-01T16:32:19Z</time>
      </trkpt>
      <trkpt lat="44.24993" lon="4.28868">
        <ele>112.33</ele>
        <time>2019-08-01T16:32:22Z</time>
      </trkpt>
      <trkpt lat="44.25012" lon="4.28884">
        <ele>112.82</ele>
        <time>2019-08-01T16:32:26Z</time>
      </trkpt>
      <trkpt lat="44.25029" lon="4.289">
        <ele>112.36</ele>
        <time>2019-08-01T16:32:29Z</time>
      </trkpt>
      <trkpt lat="44.25048" lon="4.28908">
        <ele>112.84</ele>
        <time>2019-08-01T16:32:33Z</time>
      </trkpt>
      <trkpt lat="44.25066" lon="4.28926">
        <ele>111.94</ele>
        <time>2019-08-01T16:32:37Z</time>
      </trkpt>
      <trkpt lat="44.25085" lon="4.28941">
        <ele>109.22</ele>
        <time>2019-08-01T16:32:41Z</time>
      </trkpt>
      <trkpt lat="44.25101" lon="4.28952">
        <ele>109.42</ele>
        <time>2019-08-01T16:32:44Z</time>
      </trkpt>
      <trkpt lat="44.25119" lon="4.28964">
        <ele>111.88</ele>
        <time>2019-08-01T16:32:47Z</time>
      </trkpt>
      <trkpt lat="44.25135" lon="4.28975">
        <ele>113.13</ele>
        <time>2019-08-01T16:32:50Z</time>
      </trkpt>
      <trkpt lat="44.25151" lon="4.28986">
        <ele>112.23</ele>
        <time>2019-08-01T16:32:53Z</time>
      </trkpt>
      <trkpt lat="44.25167" lon="4.29003">
        <ele>112.17</ele>
        <time>2019-08-01T16:32:56Z</time>
      </trkpt>
      <trkpt lat="44.25184" lon="4.29016">
        <ele>113.38</ele>
        <time>2019-08-01T16:32:59Z</time>
      </trkpt>
      <trkpt lat="44.252" lon="4.29031">
        <ele>113.31</ele>
        <time>2019-08-01T16:33:02Z</time>
      </trkpt>
      <trkpt lat="44.25218" lon="4.29047">
        <ele>114.85</ele>
        <time>2019-08-01T16:33:06Z</time>
      </trkpt>
      <trkpt lat="44.25235" lon="4.29057">
        <ele>115.42</ele>
        <time>2019-08-01T16:33:09Z</time>
      </trkpt>
      <trkpt lat="44.25256" lon="4.29072">
        <ele>117.22</ele>
        <time>2019-08-01T16:33:13Z</time>
      </trkpt>
      <trkpt lat="44.25272" lon="4.29086">
        <ele>119.72</ele>
        <time>2019-08-01T16:33:16Z</time>
      </trkpt>
      <trkpt lat="44.25294" lon="4.29097">
        <ele>120.34</ele>
        <time>2019-08-01T16:33:20Z</time>
      </trkpt>
      <trkpt lat="44.2531" lon="4.29109">
        <ele>119.04</ele>
        <time>2019-08-01T16:33:23Z</time>
      </trkpt>
      <trkpt lat="44.25332" lon="4.29124">
        <ele>118.6</ele>
        <time>2019-08-01T16:33:27Z</time>
      </trkpt>
      <trkpt lat="44.25353" lon="4.29127">
        <ele>119.09</ele>
        <time>2019-08-01T16:33:31Z</time>
      </trkpt>
      <trkpt lat="44.25371" lon="4.29134">
        <ele>119.82</ele>
        <time>2019-08-01T16:33:34Z</time>
      </trkpt>
      <trkpt lat="44.25388" lon="4.29142">
        <ele>119.22</ele>
        <time>2019-08-01T16:33:37Z</time>
      </trkpt>
      <trkpt lat="44.25411" lon="4.29149">
        <ele>118.48</ele>
        <time>2019-08-01T16:33:41Z</time>
      </trkpt>
      <trkpt lat="44.25432" lon="4.29152">
        <ele>117.81</ele>
        <time>2019-08-01T16:33:45Z</time>
      </trkpt>
      <trkpt lat="44.25451" lon="4.29162">
        <ele>118.25</ele>
        <time>2019-08-01T16:33:48Z</time>
      </trkpt>
      <trkpt lat="44.25472" lon="4.29167">
        <ele>118.82</ele>
        <time>2019-08-01T16:33:52Z</time>
      </trkpt>
      <trkpt lat="44.25492" lon="4.29168">
        <ele>122.25</ele>
        <time>2019-08-01T16:33:55Z</time>
      </trkpt>
      <trkpt lat="44.25512" lon="4.2917">
        <ele>122.36</ele>
        <time>2019-08-01T16:33:59Z</time>
      </trkpt>
      <trkpt lat="44.25531" lon="4.29171">
        <ele>120.35</ele>
        <time>2019-08-01T16:34:02Z</time>
      </trkpt>
      <trkpt lat="44.25549" lon="4.29175">
        <ele>120.17</ele>
        <time>2019-08-01T16:34:05Z</time>
      </trkpt>
      <trkpt lat="44.25569" lon="4.29176">
        <ele>121.98</ele>
        <time>2019-08-01T16:34:09Z</time>
      </trkpt>
      <trkpt lat="44.25587" lon="4.29186">
        <ele>119.41</ele>
        <time>2019-08-01T16:34:12Z</time>
      </trkpt>
      <trkpt lat="44.25607" lon="4.29197">
        <ele>118.13</ele>
        <time>2019-08-01T16:34:15Z</time>
      </trkpt>
      <trkpt lat="44.25628" lon="4.29199">
        <ele>120.19</ele>
        <time>2019-08-01T16:34:19Z</time>
      </trkpt>
      <trkpt lat="44.25649" lon="4.29201">
        <ele>122.67</ele>
        <time>2019-08-01T16:34:23Z</time>
      </trkpt>
      <trkpt lat="44.25668" lon="4.29203">
        <ele>123.69</ele>
        <time>2019-08-01T16:34:26Z</time>
      </trkpt>
      <trkpt lat="44.25689" lon="4.29205">
        <ele>125.09</ele>
        <time>2019-08-01T16:34:30Z</time>
      </trkpt>
      <trkpt lat="44.25713" lon="4.29213">
        <ele>125.65</ele>
        <time>2019-08-01T16:34:34Z</time>
      </trkpt>
      <trkpt lat="44.25733" lon="4.29229">
        <ele>123.81</ele>
        <time>2019-08-01T16:34:38Z</time>
      </trkpt>
      <trkpt lat="44.2575" lon="4.29252">
        <ele>123.25</ele>
        <time>2019-08-01T16:34:41Z</time>
      </trkpt>
      <trkpt lat="44.25764" lon="4.29276">
        <ele>126.14</ele>
        <time>2019-08-01T16:34:45Z</time>
      </trkpt>
      <trkpt lat="44.25773" lon="4.29304">
        <ele>125</ele>
        <time>2019-08-01T16:34:50Z</time>
      </trkpt>
      <trkpt lat="44.25787" lon="4.29322">
        <ele>125.59</ele>
        <time>2019-08-01T16:34:53Z</time>
      </trkpt>
      <trkpt lat="44.25807" lon="4.29345">
        <ele>125.54</ele>
        <time>2019-08-01T16:34:56Z</time>
      </trkpt>
      <trkpt lat="44.25821" lon="4.29369">
        <ele>126.29</ele>
        <time>2019-08-01T16:35:00Z</time>
      </trkpt>
      <trkpt lat="44.25836" lon="4.29391">
        <ele>126.25</ele>
        <time>2019-08-01T16:35:04Z</time>
      </trkpt>
      <trkpt lat="44.25846" lon="4.29413">
        <ele>124.03</ele>
        <time>2019-08-01T16:35:08Z</time>
      </trkpt>
      <trkpt lat="44.25857" lon="4.29434">
        <ele>125.29</ele>
        <time>2019-08-01T16:35:12Z</time>
      </trkpt>
      <trkpt lat="44.25872" lon="4.29459">
        <ele>125.01</ele>
        <time>2019-08-01T16:35:16Z</time>
      </trkpt>
      <trkpt lat="44.25883" lon="4.29488">
        <ele>124.22</ele>
        <time>2019-08-01T16:35:20Z</time>
      </trkpt>
      <trkpt lat="44.25897" lon="4.29505">
        <ele>124.41</ele>
        <time>2019-08-01T16:35:23Z</time>
      </trkpt>
      <trkpt lat="44.25909" lon="4.29524">
        <ele>124.73</ele>
        <time>2019-08-01T16:35:26Z</time>
      </trkpt>
      <trkpt lat="44.25922" lon="4.29544">
        <ele>125.6</ele>
        <time>2019-08-01T16:35:29Z</time>
      </trkpt>
      <trkpt lat="44.25933" lon="4.29566">
        <ele>125.71</ele>
        <time>2019-08-01T16:35:32Z</time>
      </trkpt>
      <trkpt lat="44.25946" lon="4.2959">
        <ele>124.22</ele>
        <time>2019-08-01T16:35:36Z</time>
      </trkpt>
      <trkpt lat="44.25959" lon="4.29607">
        <ele>127.74</ele>
        <time>2019-08-01T16:35:40Z</time>
      </trkpt>
      <trkpt lat="44.25974" lon="4.2963">
        <ele>125.6</ele>
        <time>2019-08-01T16:35:44Z</time>
      </trkpt>
      <trkpt lat="44.2599" lon="4.29647">
        <ele>124.7</ele>
        <time>2019-08-01T16:35:47Z</time>
      </trkpt>
      <trkpt lat="44.2601" lon="4.29664">
        <ele>123.83</ele>
        <time>2019-08-01T16:35:51Z</time>
      </trkpt>
      <trkpt lat="44.26034" lon="4.2968">
        <ele>125.24</ele>
        <time>2019-08-01T16:35:55Z</time>
      </trkpt>
      <trkpt lat="44.26051" lon="4.29691">
        <ele>125.99</ele>
        <time>2019-08-01T16:35:58Z</time>
      </trkpt>
      <trkpt lat="44.26074" lon="4.29697">
        <ele>127.88</ele>
        <time>2019-08-01T16:36:02Z</time>
      </trkpt>
      <trkpt lat="44.26092" lon="4.2971">
        <ele>126.85</ele>
        <time>2019-08-01T16:36:05Z</time>
      </trkpt>
      <trkpt lat="44.26111" lon="4.2972">
        <ele>125.65</ele>
        <time>2019-08-01T16:36:08Z</time>
      </trkpt>
      <trkpt lat="44.2613" lon="4.29733">
        <ele>125.12</ele>
        <time>2019-08-01T16:36:11Z</time>
      </trkpt>
      <trkpt lat="44.26148" lon="4.29742">
        <ele>124.74</ele>
        <time>2019-08-01T16:36:14Z</time>
      </trkpt>
      <trkpt lat="44.26166" lon="4.2975">
        <ele>124.72</ele>
        <time>2019-08-01T16:36:17Z</time>
      </trkpt>
      <trkpt lat="44.26184" lon="4.29762">
        <ele>125.55</ele>
        <time>2019-08-01T16:36:20Z</time>
      </trkpt>
      <trkpt lat="44.26206" lon="4.29772">
        <ele>126.42</ele>
        <time>2019-08-01T16:36:24Z</time>
      </trkpt>
      <trkpt lat="44.26227" lon="4.29781">
        <ele>125.99</ele>
        <time>2019-08-01T16:36:28Z</time>
      </trkpt>
      <trkpt lat="44.26245" lon="4.29791">
        <ele>123.75</ele>
        <time>2019-08-01T16:36:31Z</time>
      </trkpt>
      <trkpt lat="44.26261" lon="4.29804">
        <ele>124.41</ele>
        <time>2019-08-01T16:36:34Z</time>
      </trkpt>
      <trkpt lat="44.26279" lon="4.29812">
        <ele>126.11</ele>
        <time>2019-08-01T16:36:37Z</time>
      </trkpt>
      <trkpt lat="44.26301" lon="4.29823">
        <ele>124.8</ele>
        <time>2019-08-01T16:36:41Z</time>
      </trkpt>
      <trkpt lat="44.2632" lon="4.2983">
        <ele>123.95</ele>
        <time>2019-08-01T16:36:44Z</time>
      </trkpt>
      <trkpt lat="44.26341" lon="4.29833">
        <ele>124.45</ele>
        <time>2019-08-01T16:36:48Z</time>
      </trkpt>
      <trkpt lat="44.26364" lon="4.29841">
        <ele>125.55</ele>
        <time>2019-08-01T16:36:52Z</time>
      </trkpt>
      <trkpt lat="44.26382" lon="4.29846">
        <ele>125.66</ele>
        <time>2019-08-01T16:36:55Z</time>
      </trkpt>
      <trkpt lat="44.264" lon="4.29852">
        <ele>125.79</ele>
        <time>2019-08-01T16:36:58Z</time>
      </trkpt>
      <trkpt lat="44.26418" lon="4.2986">
        <ele>125.08</ele>
        <time>2019-08-01T16:37:01Z</time>
      </trkpt>
      <trkpt lat="44.26439" lon="4.2987">
        <ele>124.67</ele>
        <time>2019-08-01T16:37:05Z</time>
      </trkpt>
      <trkpt lat="44.26459" lon="4.29882">
        <ele>125.65</ele>
        <time>2019-08-01T16:37:09Z</time>
      </trkpt>
      <trkpt lat="44.2648" lon="4.29898">
        <ele>126.01</ele>
        <time>2019-08-01T16:37:13Z</time>
      </trkpt>
      <trkpt lat="44.26497" lon="4.29908">
        <ele>126.22</ele>
        <time>2019-08-01T16:37:16Z</time>
      </trkpt>
      <trkpt lat="44.26516" lon="4.29918">
        <ele>126.01</ele>
        <time>2019-08-01T16:37:20Z</time>
      </trkpt>
      <trkpt lat="44.26534" lon="4.29928">
        <ele>126.26</ele>
        <time>2019-08-01T16:37:23Z</time>
      </trkpt>
      <trkpt lat="44.26556" lon="4.29941">
        <ele>127.53</ele>
        <time>2019-08-01T16:37:27Z</time>
      </trkpt>
      <trkpt lat="44.26573" lon="4.29952">
        <ele>127.12</ele>
        <time>2019-08-01T16:37:30Z</time>
      </trkpt>
      <trkpt lat="44.26595" lon="4.29964">
        <ele>125.21</ele>
        <time>2019-08-01T16:37:34Z</time>
      </trkpt>
      <trkpt lat="44.26611" lon="4.29977">
        <ele>125.63</ele>
        <time>2019-08-01T16:37:37Z</time>
      </trkpt>
      <trkpt lat="44.26635" lon="4.29993">
        <ele>126.71</ele>
        <time>2019-08-01T16:37:41Z</time>
      </trkpt>
      <trkpt lat="44.26655" lon="4.30001">
        <ele>128.47</ele>
        <time>2019-08-01T16:37:45Z</time>
      </trkpt>
      <trkpt lat="44.26676" lon="4.30008">
        <ele>130.7</ele>
        <time>2019-08-01T16:37:49Z</time>
      </trkpt>
      <trkpt lat="44.26694" lon="4.30022">
        <ele>129.89</ele>
        <time>2019-08-01T16:37:52Z</time>
      </trkpt>
      <trkpt lat="44.2671" lon="4.30033">
        <ele>129.16</ele>
        <time>2019-08-01T16:37:55Z</time>
      </trkpt>
      <trkpt lat="44.26727" lon="4.30044">
        <ele>130.32</ele>
        <time>2019-08-01T16:37:58Z</time>
      </trkpt>
      <trkpt lat="44.26749" lon="4.30059">
        <ele>129.64</ele>
        <time>2019-08-01T16:38:02Z</time>
      </trkpt>
      <trkpt lat="44.2677" lon="4.30072">
        <ele>127.87</ele>
        <time>2019-08-01T16:38:06Z</time>
      </trkpt>
      <trkpt lat="44.26788" lon="4.30081">
        <ele>127.52</ele>
        <time>2019-08-01T16:38:09Z</time>
      </trkpt>
      <trkpt lat="44.26812" lon="4.30091">
        <ele>126.52</ele>
        <time>2019-08-01T16:38:13Z</time>
      </trkpt>
      <trkpt lat="44.26831" lon="4.30103">
        <ele>125.64</ele>
        <time>2019-08-01T16:38:16Z</time>
      </trkpt>
      <trkpt lat="44.26849" lon="4.30108">
        <ele>125.38</ele>
        <time>2019-08-01T16:38:19Z</time>
      </trkpt>
      <trkpt lat="44.2687" lon="4.30114">
        <ele>125.72</ele>
        <time>2019-08-01T16:38:23Z</time>
      </trkpt>
      <trkpt lat="44.26892" lon="4.30116">
        <ele>125.69</ele>
        <time>2019-08-01T16:38:27Z</time>
      </trkpt>
      <trkpt lat="44.2691" lon="4.30126">
        <ele>125.97</ele>
        <time>2019-08-01T16:38:30Z</time>
      </trkpt>
      <trkpt lat="44.26928" lon="4.3013">
        <ele>125.83</ele>
        <time>2019-08-01T16:38:33Z</time>
      </trkpt>
      <trkpt lat="44.26946" lon="4.30138">
        <ele>127.64</ele>
        <time>2019-08-01T16:38:36Z</time>
      </trkpt>
      <trkpt lat="44.26964" lon="4.30145">
        <ele>128.47</ele>
        <time>2019-08-01T16:38:39Z</time>
      </trkpt>
      <trkpt lat="44.26985" lon="4.30155">
        <ele>128.09</ele>
        <time>2019-08-01T16:38:43Z</time>
      </trkpt>
      <trkpt lat="44.27004" lon="4.30164">
        <ele>128.49</ele>
        <time>2019-08-01T16:38:47Z</time>
      </trkpt>
      <trkpt lat="44.27023" lon="4.3017">
        <ele>128.77</ele>
        <time>2019-08-01T16:38:51Z</time>
      </trkpt>
      <trkpt lat="44.2704" lon="4.3018">
        <ele>129.08</ele>
        <time>2019-08-01T16:38:54Z</time>
      </trkpt>
      <trkpt lat="44.27061" lon="4.30193">
        <ele>129</ele>
        <time>2019-08-01T16:38:58Z</time>
      </trkpt>
      <trkpt lat="44.27081" lon="4.3021">
        <ele>127.5</ele>
        <time>2019-08-01T16:39:02Z</time>
      </trkpt>
      <trkpt lat="44.27096" lon="4.30224">
        <ele>126.59</ele>
        <time>2019-08-01T16:39:05Z</time>
      </trkpt>
      <trkpt lat="44.27116" lon="4.30236">
        <ele>128.15</ele>
        <time>2019-08-01T16:39:09Z</time>
      </trkpt>
      <trkpt lat="44.27139" lon="4.3025">
        <ele>128.03</ele>
        <time>2019-08-01T16:39:13Z</time>
      </trkpt>
      <trkpt lat="44.2716" lon="4.30264">
        <ele>130.28</ele>
        <time>2019-08-01T16:39:17Z</time>
      </trkpt>
      <trkpt lat="44.2718" lon="4.30271">
        <ele>132.36</ele>
        <time>2019-08-01T16:39:21Z</time>
      </trkpt>
      <trkpt lat="44.27198" lon="4.30286">
        <ele>129.36</ele>
        <time>2019-08-01T16:39:24Z</time>
      </trkpt>
      <trkpt lat="44.27219" lon="4.30301">
        <ele>127.58</ele>
        <time>2019-08-01T16:39:28Z</time>
      </trkpt>
      <trkpt lat="44.27235" lon="4.30315">
        <ele>127.32</ele>
        <time>2019-08-01T16:39:31Z</time>
      </trkpt>
      <trkpt lat="44.27257" lon="4.30324">
        <ele>126.21</ele>
        <time>2019-08-01T16:39:35Z</time>
      </trkpt>
      <trkpt lat="44.27279" lon="4.30335">
        <ele>127.63</ele>
        <time>2019-08-01T16:39:39Z</time>
      </trkpt>
      <trkpt lat="44.27296" lon="4.30345">
        <ele>129.07</ele>
        <time>2019-08-01T16:39:42Z</time>
      </trkpt>
      <trkpt lat="44.27317" lon="4.30358">
        <ele>130.32</ele>
        <time>2019-08-01T16:39:46Z</time>
      </trkpt>
      <trkpt lat="44.27338" lon="4.30371">
        <ele>131.92</ele>
        <time>2019-08-01T16:39:50Z</time>
      </trkpt>
      <trkpt lat="44.27358" lon="4.30379">
        <ele>137.67</ele>
        <time>2019-08-01T16:39:54Z</time>
      </trkpt>
      <trkpt lat="44.27374" lon="4.30393">
        <ele>138.67</ele>
        <time>2019-08-01T16:39:57Z</time>
      </trkpt>
      <trkpt lat="44.27395" lon="4.30409">
        <ele>137.88</ele>
        <time>2019-08-01T16:40:01Z</time>
      </trkpt>
      <trkpt lat="44.27412" lon="4.30423">
        <ele>137.25</ele>
        <time>2019-08-01T16:40:04Z</time>
      </trkpt>
      <trkpt lat="44.27428" lon="4.30439">
        <ele>135.7</ele>
        <time>2019-08-01T16:40:08Z</time>
      </trkpt>
      <trkpt lat="44.27445" lon="4.3046">
        <ele>135.11</ele>
        <time>2019-08-01T16:40:11Z</time>
      </trkpt>
      <trkpt lat="44.27458" lon="4.3048">
        <ele>134.35</ele>
        <time>2019-08-01T16:40:14Z</time>
      </trkpt>
      <trkpt lat="44.27472" lon="4.30497">
        <ele>134.53</ele>
        <time>2019-08-01T16:40:17Z</time>
      </trkpt>
      <trkpt lat="44.27486" lon="4.30517">
        <ele>134.52</ele>
        <time>2019-08-01T16:40:20Z</time>
      </trkpt>
      <trkpt lat="44.27505" lon="4.30535">
        <ele>134.24</ele>
        <time>2019-08-01T16:40:24Z</time>
      </trkpt>
      <trkpt lat="44.27527" lon="4.30547">
        <ele>135.16</ele>
        <time>2019-08-01T16:40:28Z</time>
      </trkpt>
      <trkpt lat="44.27544" lon="4.30556">
        <ele>135.51</ele>
        <time>2019-08-01T16:40:32Z</time>
      </trkpt>
      <trkpt lat="44.2756" lon="4.30568">
        <ele>135.93</ele>
        <time>2019-08-01T16:40:35Z</time>
      </trkpt>
      <trkpt lat="44.27581" lon="4.30583">
        <ele>137.61</ele>
        <time>2019-08-01T16:40:39Z</time>
      </trkpt>
      <trkpt lat="44.27604" lon="4.30593">
        <ele>138.05</ele>
        <time>2019-08-01T16:40:43Z</time>
      </trkpt>
      <trkpt lat="44.27621" lon="4.306">
        <ele>138.97</ele>
        <time>2019-08-01T16:40:46Z</time>
      </trkpt>
      <trkpt lat="44.27642" lon="4.30615">
        <ele>138.84</ele>
        <time>2019-08-01T16:40:50Z</time>
      </trkpt>
      <trkpt lat="44.27659" lon="4.30625">
        <ele>138.69</ele>
        <time>2019-08-01T16:40:53Z</time>
      </trkpt>
      <trkpt lat="44.27682" lon="4.3064">
        <ele>137.75</ele>
        <time>2019-08-01T16:40:57Z</time>
      </trkpt>
      <trkpt lat="44.27699" lon="4.3065">
        <ele>136.8</ele>
        <time>2019-08-01T16:41:00Z</time>
      </trkpt>
      <trkpt lat="44.27716" lon="4.30661">
        <ele>137.41</ele>
        <time>2019-08-01T16:41:03Z</time>
      </trkpt>
      <trkpt lat="44.27733" lon="4.30671">
        <ele>137.51</ele>
        <time>2019-08-01T16:41:06Z</time>
      </trkpt>
      <trkpt lat="44.27754" lon="4.30679">
        <ele>137.89</ele>
        <time>2019-08-01T16:41:10Z</time>
      </trkpt>
      <trkpt lat="44.27771" lon="4.30691">
        <ele>138.37</ele>
        <time>2019-08-01T16:41:13Z</time>
      </trkpt>
      <trkpt lat="44.27788" lon="4.30702">
        <ele>137.6</ele>
        <time>2019-08-01T16:41:16Z</time>
      </trkpt>
      <trkpt lat="44.2781" lon="4.30712">
        <ele>137.7</ele>
        <time>2019-08-01T16:41:20Z</time>
      </trkpt>
      <trkpt lat="44.27827" lon="4.30723">
        <ele>137.44</ele>
        <time>2019-08-01T16:41:23Z</time>
      </trkpt>
      <trkpt lat="44.27844" lon="4.30734">
        <ele>138.01</ele>
        <time>2019-08-01T16:41:26Z</time>
      </trkpt>
      <trkpt lat="44.27865" lon="4.30746">
        <ele>139.54</ele>
        <time>2019-08-01T16:41:30Z</time>
      </trkpt>
      <trkpt lat="44.27881" lon="4.3076">
        <ele>138.44</ele>
        <time>2019-08-01T16:41:33Z</time>
      </trkpt>
      <trkpt lat="44.27899" lon="4.30778">
        <ele>137.91</ele>
        <time>2019-08-01T16:41:37Z</time>
      </trkpt>
      <trkpt lat="44.27913" lon="4.30798">
        <ele>136.84</ele>
        <time>2019-08-01T16:41:41Z</time>
      </trkpt>
      <trkpt lat="44.27924" lon="4.30819">
        <ele>137.59</ele>
        <time>2019-08-01T16:41:44Z</time>
      </trkpt>
      <trkpt lat="44.27938" lon="4.3084">
        <ele>138.25</ele>
        <time>2019-08-01T16:41:47Z</time>
      </trkpt>
      <trkpt lat="44.27947" lon="4.30862">
        <ele>137.62</ele>
        <time>2019-08-01T16:41:50Z</time>
      </trkpt>
      <trkpt lat="44.27955" lon="4.30885">
        <ele>136.93</ele>
        <time>2019-08-01T16:41:53Z</time>
      </trkpt>
      <trkpt lat="44.27962" lon="4.30909">
        <ele>136.6</ele>
        <time>2019-08-01T16:41:56Z</time>
      </trkpt>
      <trkpt lat="44.27967" lon="4.30942">
        <ele>136.57</ele>
        <time>2019-08-01T16:42:00Z</time>
      </trkpt>
      <trkpt lat="44.27971" lon="4.30967">
        <ele>136.96</ele>
        <time>2019-08-01T16:42:03Z</time>
      </trkpt>
      <trkpt lat="44.27973" lon="4.30998">
        <ele>136.69</ele>
        <time>2019-08-01T16:42:07Z</time>
      </trkpt>
      <trkpt lat="44.27977" lon="4.31024">
        <ele>137.56</ele>
        <time>2019-08-01T16:42:10Z</time>
      </trkpt>
      <trkpt lat="44.27978" lon="4.31054">
        <ele>138.38</ele>
        <time>2019-08-01T16:42:14Z</time>
      </trkpt>
      <trkpt lat="44.27981" lon="4.31087">
        <ele>139.21</ele>
        <time>2019-08-01T16:42:18Z</time>
      </trkpt>
      <trkpt lat="44.27981" lon="4.31114">
        <ele>137.83</ele>
        <time>2019-08-01T16:42:21Z</time>
      </trkpt>
      <trkpt lat="44.27987" lon="4.3114">
        <ele>137.46</ele>
        <time>2019-08-01T16:42:24Z</time>
      </trkpt>
      <trkpt lat="44.27992" lon="4.31166">
        <ele>136.83</ele>
        <time>2019-08-01T16:42:27Z</time>
      </trkpt>
      <trkpt lat="44.28002" lon="4.31195">
        <ele>136.16</ele>
        <time>2019-08-01T16:42:31Z</time>
      </trkpt>
      <trkpt lat="44.28016" lon="4.3122">
        <ele>134.54</ele>
        <time>2019-08-01T16:42:35Z</time>
      </trkpt>
      <trkpt lat="44.2803" lon="4.31245">
        <ele>131.7</ele>
        <time>2019-08-01T16:42:39Z</time>
      </trkpt>
      <trkpt lat="44.28049" lon="4.31258">
        <ele>133.81</ele>
        <time>2019-08-01T16:42:42Z</time>
      </trkpt>
      <trkpt lat="44.28065" lon="4.31281">
        <ele>134.77</ele>
        <time>2019-08-01T16:42:45Z</time>
      </trkpt>
      <trkpt lat="44.28078" lon="4.31298">
        <ele>134.54</ele>
        <time>2019-08-01T16:42:48Z</time>
      </trkpt>
      <trkpt lat="44.28092" lon="4.31317">
        <ele>135.35</ele>
        <time>2019-08-01T16:42:51Z</time>
      </trkpt>
      <trkpt lat="44.2811" lon="4.31338">
        <ele>136.64</ele>
        <time>2019-08-01T16:42:55Z</time>
      </trkpt>
      <trkpt lat="44.28123" lon="4.31359">
        <ele>135.5</ele>
        <time>2019-08-01T16:42:58Z</time>
      </trkpt>
      <trkpt lat="44.28137" lon="4.31377">
        <ele>133.93</ele>
        <time>2019-08-01T16:43:01Z</time>
      </trkpt>
      <trkpt lat="44.28153" lon="4.31399">
        <ele>130.27</ele>
        <time>2019-08-01T16:43:05Z</time>
      </trkpt>
      <trkpt lat="44.28168" lon="4.31415">
        <ele>131.39</ele>
        <time>2019-08-01T16:43:08Z</time>
      </trkpt>
      <trkpt lat="44.28183" lon="4.31435">
        <ele>131.65</ele>
        <time>2019-08-01T16:43:11Z</time>
      </trkpt>
      <trkpt lat="44.28202" lon="4.31453">
        <ele>131.96</ele>
        <time>2019-08-01T16:43:15Z</time>
      </trkpt>
      <trkpt lat="44.28217" lon="4.3147">
        <ele>132.28</ele>
        <time>2019-08-01T16:43:18Z</time>
      </trkpt>
      <trkpt lat="44.28232" lon="4.31488">
        <ele>133.77</ele>
        <time>2019-08-01T16:43:21Z</time>
      </trkpt>
      <trkpt lat="44.28246" lon="4.31505">
        <ele>131.94</ele>
        <time>2019-08-01T16:43:24Z</time>
      </trkpt>
      <trkpt lat="44.28264" lon="4.31527">
        <ele>131.45</ele>
        <time>2019-08-01T16:43:28Z</time>
      </trkpt>
      <trkpt lat="44.28278" lon="4.31545">
        <ele>131.95</ele>
        <time>2019-08-01T16:43:31Z</time>
      </trkpt>
      <trkpt lat="44.28292" lon="4.31565">
        <ele>129.27</ele>
        <time>2019-08-01T16:43:36Z</time>
      </trkpt>
      <trkpt lat="44.28307" lon="4.31583">
        <ele>127.7</ele>
        <time>2019-08-01T16:43:40Z</time>
      </trkpt>
      <trkpt lat="44.28325" lon="4.31604">
        <ele>127.96</ele>
        <time>2019-08-01T16:43:44Z</time>
      </trkpt>
      <trkpt lat="44.28343" lon="4.31621">
        <ele>129.9</ele>
        <time>2019-08-01T16:43:48Z</time>
      </trkpt>
      <trkpt lat="44.28357" lon="4.31642">
        <ele>130.61</ele>
        <time>2019-08-01T16:43:51Z</time>
      </trkpt>
      <trkpt lat="44.28374" lon="4.31657">
        <ele>132.52</ele>
        <time>2019-08-01T16:43:55Z</time>
      </trkpt>
      <trkpt lat="44.28392" lon="4.31673">
        <ele>132.82</ele>
        <time>2019-08-01T16:43:59Z</time>
      </trkpt>
      <trkpt lat="44.28411" lon="4.31697">
        <ele>133.27</ele>
        <time>2019-08-01T16:44:03Z</time>
      </trkpt>
      <trkpt lat="44.2843" lon="4.31708">
        <ele>136.05</ele>
        <time>2019-08-01T16:44:08Z</time>
      </trkpt>
      <trkpt lat="44.28441" lon="4.31731">
        <ele>136.21</ele>
        <time>2019-08-01T16:44:11Z</time>
      </trkpt>
      <trkpt lat="44.28456" lon="4.3176">
        <ele>135.64</ele>
        <time>2019-08-01T16:44:15Z</time>
      </trkpt>
      <trkpt lat="44.28469" lon="4.31782">
        <ele>134.33</ele>
        <time>2019-08-01T16:44:18Z</time>
      </trkpt>
      <trkpt lat="44.28482" lon="4.31807">
        <ele>135.07</ele>
        <time>2019-08-01T16:44:22Z</time>
      </trkpt>
      <trkpt lat="44.28492" lon="4.31827">
        <ele>135.36</ele>
        <time>2019-08-01T16:44:25Z</time>
      </trkpt>
      <trkpt lat="44.28504" lon="4.31847">
        <ele>135</ele>
        <time>2019-08-01T16:44:28Z</time>
      </trkpt>
      <trkpt lat="44.28518" lon="4.31864">
        <ele>137.08</ele>
        <time>2019-08-01T16:44:31Z</time>
      </trkpt>
      <trkpt lat="44.28532" lon="4.3189">
        <ele>137.35</ele>
        <time>2019-08-01T16:44:35Z</time>
      </trkpt>
      <trkpt lat="44.28541" lon="4.31912">
        <ele>150.65</ele>
        <time>2019-08-01T16:44:38Z</time>
      </trkpt>
      <trkpt lat="44.28553" lon="4.31936">
        <ele>141.09</ele>
        <time>2019-08-01T16:44:41Z</time>
      </trkpt>
      <trkpt lat="44.28569" lon="4.3196">
        <ele>136.89</ele>
        <time>2019-08-01T16:44:45Z</time>
      </trkpt>
      <trkpt lat="44.2858" lon="4.31983">
        <ele>137.55</ele>
        <time>2019-08-01T16:44:49Z</time>
      </trkpt>
      <trkpt lat="44.28593" lon="4.32006">
        <ele>137.03</ele>
        <time>2019-08-01T16:44:52Z</time>
      </trkpt>
      <trkpt lat="44.28602" lon="4.3203">
        <ele>137.7</ele>
        <time>2019-08-01T16:44:55Z</time>
      </trkpt>
      <trkpt lat="44.28615" lon="4.32055">
        <ele>137.42</ele>
        <time>2019-08-01T16:44:58Z</time>
      </trkpt>
      <trkpt lat="44.28627" lon="4.32082">
        <ele>137.55</ele>
        <time>2019-08-01T16:45:01Z</time>
      </trkpt>
      <trkpt lat="44.28639" lon="4.32108">
        <ele>137.08</ele>
        <time>2019-08-01T16:45:04Z</time>
      </trkpt>
      <trkpt lat="44.2865" lon="4.32131">
        <ele>138.71</ele>
        <time>2019-08-01T16:45:07Z</time>
      </trkpt>
      <trkpt lat="44.28661" lon="4.32157">
        <ele>137.13</ele>
        <time>2019-08-01T16:45:10Z</time>
      </trkpt>
      <trkpt lat="44.28673" lon="4.32185">
        <ele>138.19</ele>
        <time>2019-08-01T16:45:13Z</time>
      </trkpt>
      <trkpt lat="44.28683" lon="4.32212">
        <ele>136.54</ele>
        <time>2019-08-01T16:45:16Z</time>
      </trkpt>
      <trkpt lat="44.28692" lon="4.32237">
        <ele>135.36</ele>
        <time>2019-08-01T16:45:19Z</time>
      </trkpt>
      <trkpt lat="44.28704" lon="4.32262">
        <ele>135.93</ele>
        <time>2019-08-01T16:45:22Z</time>
      </trkpt>
      <trkpt lat="44.2871" lon="4.32286">
        <ele>133.74</ele>
        <time>2019-08-01T16:45:25Z</time>
      </trkpt>
      <trkpt lat="44.28717" lon="4.32311">
        <ele>133.11</ele>
        <time>2019-08-01T16:45:28Z</time>
      </trkpt>
      <trkpt lat="44.28722" lon="4.32338">
        <ele>133.38</ele>
        <time>2019-08-01T16:45:31Z</time>
      </trkpt>
      <trkpt lat="44.28723" lon="4.32366">
        <ele>132.9</ele>
        <time>2019-08-01T16:45:34Z</time>
      </trkpt>
      <trkpt lat="44.28724" lon="4.32395">
        <ele>133.27</ele>
        <time>2019-08-01T16:45:37Z</time>
      </trkpt>
      <trkpt lat="44.28722" lon="4.32426">
        <ele>132.55</ele>
        <time>2019-08-01T16:45:40Z</time>
      </trkpt>
      <trkpt lat="44.28721" lon="4.32451">
        <ele>133.88</ele>
        <time>2019-08-01T16:45:43Z</time>
      </trkpt>
      <trkpt lat="44.28723" lon="4.32484">
        <ele>133.15</ele>
        <time>2019-08-01T16:45:47Z</time>
      </trkpt>
      <trkpt lat="44.28726" lon="4.32509">
        <ele>133.09</ele>
        <time>2019-08-01T16:45:50Z</time>
      </trkpt>
      <trkpt lat="44.28733" lon="4.32535">
        <ele>131.95</ele>
        <time>2019-08-01T16:45:53Z</time>
      </trkpt>
      <trkpt lat="44.28746" lon="4.32564">
        <ele>132.01</ele>
        <time>2019-08-01T16:45:56Z</time>
      </trkpt>
      <trkpt lat="44.28759" lon="4.32589">
        <ele>130.68</ele>
        <time>2019-08-01T16:45:59Z</time>
      </trkpt>
      <trkpt lat="44.28774" lon="4.32615">
        <ele>130.76</ele>
        <time>2019-08-01T16:46:02Z</time>
      </trkpt>
      <trkpt lat="44.28788" lon="4.32644">
        <ele>127.4</ele>
        <time>2019-08-01T16:46:05Z</time>
      </trkpt>
      <trkpt lat="44.28801" lon="4.32664">
        <ele>125.7</ele>
        <time>2019-08-01T16:46:08Z</time>
      </trkpt>
      <trkpt lat="44.28817" lon="4.32682">
        <ele>126.36</ele>
        <time>2019-08-01T16:46:11Z</time>
      </trkpt>
      <trkpt lat="44.28831" lon="4.327">
        <ele>126.49</ele>
        <time>2019-08-01T16:46:14Z</time>
      </trkpt>
      <trkpt lat="44.28849" lon="4.32723">
        <ele>125.02</ele>
        <time>2019-08-01T16:46:18Z</time>
      </trkpt>
      <trkpt lat="44.28865" lon="4.32748">
        <ele>123</ele>
        <time>2019-08-01T16:46:22Z</time>
      </trkpt>
      <trkpt lat="44.28881" lon="4.32764">
        <ele>123.89</ele>
        <time>2019-08-01T16:46:25Z</time>
      </trkpt>
      <trkpt lat="44.28895" lon="4.32783">
        <ele>123.09</ele>
        <time>2019-08-01T16:46:28Z</time>
      </trkpt>
      <trkpt lat="44.28916" lon="4.328">
        <ele>126.33</ele>
        <time>2019-08-01T16:46:32Z</time>
      </trkpt>
      <trkpt lat="44.28931" lon="4.32815">
        <ele>125.63</ele>
        <time>2019-08-01T16:46:35Z</time>
      </trkpt>
      <trkpt lat="44.28951" lon="4.32834">
        <ele>124.93</ele>
        <time>2019-08-01T16:46:39Z</time>
      </trkpt>
      <trkpt lat="44.28972" lon="4.32847">
        <ele>123.93</ele>
        <time>2019-08-01T16:46:43Z</time>
      </trkpt>
      <trkpt lat="44.28993" lon="4.32859">
        <ele>124.56</ele>
        <time>2019-08-01T16:46:47Z</time>
      </trkpt>
      <trkpt lat="44.29015" lon="4.32877">
        <ele>124.43</ele>
        <time>2019-08-01T16:46:51Z</time>
      </trkpt>
      <trkpt lat="44.2903" lon="4.32893">
        <ele>123.28</ele>
        <time>2019-08-01T16:46:54Z</time>
      </trkpt>
      <trkpt lat="44.29047" lon="4.32915">
        <ele>124.6</ele>
        <time>2019-08-01T16:46:58Z</time>
      </trkpt>
      <trkpt lat="44.29061" lon="4.32933">
        <ele>124.58</ele>
        <time>2019-08-01T16:47:01Z</time>
      </trkpt>
      <trkpt lat="44.29077" lon="4.32956">
        <ele>125.02</ele>
        <time>2019-08-01T16:47:05Z</time>
      </trkpt>
      <trkpt lat="44.29091" lon="4.3298">
        <ele>123.51</ele>
        <time>2019-08-01T16:47:09Z</time>
      </trkpt>
      <trkpt lat="44.29104" lon="4.33">
        <ele>123.06</ele>
        <time>2019-08-01T16:47:12Z</time>
      </trkpt>
      <trkpt lat="44.29114" lon="4.33021">
        <ele>122.15</ele>
        <time>2019-08-01T16:47:15Z</time>
      </trkpt>
      <trkpt lat="44.29128" lon="4.33047">
        <ele>121.18</ele>
        <time>2019-08-01T16:47:19Z</time>
      </trkpt>
      <trkpt lat="44.2914" lon="4.3307">
        <ele>121.25</ele>
        <time>2019-08-01T16:47:23Z</time>
      </trkpt>
      <trkpt lat="44.29153" lon="4.33092">
        <ele>123.21</ele>
        <time>2019-08-01T16:47:27Z</time>
      </trkpt>
      <trkpt lat="44.29169" lon="4.33116">
        <ele>123.05</ele>
        <time>2019-08-01T16:47:31Z</time>
      </trkpt>
      <trkpt lat="44.29185" lon="4.33138">
        <ele>123.92</ele>
        <time>2019-08-01T16:47:35Z</time>
      </trkpt>
      <trkpt lat="44.292" lon="4.33163">
        <ele>124.48</ele>
        <time>2019-08-01T16:47:39Z</time>
      </trkpt>
      <trkpt lat="44.29214" lon="4.33183">
        <ele>126.13</ele>
        <time>2019-08-01T16:47:42Z</time>
      </trkpt>
      <trkpt lat="44.29231" lon="4.33205">
        <ele>128.18</ele>
        <time>2019-08-01T16:47:46Z</time>
      </trkpt>
      <trkpt lat="44.29246" lon="4.33226">
        <ele>127.02</ele>
        <time>2019-08-01T16:47:49Z</time>
      </trkpt>
      <trkpt lat="44.29262" lon="4.33251">
        <ele>127.46</ele>
        <time>2019-08-01T16:47:52Z</time>
      </trkpt>
      <trkpt lat="44.29279" lon="4.33263">
        <ele>125.99</ele>
        <time>2019-08-01T16:47:57Z</time>
      </trkpt>
      <trkpt lat="44.29293" lon="4.33283">
        <ele>125.23</ele>
        <time>2019-08-01T16:48:00Z</time>
      </trkpt>
      <trkpt lat="44.29307" lon="4.33303">
        <ele>125.58</ele>
        <time>2019-08-01T16:48:03Z</time>
      </trkpt>
      <trkpt lat="44.29324" lon="4.33323">
        <ele>125.31</ele>
        <time>2019-08-01T16:48:07Z</time>
      </trkpt>
      <trkpt lat="44.2934" lon="4.33339">
        <ele>124.04</ele>
        <time>2019-08-01T16:48:11Z</time>
      </trkpt>
      <trkpt lat="44.29354" lon="4.33355">
        <ele>123.65</ele>
        <time>2019-08-01T16:48:14Z</time>
      </trkpt>
      <trkpt lat="44.29372" lon="4.33379">
        <ele>123.4</ele>
        <time>2019-08-01T16:48:18Z</time>
      </trkpt>
      <trkpt lat="44.29383" lon="4.334">
        <ele>123.32</ele>
        <time>2019-08-01T16:48:20Z</time>
      </trkpt>
      <trkpt lat="44.29397" lon="4.33419">
        <ele>122.88</ele>
        <time>2019-08-01T16:48:23Z</time>
      </trkpt>
      <trkpt lat="44.29415" lon="4.33437">
        <ele>122.68</ele>
        <time>2019-08-01T16:48:28Z</time>
      </trkpt>
      <trkpt lat="44.29432" lon="4.33456">
        <ele>121.85</ele>
        <time>2019-08-01T16:48:32Z</time>
      </trkpt>
      <trkpt lat="44.2945" lon="4.33477">
        <ele>122.11</ele>
        <time>2019-08-01T16:48:36Z</time>
      </trkpt>
      <trkpt lat="44.29466" lon="4.33501">
        <ele>121.9</ele>
        <time>2019-08-01T16:48:40Z</time>
      </trkpt>
      <trkpt lat="44.2948" lon="4.33521">
        <ele>122.67</ele>
        <time>2019-08-01T16:48:43Z</time>
      </trkpt>
      <trkpt lat="44.29493" lon="4.33541">
        <ele>124.65</ele>
        <time>2019-08-01T16:48:46Z</time>
      </trkpt>
      <trkpt lat="44.29509" lon="4.33563">
        <ele>123.01</ele>
        <time>2019-08-01T16:48:50Z</time>
      </trkpt>
      <trkpt lat="44.29524" lon="4.3358">
        <ele>123.11</ele>
        <time>2019-08-01T16:48:53Z</time>
      </trkpt>
      <trkpt lat="44.29541" lon="4.336">
        <ele>123.62</ele>
        <time>2019-08-01T16:48:58Z</time>
      </trkpt>
      <trkpt lat="44.29553" lon="4.33621">
        <ele>124.23</ele>
        <time>2019-08-01T16:49:01Z</time>
      </trkpt>
      <trkpt lat="44.29566" lon="4.33648">
        <ele>123.74</ele>
        <time>2019-08-01T16:49:04Z</time>
      </trkpt>
      <trkpt lat="44.29581" lon="4.33669">
        <ele>124.39</ele>
        <time>2019-08-01T16:49:08Z</time>
      </trkpt>
      <trkpt lat="44.29596" lon="4.33698">
        <ele>126.46</ele>
        <time>2019-08-01T16:49:12Z</time>
      </trkpt>
      <trkpt lat="44.29606" lon="4.33722">
        <ele>125.67</ele>
        <time>2019-08-01T16:49:15Z</time>
      </trkpt>
      <trkpt lat="44.29617" lon="4.33749">
        <ele>124.82</ele>
        <time>2019-08-01T16:49:19Z</time>
      </trkpt>
      <trkpt lat="44.2963" lon="4.33769">
        <ele>123.91</ele>
        <time>2019-08-01T16:49:23Z</time>
      </trkpt>
      <trkpt lat="44.29643" lon="4.33798">
        <ele>124.04</ele>
        <time>2019-08-01T16:49:27Z</time>
      </trkpt>
      <trkpt lat="44.29656" lon="4.33816">
        <ele>122.38</ele>
        <time>2019-08-01T16:49:30Z</time>
      </trkpt>
      <trkpt lat="44.29675" lon="4.33837">
        <ele>122.99</ele>
        <time>2019-08-01T16:49:34Z</time>
      </trkpt>
      <trkpt lat="44.29691" lon="4.33853">
        <ele>123.78</ele>
        <time>2019-08-01T16:49:38Z</time>
      </trkpt>
      <trkpt lat="44.29712" lon="4.3387">
        <ele>125.36</ele>
        <time>2019-08-01T16:49:43Z</time>
      </trkpt>
      <trkpt lat="44.29724" lon="4.33889">
        <ele>124.34</ele>
        <time>2019-08-01T16:49:46Z</time>
      </trkpt>
      <trkpt lat="44.29739" lon="4.33908">
        <ele>124.92</ele>
        <time>2019-08-01T16:49:49Z</time>
      </trkpt>
      <trkpt lat="44.29755" lon="4.33924">
        <ele>126.22</ele>
        <time>2019-08-01T16:49:53Z</time>
      </trkpt>
      <trkpt lat="44.29769" lon="4.33944">
        <ele>126.92</ele>
        <time>2019-08-01T16:49:56Z</time>
      </trkpt>
      <trkpt lat="44.29788" lon="4.33961">
        <ele>127.09</ele>
        <time>2019-08-01T16:50:01Z</time>
      </trkpt>
      <trkpt lat="44.29806" lon="4.33981">
        <ele>128.39</ele>
        <time>2019-08-01T16:50:05Z</time>
      </trkpt>
      <trkpt lat="44.2982" lon="4.33999">
        <ele>129.07</ele>
        <time>2019-08-01T16:50:08Z</time>
      </trkpt>
      <trkpt lat="44.29833" lon="4.34022">
        <ele>130.31</ele>
        <time>2019-08-01T16:50:11Z</time>
      </trkpt>
      <trkpt lat="44.29847" lon="4.34042">
        <ele>133.52</ele>
        <time>2019-08-01T16:50:14Z</time>
      </trkpt>
      <trkpt lat="44.29865" lon="4.34065">
        <ele>133.45</ele>
        <time>2019-08-01T16:50:18Z</time>
      </trkpt>
      <trkpt lat="44.2988" lon="4.3408">
        <ele>132.65</ele>
        <time>2019-08-01T16:50:23Z</time>
      </trkpt>
      <trkpt lat="44.29897" lon="4.34097">
        <ele>131.93</ele>
        <time>2019-08-01T16:50:27Z</time>
      </trkpt>
      <trkpt lat="44.29914" lon="4.34118">
        <ele>132.93</ele>
        <time>2019-08-01T16:50:31Z</time>
      </trkpt>
      <trkpt lat="44.29933" lon="4.34137">
        <ele>133.86</ele>
        <time>2019-08-01T16:50:35Z</time>
      </trkpt>
      <trkpt lat="44.2995" lon="4.34153">
        <ele>133.55</ele>
        <time>2019-08-01T16:50:38Z</time>
      </trkpt>
      <trkpt lat="44.29973" lon="4.34162">
        <ele>134.06</ele>
        <time>2019-08-01T16:50:42Z</time>
      </trkpt>
      <trkpt lat="44.29993" lon="4.3417">
        <ele>134.27</ele>
        <time>2019-08-01T16:50:46Z</time>
      </trkpt>
      <trkpt lat="44.30015" lon="4.34175">
        <ele>135.31</ele>
        <time>2019-08-01T16:50:50Z</time>
      </trkpt>
      <trkpt lat="44.30036" lon="4.34187">
        <ele>135.44</ele>
        <time>2019-08-01T16:50:54Z</time>
      </trkpt>
      <trkpt lat="44.30054" lon="4.34197">
        <ele>131.38</ele>
        <time>2019-08-01T16:50:57Z</time>
      </trkpt>
      <trkpt lat="44.30076" lon="4.34198">
        <ele>132.31</ele>
        <time>2019-08-01T16:51:01Z</time>
      </trkpt>
      <trkpt lat="44.30098" lon="4.34198">
        <ele>131.94</ele>
        <time>2019-08-01T16:51:05Z</time>
      </trkpt>
      <trkpt lat="44.3012" lon="4.34197">
        <ele>132.9</ele>
        <time>2019-08-01T16:51:09Z</time>
      </trkpt>
      <trkpt lat="44.30142" lon="4.34198">
        <ele>134.38</ele>
        <time>2019-08-01T16:51:13Z</time>
      </trkpt>
      <trkpt lat="44.30165" lon="4.34192">
        <ele>136.78</ele>
        <time>2019-08-01T16:51:17Z</time>
      </trkpt>
      <trkpt lat="44.30188" lon="4.34193">
        <ele>137.4</ele>
        <time>2019-08-01T16:51:21Z</time>
      </trkpt>
      <trkpt lat="44.3021" lon="4.34192">
        <ele>137.36</ele>
        <time>2019-08-01T16:51:25Z</time>
      </trkpt>
      <trkpt lat="44.30232" lon="4.34186">
        <ele>138.94</ele>
        <time>2019-08-01T16:51:29Z</time>
      </trkpt>
      <trkpt lat="44.30253" lon="4.34179">
        <ele>141.7</ele>
        <time>2019-08-01T16:51:33Z</time>
      </trkpt>
      <trkpt lat="44.30272" lon="4.34176">
        <ele>143.83</ele>
        <time>2019-08-01T16:51:36Z</time>
      </trkpt>
      <trkpt lat="44.30296" lon="4.34179">
        <ele>141.93</ele>
        <time>2019-08-01T16:51:40Z</time>
      </trkpt>
      <trkpt lat="44.30314" lon="4.34182">
        <ele>140.09</ele>
        <time>2019-08-01T16:51:43Z</time>
      </trkpt>
      <trkpt lat="44.30336" lon="4.34182">
        <ele>137.67</ele>
        <time>2019-08-01T16:51:47Z</time>
      </trkpt>
      <trkpt lat="44.30358" lon="4.34191">
        <ele>135.12</ele>
        <time>2019-08-01T16:51:51Z</time>
      </trkpt>
      <trkpt lat="44.30376" lon="4.34201">
        <ele>133.61</ele>
        <time>2019-08-01T16:51:54Z</time>
      </trkpt>
      <trkpt lat="44.30394" lon="4.34208">
        <ele>134.83</ele>
        <time>2019-08-01T16:51:57Z</time>
      </trkpt>
      <trkpt lat="44.30413" lon="4.34215">
        <ele>136.96</ele>
        <time>2019-08-01T16:52:00Z</time>
      </trkpt>
      <trkpt lat="44.30435" lon="4.34226">
        <ele>139.5</ele>
        <time>2019-08-01T16:52:04Z</time>
      </trkpt>
      <trkpt lat="44.30456" lon="4.3423">
        <ele>141.51</ele>
        <time>2019-08-01T16:52:08Z</time>
      </trkpt>
      <trkpt lat="44.30472" lon="4.34241">
        <ele>141.52</ele>
        <time>2019-08-01T16:52:11Z</time>
      </trkpt>
      <trkpt lat="44.30489" lon="4.34252">
        <ele>142.28</ele>
        <time>2019-08-01T16:52:14Z</time>
      </trkpt>
      <trkpt lat="44.30505" lon="4.34269">
        <ele>143.59</ele>
        <time>2019-08-01T16:52:18Z</time>
      </trkpt>
      <trkpt lat="44.30522" lon="4.34294">
        <ele>141.79</ele>
        <time>2019-08-01T16:52:22Z</time>
      </trkpt>
      <trkpt lat="44.30544" lon="4.34286">
        <ele>142.26</ele>
        <time>2019-08-01T16:52:26Z</time>
      </trkpt>
      <trkpt lat="44.30562" lon="4.34283">
        <ele>142.88</ele>
        <time>2019-08-01T16:52:29Z</time>
      </trkpt>
      <trkpt lat="44.30582" lon="4.34289">
        <ele>143.24</ele>
        <time>2019-08-01T16:52:32Z</time>
      </trkpt>
      <trkpt lat="44.30603" lon="4.34295">
        <ele>144.9</ele>
        <time>2019-08-01T16:52:36Z</time>
      </trkpt>
      <trkpt lat="44.30626" lon="4.34301">
        <ele>143.47</ele>
        <time>2019-08-01T16:52:40Z</time>
      </trkpt>
      <trkpt lat="44.30649" lon="4.3431">
        <ele>144.48</ele>
        <time>2019-08-01T16:52:44Z</time>
      </trkpt>
      <trkpt lat="44.3067" lon="4.34319">
        <ele>143.68</ele>
        <time>2019-08-01T16:52:48Z</time>
      </trkpt>
      <trkpt lat="44.30686" lon="4.34335">
        <ele>142.65</ele>
        <time>2019-08-01T16:52:51Z</time>
      </trkpt>
      <trkpt lat="44.30703" lon="4.34363">
        <ele>143</ele>
        <time>2019-08-01T16:52:55Z</time>
      </trkpt>
      <trkpt lat="44.30722" lon="4.34358">
        <ele>141.61</ele>
        <time>2019-08-01T16:52:59Z</time>
      </trkpt>
      <trkpt lat="44.30712" lon="4.34334">
        <ele>141.97</ele>
        <time>2019-08-01T16:53:02Z</time>
      </trkpt>
      <trkpt lat="44.30692" lon="4.34325">
        <ele>142.05</ele>
        <time>2019-08-01T16:53:06Z</time>
      </trkpt>
      <trkpt lat="44.30674" lon="4.34317">
        <ele>141.1</ele>
        <time>2019-08-01T16:53:10Z</time>
      </trkpt>
    </trkseg>
  </trk>
</gpx>